Provisional Data: Marsh Creek near Blanchard, PA


Please select a monitoring station.
Please select start date.
Please select start date.

Toggle Unit: C/F Toggle Unit: C/F
Sample Time Temperature (C) Temperature (F) Specific Conductivity (mS/cm) pH   Turbidity (NTU+) DO (mg/L)
2/8/2023 12:00:00 AM 2.67 36.806 0.078 17.84 3.54 13.06
2/8/2023 12:15:00 AM 2.66 36.788 0.078 17.84 3.58 13.07
2/8/2023 12:30:00 AM 2.64 36.752 0.078 17.84 3.41 13.08
2/8/2023 12:45:00 AM 2.63 36.734 0.078 17.84 3.48 13.08
2/8/2023 1:00:00 AM 2.62 36.716 0.078 17.84 3.38 13.1
2/8/2023 1:15:00 AM 2.63 36.734 0.078 17.84 3.46 13.08
2/8/2023 1:30:00 AM 2.63 36.734 0.078 17.84 3.6 13.09
2/8/2023 1:45:00 AM 2.63 36.734 0.078 17.84 3.47 13.08
2/8/2023 2:00:00 AM 2.64 36.752 0.078 17.84 3.51 13.07
2/8/2023 2:15:00 AM 2.63 36.734 0.078 17.84 3.49 13.11
2/8/2023 2:30:00 AM 2.61 36.698 0.078 17.84 3.49 13.11
2/8/2023 2:45:00 AM 2.6 36.68 0.078 17.84 3.48 13.1
2/8/2023 3:00:00 AM 2.59 36.662 0.078 17.84 3.32 13.1
2/8/2023 3:15:00 AM 2.57 36.626 0.078 17.84 3.42 13.11
2/8/2023 3:30:00 AM 2.55 36.59 0.078 17.84 3.56 13.14
2/8/2023 3:45:00 AM 2.53 36.554 0.078 17.84 3.97 13.13
2/8/2023 4:00:00 AM 2.51 36.518 0.078 17.84 3.34 13.14
2/8/2023 4:15:00 AM 2.5 36.5 0.078 17.84 3.66 13.14
2/8/2023 4:30:00 AM 2.49 36.482 0.078 17.84 3.47 13.16
2/8/2023 4:45:00 AM 2.49 36.482 0.078 17.84 3.94 13.16
2/8/2023 5:00:00 AM 2.48 36.464 0.078 17.84 3.4 13.17
2/8/2023 5:15:00 AM 2.48 36.464 0.078 17.84 3.81 13.19
2/8/2023 5:30:00 AM 2.48 36.464 0.078 17.84 3.43 13.19
2/8/2023 5:45:00 AM 2.47 36.446 0.078 17.84 3.54 13.19
2/8/2023 6:00:00 AM 2.46 36.428 0.078 17.84 3.44 13.19
2/8/2023 6:15:00 AM 2.47 36.446 0.078 17.84 3.5 13.19
2/8/2023 6:30:00 AM 2.47 36.446 0.078 17.84 3.42 13.21
2/8/2023 6:45:00 AM 2.47 36.446 0.078 17.84 3.5 13.18
2/8/2023 7:00:00 AM 2.45 36.41 0.078 17.85 3.5 13.23
2/8/2023 7:15:00 AM 2.45 36.41 0.078 17.85 3.48 13.23
2/8/2023 7:30:00 AM 2.45 36.41 0.078 17.85 3.62 13.26
2/8/2023 7:45:00 AM 2.44 36.392 0.078 17.85 3.57 13.32
2/8/2023 8:00:00 AM 2.43 36.374 0.078 17.85 3.52 13.43
2/8/2023 8:15:00 AM 2.45 36.41 0.078 17.85 3.26 13.62
2/8/2023 8:30:00 AM 2.48 36.464 0.078 17.84 3.55 13.78
2/8/2023 8:45:00 AM 2.48 36.464 0.078 17.84 3.39 13.92
2/8/2023 9:00:00 AM 2.53 36.554 0.077 17.84 3.44 14.13
2/8/2023 9:15:00 AM 2.58 36.644 0.077 17.84 3.37 14.34
2/8/2023 9:30:00 AM 2.63 36.734 0.077 17.84 3.62 14.51
2/8/2023 9:45:00 AM 2.75 36.95 0.078 17.83 3.3 14.67
2/8/2023 10:00:00 AM 2.8 37.04 0.077 17.83 3.37 14.8
2/8/2023 10:15:00 AM 2.93 37.274 0.077 17.83 3.48 14.92
2/8/2023 10:30:00 AM 3.12 37.616 0.076 17.82 3.46 15.07
2/8/2023 10:45:00 AM 3.28 37.904 0.076 17.81 3.65 15.2
2/8/2023 11:00:00 AM 3.43 38.174 0.076 17.81 3.52 15.24
2/8/2023 11:15:00 AM 3.6 38.48 0.076 17.8 3.56 15.25
2/8/2023 11:30:00 AM 3.76 38.768 0.076 17.79 3.55 15.23
2/8/2023 11:45:00 AM 3.95 39.11 0.076 17.79 3.36 15.23
2/8/2023 12:00:00 PM 4.14 39.452 0.076 17.78 3.57 15.26
2/8/2023 12:15:00 PM 4.35 39.83 0.076 17.77 3.53 15.24
2/8/2023 12:30:00 PM 4.53 40.154 0.076 17.76 3.56 15.19
2/8/2023 12:45:00 PM 4.7 40.46 0.076 17.76 3.58 15.14
2/8/2023 1:00:00 PM 4.86 40.748 0.076 17.75 3.61 15.13
2/8/2023 1:15:00 PM 4.99 40.982 0.076 17.75 3.4 15.12
2/8/2023 1:30:00 PM 5.1 41.18 0.076 17.74 3.65 15.08
2/8/2023 1:45:00 PM 5.2 41.36 0.076 17.74 3.58 15.05
2/8/2023 2:00:00 PM 5.29 41.522 0.076 17.73 3.47 14.99
2/8/2023 2:15:00 PM 5.37 41.666 0.076 17.73 3.57 14.95
2/8/2023 2:30:00 PM 5.4 41.72 0.076 17.73 3.51 14.9
2/8/2023 2:45:00 PM 5.42 41.756 0.076 17.73 3.45 14.86
2/8/2023 3:00:00 PM 5.45 41.81 0.076 17.73 3.59 14.8
2/8/2023 3:15:00 PM 5.45 41.81 0.076 17.73 3.45 14.76
2/8/2023 3:30:00 PM 5.4 41.72 0.076 17.73 3.54 14.65
2/8/2023 3:45:00 PM 5.4 41.72 0.076 17.73 3.66 14.6
2/8/2023 4:00:00 PM 5.35 41.63 0.076 17.73 3.65 14.53
2/8/2023 4:15:00 PM 5.29 41.522 0.076 17.73 3.45 14.41
2/8/2023 4:30:00 PM 5.23 41.414 0.076 17.74 3.59 14.3
2/8/2023 4:45:00 PM 5.17 41.306 0.076 17.74 3.64 14.19
2/8/2023 5:00:00 PM 5.1 41.18 0.077 17.74 3.44 14.04
2/8/2023 5:15:00 PM 5.02 41.036 0.076 17.75 3.67 13.88
2/8/2023 5:30:00 PM 4.93 40.874 0.077 17.75 3.7 13.71
2/8/2023 5:45:00 PM 4.84 40.712 0.077 17.75 3.52 13.53
2/8/2023 6:00:00 PM 4.75 40.55 0.077 17.76 3.52 13.36
2/8/2023 6:15:00 PM 4.67 40.406 0.077 17.76 3.63 13.2
2/8/2023 6:30:00 PM 4.59 40.262 0.077 17.76 3.71 13.06
2/8/2023 6:45:00 PM 4.51 40.118 0.078 17.76 3.62 12.94
2/8/2023 7:00:00 PM 4.44 39.992 0.078 17.77 3.53 12.83
2/8/2023 7:15:00 PM 4.37 39.866 0.078 17.77 3.65 12.75
2/8/2023 7:30:00 PM 4.3 39.74 0.078 17.77 3.61 12.7
2/8/2023 7:45:00 PM 4.24 39.632 0.078 17.78 3.46 12.68
2/8/2023 8:00:00 PM 4.18 39.524 0.079 17.78 3.62 12.65
2/8/2023 8:15:00 PM 4.12 39.416 0.079 17.78 3.66 12.64
2/8/2023 8:30:00 PM 4.07 39.326 0.079 17.78 3.72 12.62
2/8/2023 8:45:00 PM 4.02 39.236 0.079 17.78 3.51 12.64
2/8/2023 9:00:00 PM 3.96 39.128 0.079 17.79 3.62 12.61
2/8/2023 9:15:00 PM 3.9 39.02 0.079 17.79 3.53 12.63
2/8/2023 9:30:00 PM 3.85 38.93 0.079 17.79 3.48 12.63
2/8/2023 9:45:00 PM 3.79 38.822 0.08 17.79 3.52 12.62
2/8/2023 10:00:00 PM 3.73 38.714 0.08 17.79 3.52 12.63
2/8/2023 10:15:00 PM 3.68 38.624 0.08 17.8 3.57 12.64
2/8/2023 10:30:00 PM 3.62 38.516 0.08 17.8 3.64 12.64
2/8/2023 10:45:00 PM 3.57 38.426 0.08 17.8 3.57 12.66
2/8/2023 11:00:00 PM 3.5 38.3 0.08 17.8 3.38 12.68
2/8/2023 11:15:00 PM 3.44 38.192 0.08 17.81 5.59 12.71
2/8/2023 11:30:00 PM 3.38 38.084 0.08 17.81 3.62 12.74
2/8/2023 11:45:00 PM 3.32 37.976 0.08 17.81 3.57 12.78
2/9/2023 12:00:00 AM 3.27 37.886 0.08 17.81 3.43 12.81
2/9/2023 12:15:00 AM 3.21 37.778 0.08 17.82 3.4 12.85
2/9/2023 12:30:00 AM 3.16 37.688 0.08 17.82 3.54 12.88
2/9/2023 12:45:00 AM 3.11 37.598 0.08 17.82 3.43 12.9
2/9/2023 1:00:00 AM 3.07 37.526 0.08 17.82 3.54 12.93
2/9/2023 1:15:00 AM 3.04 37.472 0.08 17.82 3.66 12.95
2/9/2023 1:30:00 AM 3.01 37.418 0.081 17.82 3.43 12.95
2/9/2023 1:45:00 AM 2.97 37.346 0.08 17.82 3.61 12.96
2/9/2023 2:00:00 AM 2.95 37.31 0.08 17.83 3.78 12.95
2/9/2023 2:15:00 AM 2.93 37.274 0.08 17.83 4.43 12.98
2/9/2023 2:30:00 AM 2.91 37.238 0.08 17.83 3.77 12.99
2/9/2023 2:45:00 AM 2.89 37.202 0.08 17.83 3.69 12.99
2/9/2023 3:00:00 AM 2.88 37.184 0.08 17.83 3.51 12.98
2/9/2023 3:15:00 AM 2.87 37.166 0.08 17.83 3.57 13
2/9/2023 3:30:00 AM 2.87 37.166 0.08 17.83 3.65 12.99
2/9/2023 3:45:00 AM 2.86 37.148 0.08 17.83 3.54 13
2/9/2023 4:00:00 AM 2.85 37.13 0.079 17.83 3.59 13.02
2/9/2023 4:15:00 AM 2.84 37.112 0.079 17.83 3.53 12.99
2/9/2023 4:30:00 AM 2.84 37.112 0.08 17.83 3.76 13.01
2/9/2023 4:45:00 AM 2.83 37.094 0.08 17.83 3.59 12.99
2/9/2023 5:00:00 AM 2.83 37.094 0.08 17.83 3.43 13
2/9/2023 5:15:00 AM 2.83 37.094 0.08 17.83 3.53 13
2/9/2023 5:30:00 AM 2.82 37.076 0.08 17.83 3.61 12.99
2/9/2023 5:45:00 AM 2.82 37.076 0.08 17.83 3.6 13.01
2/9/2023 6:00:00 AM 2.81 37.058 0.08 17.83 3.65 13.01
2/9/2023 6:15:00 AM 2.81 37.058 0.08 17.83 3.56 12.99
2/9/2023 6:30:00 AM 2.81 37.058 0.08 17.83 3.61 12.99
2/9/2023 6:45:00 AM 2.8 37.04 0.08 17.83 3.53 13.01
2/9/2023 7:00:00 AM 2.8 37.04 0.08 17.83 3.35 13
2/9/2023 7:15:00 AM 2.8 37.04 0.079 17.83 3.53 13.01
2/9/2023 7:30:00 AM 2.8 37.04 0.08 17.83 3.43 13.01
2/9/2023 7:45:00 AM 2.81 37.058 0.08 17.83 3.42 13.03
2/9/2023 8:00:00 AM 2.81 37.058 0.08 17.83 3.44 13.06
2/9/2023 8:15:00 AM 2.82 37.076 0.08 17.83 3.38 13.15
2/9/2023 8:30:00 AM 2.82 37.076 0.08 17.83 3.34 13.23
2/9/2023 8:45:00 AM 2.83 37.094 0.08 17.83 3.43 13.33
2/9/2023 9:00:00 AM 2.84 37.112 0.08 17.83 3.42 13.4
2/9/2023 9:15:00 AM 2.85 37.13 0.08 17.83 3.58 13.47
2/9/2023 9:30:00 AM 2.88 37.184 0.079 17.83 3.55 13.67
2/9/2023 9:45:00 AM 2.9 37.22 0.079 17.83 3.38 13.92
2/9/2023 10:00:00 AM 2.92 37.256 0.079 17.83 3.39 14.03
2/9/2023 10:15:00 AM 2.94 37.292 0.079 17.83 3.4 14.14
2/9/2023 10:30:00 AM 2.97 37.346 0.079 17.82 3.37 14.23
2/9/2023 10:45:00 AM 3.02 37.436 0.079 17.82 3.31 14.43
2/9/2023 11:00:00 AM 3.12 37.616 0.079 17.82 3.5 14.64
2/9/2023 11:15:00 AM 3.24 37.832 0.078 17.81 3.53 14.85
2/9/2023 11:30:00 AM 3.36 38.048 0.078 17.81 3.31 14.93
2/9/2023 11:45:00 AM 3.43 38.174 0.078 17.81 3.32 15.01
2/9/2023 12:00:00 PM 3.52 38.336 0.079 17.8 3.3 15.09
2/9/2023 12:15:00 PM 3.63 38.534 0.078 17.8 3.46 15.21
2/9/2023 12:30:00 PM 3.75 38.75 0.079 17.79 3.37 15.24
2/9/2023 12:45:00 PM 3.83 38.894 0.078 17.79 3.45 15.29
2/9/2023 1:00:00 PM 3.9 39.02 0.078 17.79 3.4 15.28
2/9/2023 1:15:00 PM 3.99 39.182 0.078 17.79 3.51 15.24
2/9/2023 1:30:00 PM 4.05 39.29 0.077 17.78 3.46 15.12
2/9/2023 1:45:00 PM 4.11 39.398 0.077 17.78 3.35 15.02
2/9/2023 2:00:00 PM 4.24 39.632 0.077 17.78 3.45 15
2/9/2023 2:15:00 PM 4.37 39.866 0.077 17.77 3.5 15.01
2/9/2023 2:30:00 PM 4.41 39.938 0.077 17.77 3.33 14.96
2/9/2023 2:45:00 PM 4.42 39.956 0.077 17.77 3.45 14.83
2/9/2023 3:00:00 PM 4.44 39.992 0.077 17.77 3.38 14.72
2/9/2023 3:15:00 PM 4.48 40.064 0.077 17.77 3.4 14.65
2/9/2023 3:30:00 PM 4.53 40.154 0.077 17.76 3.51 14.65
2/9/2023 3:45:00 PM 4.59 40.262 0.077 17.76 3.52 14.61
2/9/2023 4:00:00 PM 4.64 40.352 0.077 17.76 3.38 14.51
2/9/2023 4:15:00 PM 4.68 40.424 0.077 17.76 3.62 14.38
2/9/2023 4:30:00 PM 4.75 40.55 0.077 17.76 3.38 14.38
2/9/2023 4:45:00 PM 4.78 40.604 0.078 17.75 3.57 14.32
2/9/2023 5:00:00 PM 4.78 40.604 0.078 17.75 3.43 14.14
2/9/2023 5:15:00 PM 4.79 40.622 0.078 17.75 3.44 13.95
2/9/2023 5:30:00 PM 4.81 40.658 0.078 17.75 3.44 13.76
2/9/2023 5:45:00 PM 4.83 40.694 0.078 17.75 3.26 13.56
2/9/2023 6:00:00 PM 4.83 40.694 0.078 17.75 3.34 13.38
2/9/2023 6:15:00 PM 4.84 40.712 0.079 17.75 3.5 13.19
2/9/2023 6:30:00 PM 4.84 40.712 0.079 17.75 3.28 13.02
2/9/2023 6:45:00 PM 4.84 40.712 0.079 17.75 3.37 12.87
2/9/2023 7:00:00 PM 4.82 40.676 0.08 17.75 3.49 12.72
2/9/2023 7:15:00 PM 4.8 40.64 0.08 17.75 3.46 12.62
2/9/2023 7:30:00 PM 4.77 40.586 0.081 17.75 3.36 12.52
2/9/2023 7:45:00 PM 4.73 40.514 0.081 17.76 3.42 12.44
2/9/2023 8:00:00 PM 4.7 40.46 0.081 17.76 3.43 12.38
2/9/2023 8:15:00 PM 4.68 40.424 0.081 17.76 3.41 12.33
2/9/2023 8:30:00 PM 4.66 40.388 0.081 17.76 3.49 12.3
2/9/2023 8:45:00 PM 4.64 40.352 0.081 17.76 3.66 12.26
2/9/2023 9:00:00 PM 4.61 40.298 0.081 17.76 3.59 12.25
2/9/2023 9:15:00 PM 4.59 40.262 0.081 17.76 3.59 12.22
2/9/2023 9:30:00 PM 4.57 40.226 0.081 17.76 3.46 12.23
2/9/2023 9:45:00 PM 4.55 40.19 0.082 17.76 3.53 12.22
2/9/2023 10:00:00 PM 4.53 40.154 0.082 17.76 3.44 12.21
2/9/2023 10:15:00 PM 4.5 40.1 0.081 17.77 3.43 12.21
2/9/2023 10:30:00 PM 4.48 40.064 0.082 17.77 3.31 12.19
2/9/2023 10:45:00 PM 4.47 40.046 0.082 17.77 3.39 12.22
2/9/2023 11:00:00 PM 4.43 39.974 0.082 17.77 3.28 12.22
2/9/2023 11:15:00 PM 4.39 39.902 0.082 17.77 3.36 12.22
2/9/2023 11:30:00 PM 4.35 39.83 0.082 17.77 3.43 12.23
2/9/2023 11:45:00 PM 4.32 39.776 0.082 17.77 3.38 12.22
2/10/2023 12:00:00 AM 4.28 39.704 0.082 17.77 3.4 12.23
2/10/2023 12:15:00 AM 4.24 39.632 0.082 17.78 3.66 12.24
2/10/2023 12:30:00 AM 4.21 39.578 0.082 17.78 3.51 12.23
2/10/2023 12:45:00 AM 4.18 39.524 0.082 17.78 3.44 12.24
2/10/2023 1:00:00 AM 4.15 39.47 0.082 17.78 3.54 12.25
2/10/2023 1:15:00 AM 4.14 39.452 0.082 17.78 3.55 12.26
2/10/2023 1:30:00 AM 4.17 39.506 0.082 17.78 3.36 12.29
2/10/2023 1:45:00 AM 4.2 39.56 0.082 17.78 3.46 12.29
2/10/2023 2:00:00 AM 4.22 39.596 0.082 17.78 3.34 12.29
2/10/2023 2:15:00 AM 4.25 39.65 0.082 17.77 3.44 12.29
2/10/2023 2:30:00 AM 4.28 39.704 0.082 17.77 3.48 12.3
2/10/2023 2:45:00 AM 4.31 39.758 0.082 17.77 3.44 12.3
2/10/2023 3:00:00 AM 4.35 39.83 0.082 17.77 3.36 12.3
2/10/2023 3:15:00 AM 4.4 39.92 0.082 17.77 3.45 12.28
2/10/2023 3:30:00 AM 4.45 40.01 0.082 17.77 3.47 12.28
2/10/2023 3:45:00 AM 4.48 40.064 0.082 17.77 3.48 12.28
2/10/2023 4:00:00 AM 4.5 40.1 0.082 17.76 3.43 12.26
2/10/2023 4:15:00 AM 4.52 40.136 0.081 17.76 3.59 12.28
2/10/2023 4:30:00 AM 4.54 40.172 0.081 17.76 3.39 12.26
2/10/2023 4:45:00 AM 4.56 40.208 0.081 17.76 3.36 12.27
2/10/2023 5:00:00 AM 4.57 40.226 0.081 17.76 3.49 12.26
2/10/2023 5:15:00 AM 4.58 40.244 0.081 17.76 3.47 12.24
2/10/2023 5:30:00 AM 4.59 40.262 0.081 17.76 3.56 12.24
2/10/2023 5:45:00 AM 4.6 40.28 0.082 17.76 3.46 12.23
2/10/2023 6:00:00 AM 4.6 40.28 0.081 17.76 3.39 12.22
2/10/2023 6:15:00 AM 4.6 40.28 0.081 17.76 3.5 12.23
2/10/2023 6:30:00 AM 4.6 40.28 0.082 17.76 3.48 12.23
2/10/2023 6:45:00 AM 4.6 40.28 0.081 17.76 3.49 12.24
2/10/2023 7:00:00 AM 4.59 40.262 0.081 17.76 3.42 12.25
2/10/2023 7:15:00 AM 4.57 40.226 0.081 17.76 3.44 12.27
2/10/2023 7:30:00 AM 4.57 40.226 0.081 17.76 3.43 12.3
2/10/2023 7:45:00 AM 4.57 40.226 0.081 17.76 3.4 12.33
2/10/2023 8:00:00 AM 4.57 40.226 0.081 17.76 3.49 12.45
2/10/2023 8:15:00 AM 4.58 40.244 0.081 17.76 3.51 12.52
2/10/2023 8:30:00 AM 4.59 40.262 0.081 17.76 3.43 12.64
2/10/2023 8:45:00 AM 4.59 40.262 0.081 17.76 3.31 12.74
2/10/2023 9:00:00 AM 4.61 40.298 0.081 17.76 3.43 12.87
2/10/2023 9:15:00 AM 4.63 40.334 0.081 17.76 3.35 13.03
2/10/2023 9:30:00 AM 4.65 40.37 0.081 17.76 3.52 13.21
2/10/2023 9:45:00 AM 4.68 40.424 0.081 17.76 3.54 13.37
2/10/2023 10:00:00 AM 4.7 40.46 0.08 17.76 3.51 13.54
2/10/2023 10:15:00 AM 4.72 40.496 0.08 17.76 3.45 13.64
2/10/2023 10:30:00 AM 4.75 40.55 0.08 17.76 3.37 13.8
2/10/2023 10:45:00 AM 4.79 40.622 0.08 17.75 3.45 13.94
2/10/2023 11:00:00 AM 4.82 40.676 0.079 17.75 3.47 14.04
2/10/2023 11:15:00 AM 4.87 40.766 0.079 17.75 3.56 14.18
2/10/2023 11:30:00 AM 4.9 40.82 0.079 17.75 3.54 14.25
2/10/2023 11:45:00 AM 4.92 40.856 0.079 17.75 3.5 14.3
2/10/2023 12:00:00 PM 4.94 40.892 0.079 17.75 3.3 14.31
2/10/2023 12:15:00 PM 4.97 40.946 0.079 17.75 3.46 14.33
2/10/2023 12:30:00 PM 4.98 40.964 0.079 17.75 3.5 14.34
2/10/2023 12:45:00 PM 5.01 41.018 0.079 17.75 3.38 14.3
2/10/2023 1:00:00 PM 5.05 41.09 0.079 17.74 3.36 14.36
2/10/2023 1:15:00 PM 5.06 41.108 0.079 17.74 3.35 14.31
2/10/2023 1:30:00 PM 5.06 41.108 0.079 17.74 3.54 14.24
2/10/2023 1:45:00 PM 5.07 41.126 0.079 17.74 3.51 14.24
2/10/2023 2:00:00 PM 5.1 41.18 0.079 17.74 3.34 14.28
2/10/2023 2:15:00 PM 5.12 41.216 0.079 17.74 3.39 14.31
2/10/2023 2:30:00 PM 5.12 41.216 0.079 17.74 3.38 14.29
2/10/2023 2:45:00 PM 5.11 41.198 0.079 17.74 3.34 14.16
2/10/2023 3:00:00 PM 5.11 41.198 0.078 17.74 3.59 14.09
2/10/2023 3:15:00 PM 5.11 41.198 0.079 17.74 3.66 14
2/10/2023 3:30:00 PM 5.11 41.198 0.079 17.74 3.46 13.93
2/10/2023 3:45:00 PM 5.11 41.198 0.079 17.74 3.39 13.85
2/10/2023 4:00:00 PM 5.1 41.18 0.079 17.74 3.44 13.78
2/10/2023 4:15:00 PM 5.09 41.162 0.079 17.74 3.36 13.68
2/10/2023 4:30:00 PM 5.08 41.144 0.079 17.74 3.38 13.56
2/10/2023 4:45:00 PM 5.07 41.126 0.079 17.74 3.46 13.44
2/10/2023 5:00:00 PM 5.05 41.09 0.079 17.74 3.34 13.31
2/10/2023 5:15:00 PM 5.04 41.072 0.079 17.74 3.51 13.18
2/10/2023 5:30:00 PM 5.02 41.036 0.08 17.74 3.48 13.06
2/10/2023 5:45:00 PM 5.01 41.018 0.08 17.75 3.23 12.93
2/10/2023 6:00:00 PM 5 41 0.08 17.75 3.43 12.83
2/10/2023 6:15:00 PM 4.98 40.964 0.081 17.75 3.31 12.72
2/10/2023 6:30:00 PM 4.96 40.928 0.081 17.75 3.52 12.62
2/10/2023 6:45:00 PM 4.95 40.91 0.081 17.75 3.33 12.54
2/10/2023 7:00:00 PM 4.93 40.874 0.081 17.75 3.36 12.47
2/10/2023 7:15:00 PM 4.91 40.838 0.081 17.75 3.32 12.41
2/10/2023 7:30:00 PM 4.88 40.784 0.081 17.75 3.33 12.36
2/10/2023 7:45:00 PM 4.84 40.712 0.081 17.75 3.34 12.32
2/10/2023 8:00:00 PM 4.81 40.658 0.081 17.75 3.27 12.29
2/10/2023 8:15:00 PM 4.79 40.622 0.081 17.75 3.31 12.29
2/10/2023 8:30:00 PM 4.77 40.586 0.082 17.75 3.36 12.28
2/10/2023 8:45:00 PM 4.75 40.55 0.081 17.76 3.23 12.29
2/10/2023 9:00:00 PM 4.73 40.514 0.082 17.76 3.4 12.28
2/10/2023 9:15:00 PM 4.69 40.442 0.082 17.76 3.38 12.29
2/10/2023 9:30:00 PM 4.68 40.424 0.082 17.76 3.24 12.29
2/10/2023 9:45:00 PM 4.65 40.37 0.081 17.76 3.25 12.28
2/10/2023 10:00:00 PM 4.61 40.298 0.082 17.76 3.38 12.3
2/10/2023 10:15:00 PM 4.58 40.244 0.082 17.76 3.29 12.32
2/10/2023 10:30:00 PM 4.55 40.19 0.082 17.76 3.42 12.32
2/10/2023 10:45:00 PM 4.5 40.1 0.082 17.77 3.35 12.35
2/10/2023 11:00:00 PM 4.46 40.028 0.082 17.77 3.33 12.34
2/10/2023 11:15:00 PM 4.43 39.974 0.082 17.77 3.26 12.38
2/10/2023 11:30:00 PM 4.39 39.902 0.083 17.77 3.27 12.38
2/10/2023 11:45:00 PM 4.34 39.812 0.082 17.77 3.31 12.4
2/11/2023 12:00:00 AM 4.3 39.74 0.082 17.77 3.3 12.42
2/11/2023 12:15:00 AM 4.25 39.65 0.082 17.78 3.27 12.42
2/11/2023 12:30:00 AM 4.21 39.578 0.082 17.78 3.32 12.42
2/11/2023 12:45:00 AM 4.17 39.506 0.082 17.78 3.44 12.44
2/11/2023 1:00:00 AM 4.12 39.416 0.082 17.78 3.26 12.45
2/11/2023 1:15:00 AM 4.08 39.344 0.082 17.78 3.31 12.46
2/11/2023 1:30:00 AM 4.05 39.29 0.083 17.78 3.27 12.46
2/11/2023 1:45:00 AM 3.99 39.182 0.082 17.78 3.28 12.5
2/11/2023 2:00:00 AM 3.95 39.11 0.082 17.79 3.47 12.51
2/11/2023 2:15:00 AM 3.91 39.038 0.082 17.79 3.39 12.53
2/11/2023 2:30:00 AM 3.87 38.966 0.082 17.79 3.32 12.55
2/11/2023 2:45:00 AM 3.82 38.876 0.082 17.79 3.32 12.55
2/11/2023 3:00:00 AM 3.76 38.768 0.082 17.79 3.32 12.61
2/11/2023 3:15:00 AM 3.71 38.678 0.082 17.8 3.41 12.64
2/11/2023 3:30:00 AM 3.64 38.552 0.082 17.8 3.35 12.68
2/11/2023 3:45:00 AM 3.61 38.498 0.082 17.8 3.43 12.69
2/11/2023 4:00:00 AM 3.56 38.408 0.082 17.8 3.41 12.72
2/11/2023 4:15:00 AM 3.52 38.336 0.082 17.8 3.15 12.75
2/11/2023 4:30:00 AM 3.47 38.246 0.082 17.81 3.18 12.75
2/11/2023 4:45:00 AM 3.42 38.156 0.082 17.81 3.3 12.76
2/11/2023 5:00:00 AM 3.36 38.048 0.081 17.81 3.34 12.77
2/11/2023 5:15:00 AM 3.32 37.976 0.082 17.81 3.25 12.77
2/11/2023 5:30:00 AM 3.27 37.886 0.082 17.81 3.3 12.78
2/11/2023 5:45:00 AM 3.24 37.832 0.082 17.81 3.3 12.8
2/11/2023 6:00:00 AM 3.2 37.76 0.082 17.82 3.19 12.82
2/11/2023 6:15:00 AM 3.15 37.67 0.082 17.82 3.23 12.81
2/11/2023 6:30:00 AM 3.11 37.598 0.082 17.82 3.32 12.85
2/11/2023 6:45:00 AM 3.06 37.508 0.082 17.82 3.3 12.86
2/11/2023 7:00:00 AM 3.03 37.454 0.082 17.82 3.38 12.9
2/11/2023 7:15:00 AM 3 37.4 0.082 17.82 3.3 12.95
2/11/2023 7:30:00 AM 2.96 37.328 0.082 17.83 3.3 13
2/11/2023 7:45:00 AM 2.92 37.256 0.082 17.83 3.29 13.14
2/11/2023 8:00:00 AM 2.91 37.238 0.082 17.83 3.23 13.3
2/11/2023 8:15:00 AM 2.9 37.22 0.082 17.83 3.22 13.54
2/11/2023 8:30:00 AM 2.89 37.202 0.082 17.83 3.33 13.76
2/11/2023 8:45:00 AM 2.88 37.184 0.081 17.83 3.33 14
2/11/2023 9:00:00 AM 2.93 37.274 0.082 17.83 3.35 14.2
2/11/2023 9:15:00 AM 2.99 37.382 0.082 17.82 3.2 14.43
2/11/2023 9:30:00 AM 3.01 37.418 0.081 17.82 3.27 14.64
2/11/2023 9:45:00 AM 3.08 37.544 0.081 17.82 3.34 14.86
2/11/2023 10:00:00 AM 3.14 37.652 0.081 17.82 3.16 15
2/11/2023 10:15:00 AM 3.19 37.742 0.08 17.82 3.29 15.14
2/11/2023 10:30:00 AM 3.29 37.922 0.08 17.81 3.29 15.22
2/11/2023 10:45:00 AM 3.36 38.048 0.08 17.81 3.36 15.35
2/11/2023 11:00:00 AM 3.47 38.246 0.08 17.81 3.38 15.43
2/11/2023 11:15:00 AM 3.68 38.624 0.08 17.8 3.24 15.53
2/11/2023 11:30:00 AM 3.85 38.93 0.079 17.79 3.55 15.56
2/11/2023 11:45:00 AM 3.99 39.182 0.079 17.78 3.5 15.54
2/11/2023 12:00:00 PM 4.14 39.452 0.079 17.78 3.35 15.54
2/11/2023 12:15:00 PM 4.29 39.722 0.078 17.77 3.41 15.54
2/11/2023 12:30:00 PM 4.46 40.028 0.079 17.77 3.34 15.55
2/11/2023 12:45:00 PM 4.65 40.37 0.078 17.76 3.26 15.53
2/11/2023 1:00:00 PM 4.79 40.622 0.078 17.75 3.24 15.5
2/11/2023 1:15:00 PM 4.96 40.928 0.078 17.75 3.38 15.43
2/11/2023 1:30:00 PM 5.1 41.18 0.078 17.74 3.35 15.42
2/11/2023 1:45:00 PM 5.26 41.468 0.078 17.74 3.43 15.4
2/11/2023 2:00:00 PM 5.36 41.648 0.078 17.73 3.38 15.36
2/11/2023 2:15:00 PM 5.44 41.792 0.078 17.73 3.5 15.34
2/11/2023 2:30:00 PM 5.5 41.9 0.078 17.73 3.35 15.29
2/11/2023 2:45:00 PM 5.54 41.972 0.078 17.72 3.34 15.25
2/11/2023 3:00:00 PM 5.55 41.99 0.078 17.72 3.3 15.18
2/11/2023 3:15:00 PM 5.54 41.972 0.078 17.72 3.45 15.12
2/11/2023 3:30:00 PM 5.52 41.936 0.078 17.73 3.24 15.09
2/11/2023 3:45:00 PM 5.48 41.864 0.078 17.73 3.24 15.02
2/11/2023 4:00:00 PM 5.38 41.684 0.078 17.73 3.3 14.95
2/11/2023 4:15:00 PM 5.34 41.612 0.078 17.73 3.28 14.88
2/11/2023 4:30:00 PM 5.24 41.432 0.078 17.74 3.48 14.73
2/11/2023 4:45:00 PM 5.15 41.27 0.078 17.74 3.25 14.57
2/11/2023 5:00:00 PM 5.05 41.09 0.078 17.74 3.26 14.36
2/11/2023 5:15:00 PM 4.96 40.928 0.078 17.75 3.31 14.14
2/11/2023 5:30:00 PM 4.87 40.766 0.079 17.75 3.16 13.94
2/11/2023 5:45:00 PM 4.79 40.622 0.079 17.75 3.28 13.74
2/11/2023 6:00:00 PM 4.69 40.442 0.079 17.76 3.17 13.58
2/11/2023 6:15:00 PM 4.59 40.262 0.079 17.76 3.28 13.44
2/11/2023 6:30:00 PM 4.48 40.064 0.08 17.77 3.17 13.3
2/11/2023 6:45:00 PM 4.37 39.866 0.08 17.77 3.35 13.18
2/11/2023 7:00:00 PM 4.27 39.686 0.08 17.77 3.25 13.06
2/11/2023 7:15:00 PM 4.16 39.488 0.081 17.78 3.33 12.94
2/11/2023 7:30:00 PM 4.06 39.308 0.081 17.78 3.27 12.85
2/11/2023 7:45:00 PM 3.97 39.146 0.081 17.79 3.34 12.79
2/11/2023 8:00:00 PM 3.89 39.002 0.082 17.79 3.08 12.74
2/11/2023 8:15:00 PM 3.8 38.84 0.081 17.79 3.28 12.74
2/11/2023 8:30:00 PM 3.74 38.732 0.081 17.79 3.17 12.72
2/11/2023 8:45:00 PM 3.68 38.624 0.081 17.8 3.18 12.74
2/11/2023 9:00:00 PM 3.63 38.534 0.082 17.8 3.29 12.75
2/11/2023 9:15:00 PM 3.56 38.408 0.081 17.8 3.2 12.76
2/11/2023 9:30:00 PM 3.5 38.3 0.082 17.8 3.12 12.76
2/11/2023 9:45:00 PM 3.43 38.174 0.081 17.81 3.17 12.76
2/11/2023 10:00:00 PM 3.36 38.048 0.081 17.81 3.14 12.76
2/11/2023 10:15:00 PM 3.31 37.958 0.082 17.81 3.17 12.77
2/11/2023 10:30:00 PM 3.25 37.85 0.082 17.81 3.14 12.75
2/11/2023 10:45:00 PM 3.2 37.76 0.082 17.82 3.1 12.77
2/11/2023 11:00:00 PM 3.14 37.652 0.082 17.82 3.17 12.77
2/11/2023 11:15:00 PM 3.08 37.544 0.082 17.82 3.25 12.78
2/11/2023 11:30:00 PM 3.02 37.436 0.082 17.82 3.26 12.81
2/11/2023 11:45:00 PM 2.96 37.328 0.082 17.82 3.17 12.82
2/12/2023 12:00:00 AM 2.91 37.238 0.083 17.83 3.15 12.86
2/12/2023 12:15:00 AM 2.84 37.112 0.082 17.83 3.1 12.92
2/12/2023 12:30:00 AM 2.78 37.004 0.082 17.83 3.17 12.96
2/12/2023 12:45:00 AM 2.71 36.878 0.082 17.83 3.21 13.01
2/12/2023 1:00:00 AM 2.65 36.77 0.082 17.84 3.19 13.03
2/12/2023 1:15:00 AM 2.58 36.644 0.082 17.84 3.13 13.05
2/12/2023 1:30:00 AM 2.52 36.536 0.082 17.84 3.19 13.07
2/12/2023 1:45:00 AM 2.45 36.41 0.082 17.84 3.2 13.08
2/12/2023 2:00:00 AM 2.39 36.302 0.083 17.85 3.22 13.09
2/12/2023 2:15:00 AM 2.34 36.212 0.082 17.85 3.1 13.1
2/12/2023 2:30:00 AM 2.28 36.104 0.082 17.85 3.09 13.09
2/12/2023 2:45:00 AM 2.22 35.996 0.082 17.85 3.09 13.11
2/12/2023 3:00:00 AM 2.16 35.888 0.082 17.86 3.17 13.14
2/12/2023 3:15:00 AM 2.1 35.78 0.082 17.86 3.25 13.16
2/12/2023 3:30:00 AM 2.04 35.672 0.082 17.86 3.16 13.21
2/12/2023 3:45:00 AM 1.98 35.564 0.082 17.86 3.28 13.25
2/12/2023 4:00:00 AM 1.92 35.456 0.082 17.87 3.12 13.3
2/12/2023 4:15:00 AM 1.86 35.348 0.082 17.87 3.23 13.34
2/12/2023 4:30:00 AM 1.81 35.258 0.082 17.87 3.17 13.36
2/12/2023 4:45:00 AM 1.75 35.15 0.082 17.87 3.08 13.39
2/12/2023 5:00:00 AM 1.7 35.06 0.082 17.87 3.22 13.42
2/12/2023 5:15:00 AM 1.65 34.97 0.082 17.88 3.16 13.43
2/12/2023 5:30:00 AM 1.6 34.88 0.082 17.88 3.15 13.42
2/12/2023 5:45:00 AM 1.55 34.79 0.082 17.88 3.13 13.44
2/12/2023 6:00:00 AM 1.5 34.7 0.082 17.88 3.09 13.43
2/12/2023 6:15:00 AM 1.45 34.61 0.082 17.88 3.16 13.44
2/12/2023 6:30:00 AM 1.41 34.538 0.082 17.89 2.98 13.44
2/12/2023 6:45:00 AM 1.36 34.448 0.082 17.89 3.06 13.45
2/12/2023 7:00:00 AM 1.32 34.376 0.082 17.89 3.1 13.46
2/12/2023 7:15:00 AM 1.27 34.286 0.081 17.89 3.14 13.51
2/12/2023 7:30:00 AM 1.23 34.214 0.082 17.89 3.16 13.58
2/12/2023 7:45:00 AM 1.2 34.16 0.081 17.89 3.01 13.7
2/12/2023 8:00:00 AM 1.18 34.124 0.081 17.9 3.18 13.89
2/12/2023 8:15:00 AM 1.17 34.106 0.082 17.9 3.14 14.11
2/12/2023 8:30:00 AM 1.17 34.106 0.081 17.9 3.03 14.33
2/12/2023 8:45:00 AM 1.19 34.142 0.081 17.9 3.11 14.58
2/12/2023 9:00:00 AM 1.21 34.178 0.081 17.89 3.11 14.78
2/12/2023 9:15:00 AM 1.22 34.196 0.081 17.89 3.02 15
2/12/2023 9:30:00 AM 1.26 34.268 0.081 17.89 3.09 15.19
2/12/2023 9:45:00 AM 1.31 34.358 0.08 17.89 3.01 15.39
2/12/2023 10:00:00 AM 1.37 34.466 0.08 17.89 3.07 15.55
2/12/2023 10:15:00 AM 1.43 34.574 0.08 17.89 3.14 15.7
2/12/2023 10:30:00 AM 1.51 34.718 0.08 17.88 3.41 15.84
2/12/2023 10:45:00 AM 1.6 34.88 0.08 17.88 3.04 15.95
2/12/2023 11:00:00 AM 1.71 35.078 0.08 17.87 3.15 16.05
2/12/2023 11:15:00 AM 1.89 35.402 0.08 17.87 3.1 16.17
2/12/2023 11:30:00 AM 2.01 35.618 0.08 17.86 3.05 16.18
2/12/2023 11:45:00 AM 2.09 35.762 0.079 17.86 3.06 16.17
2/12/2023 12:00:00 PM 2.21 35.978 0.079 17.85 3.13 16.14
2/12/2023 12:15:00 PM 2.39 36.302 0.079 17.85 3.21 16.09
2/12/2023 12:30:00 PM 2.56 36.608 0.079 17.84 3.12 16.11
2/12/2023 12:45:00 PM 2.73 36.914 0.079 17.83 3.14 16.14
2/12/2023 1:00:00 PM 2.88 37.184 0.079 17.83 3.29 16.13
2/12/2023 1:15:00 PM 3.02 37.436 0.078 17.82 3.31 16.07
2/12/2023 1:30:00 PM 3.13 37.634 0.079 17.82 3.29 15.98
2/12/2023 1:45:00 PM 3.2 37.76 0.078 17.82 3.26 15.91
2/12/2023 2:00:00 PM 3.29 37.922 0.078 17.81 3.29 15.87
2/12/2023 2:15:00 PM 3.41 38.138 0.078 17.81 3.34 15.86
2/12/2023 2:30:00 PM 3.48 38.264 0.078 17.8 3.23 15.85
2/12/2023 2:45:00 PM 3.53 38.354 0.078 17.8 3.22 15.8
2/12/2023 3:00:00 PM 3.57 38.426 0.078 17.8 3.23 15.75
2/12/2023 3:15:00 PM 3.6 38.48 0.078 17.8 3.22 15.71
2/12/2023 3:30:00 PM 3.63 38.534 0.078 17.8 3.15 15.65
2/12/2023 3:45:00 PM 3.64 38.552 0.078 17.8 3.18 15.62
2/12/2023 4:00:00 PM 3.62 38.516 0.078 17.8 3.17 15.54
2/12/2023 4:15:00 PM 3.6 38.48 0.078 17.8 3.23 15.43
2/12/2023 4:30:00 PM 3.57 38.426 0.078 17.8 3.15 15.32
2/12/2023 4:45:00 PM 3.54 38.372 0.078 17.8 3.21 15.18
2/12/2023 5:00:00 PM 3.52 38.336 0.078 17.8 3.19 15.01
2/12/2023 5:15:00 PM 3.49 38.282 0.078 17.8 3.42 14.79
2/12/2023 5:30:00 PM 3.47 38.246 0.078 17.81 3.2 14.58
2/12/2023 5:45:00 PM 3.45 38.21 0.078 17.81 3.17 14.35
2/12/2023 6:00:00 PM 3.43 38.174 0.078 17.81 3.17 14.14
2/12/2023 6:15:00 PM 3.41 38.138 0.078 17.81 3.15 13.92
2/12/2023 6:30:00 PM 3.39 38.102 0.079 17.81 3.19 13.75
2/12/2023 6:45:00 PM 3.36 38.048 0.079 17.81 3.28 13.58
2/12/2023 7:00:00 PM 3.33 37.994 0.079 17.81 3.17 13.41
2/12/2023 7:15:00 PM 3.3 37.94 0.08 17.81 3.33 13.27
2/12/2023 7:30:00 PM 3.25 37.85 0.08 17.81 3.31 13.15
2/12/2023 7:45:00 PM 3.21 37.778 0.08 17.82 3.23 13.05
2/12/2023 8:00:00 PM 3.15 37.67 0.081 17.82 3.4 12.98
2/12/2023 8:15:00 PM 3.1 37.58 0.081 17.82 3.15 12.92
2/12/2023 8:30:00 PM 3.05 37.49 0.081 17.82 3.15 12.89
2/12/2023 8:45:00 PM 2.99 37.382 0.081 17.82 3.22 12.86
2/12/2023 9:00:00 PM 2.93 37.274 0.082 17.83 3.21 12.85
2/12/2023 9:15:00 PM 2.89 37.202 0.082 17.83 3.17 12.84
2/12/2023 9:30:00 PM 2.83 37.094 0.082 17.83 3.14 12.86
2/12/2023 9:45:00 PM 2.79 37.022 0.082 17.83 3.16 12.86
2/12/2023 10:00:00 PM 2.74 36.932 0.082 17.83 3.19 12.88
2/12/2023 10:15:00 PM 2.7 36.86 0.082 17.84 3.07 12.88
2/12/2023 10:30:00 PM 2.66 36.788 0.083 17.84 3.11 12.91
2/12/2023 10:45:00 PM 2.62 36.716 0.082 17.84 3.02 12.91
2/12/2023 11:00:00 PM 2.57 36.626 0.083 17.84 3.06 12.93
2/12/2023 11:15:00 PM 2.53 36.554 0.083 17.84 2.98 12.93
2/12/2023 11:30:00 PM 2.49 36.482 0.083 17.84 3.08 12.93
2/12/2023 11:45:00 PM 2.45 36.41 0.083 17.85 3.15 12.94
2/13/2023 12:00:00 AM 2.41 36.338 0.083 17.85 3.13 12.95
2/13/2023 12:15:00 AM 2.36 36.248 0.083 17.85 3.1 12.93
2/13/2023 12:30:00 AM 2.32 36.176 0.083 17.85 3.13 12.95
2/13/2023 12:45:00 AM 2.27 36.086 0.083 17.85 3.12 12.94
2/13/2023 1:00:00 AM 2.22 35.996 0.083 17.85 3.13 12.94
2/13/2023 1:15:00 AM 2.17 35.906 0.083 17.86 3.02 12.95
2/13/2023 1:30:00 AM 2.11 35.798 0.083 17.86 3.04 12.97
2/13/2023 1:45:00 AM 2.06 35.708 0.083 17.86 3.1 13
2/13/2023 2:00:00 AM 2 35.6 0.083 17.86 3.12 13.02
2/13/2023 2:15:00 AM 1.95 35.51 0.083 17.86 3.09 13.06
2/13/2023 2:30:00 AM 1.89 35.402 0.083 17.87 3.1 13.1
2/13/2023 2:45:00 AM 1.83 35.294 0.083 17.87 3.12 13.14
2/13/2023 3:00:00 AM 1.78 35.204 0.083 17.87 3.08 13.18
2/13/2023 3:15:00 AM 1.72 35.096 0.083 17.87 3.08 13.22
2/13/2023 3:30:00 AM 1.66 34.988 0.083 17.88 3.14 13.24
2/13/2023 3:45:00 AM 1.61 34.898 0.083 17.88 3.03 13.26
2/13/2023 4:00:00 AM 1.54 34.772 0.083 17.88 3.16 13.27
2/13/2023 4:15:00 AM 1.49 34.682 0.083 17.88 3.08 13.28
2/13/2023 4:30:00 AM 1.44 34.592 0.083 17.89 2.99 13.26
2/13/2023 4:45:00 AM 1.38 34.484 0.082 17.89 3.04 13.28
2/13/2023 5:00:00 AM 1.32 34.376 0.082 17.89 3.11 13.29
2/13/2023 5:15:00 AM 1.27 34.286 0.083 17.89 3.06 13.28
2/13/2023 5:30:00 AM 1.21 34.178 0.083 17.89 3.04 13.3
2/13/2023 5:45:00 AM 1.16 34.088 0.082 17.9 3.13 13.32
2/13/2023 6:00:00 AM 1.11 33.998 0.082 17.9 3.15 13.36
2/13/2023 6:15:00 AM 1.06 33.908 0.082 17.9 3.08 13.38
2/13/2023 6:30:00 AM 1.01 33.818 0.083 17.9 3 13.43
2/13/2023 6:45:00 AM 0.96 33.728 0.083 17.9 3 13.47
2/13/2023 7:00:00 AM 0.91 33.638 0.082 17.91 3.01 13.51
2/13/2023 7:15:00 AM 0.87 33.566 0.082 17.91 3.01 13.57
2/13/2023 7:30:00 AM 0.83 33.494 0.082 17.91 2.99 13.68
2/13/2023 7:45:00 AM 0.8 33.44 0.082 17.91 3 13.81
2/13/2023 8:00:00 AM 0.78 33.404 0.082 17.91 2.98 13.97
2/13/2023 8:15:00 AM 0.78 33.404 0.082 17.91 3.14 14.16
2/13/2023 8:30:00 AM 0.81 33.458 0.082 17.91 2.96 14.39
2/13/2023 8:45:00 AM 0.84 33.512 0.081 17.91 3.02 14.62
2/13/2023 9:00:00 AM 0.88 33.584 0.081 17.91 2.99 14.83
2/13/2023 9:15:00 AM 0.94 33.692 0.082 17.9 3 15.03
2/13/2023 9:30:00 AM 0.99 33.782 0.081 17.9 3.03 15.21
2/13/2023 9:45:00 AM 1.04 33.872 0.081 17.9 3.06 15.37
2/13/2023 10:00:00 AM 1.09 33.962 0.081 17.9 3.01 15.5
2/13/2023 10:15:00 AM 1.2 34.16 0.081 17.89 3.05 15.58
2/13/2023 10:30:00 AM 1.36 34.448 0.081 17.89 3.13 15.68
2/13/2023 10:45:00 AM 1.54 34.772 0.08 17.88 3.14 15.82
2/13/2023 11:00:00 AM 1.7 35.06 0.08 17.87 3.09 15.94
2/13/2023 11:15:00 AM 1.76 35.168 0.08 17.87 3.11 16
2/13/2023 11:30:00 AM 1.85 35.33 0.08 17.87 3.16 16.02
2/13/2023 11:45:00 AM 2 35.6 0.08 17.86 3.1 16.01
2/13/2023 12:00:00 PM 2.29 36.122 0.079 17.85 3.08 15.93
2/13/2023 12:15:00 PM 2.54 36.572 0.08 17.84 3.05 15.97
2/13/2023 12:30:00 PM 2.74 36.932 0.079 17.83 3.13 16.01
2/13/2023 12:45:00 PM 2.82 37.076 0.079 17.83 3.08 15.96
2/13/2023 1:00:00 PM 2.95 37.31 0.079 17.83 3.1 15.88
2/13/2023 1:15:00 PM 3.2 37.76 0.079 17.82 3.16 15.82
2/13/2023 1:30:00 PM 3.43 38.174 0.079 17.81 3.07 15.84
2/13/2023 1:45:00 PM 3.57 38.426 0.079 17.8 3.09 15.83
2/13/2023 2:00:00 PM 3.74 38.732 0.079 17.79 3.12 15.79
2/13/2023 2:15:00 PM 3.92 39.056 0.079 17.79 3.08 15.72
2/13/2023 2:30:00 PM 4.06 39.308 0.079 17.78 3.17 15.66
2/13/2023 2:45:00 PM 4.22 39.596 0.079 17.78 3.12 15.64
2/13/2023 3:00:00 PM 4.34 39.812 0.078 17.77 3.03 15.61
2/13/2023 3:15:00 PM 4.42 39.956 0.078 17.77 3.07 15.57
2/13/2023 3:30:00 PM 4.47 40.046 0.079 17.77 3.18 15.48
2/13/2023 3:45:00 PM 4.52 40.136 0.078 17.76 3.05 15.39
2/13/2023 4:00:00 PM 4.51 40.118 0.078 17.76 3.13 15.28
2/13/2023 4:15:00 PM 4.52 40.136 0.078 17.76 3.04 15.17
2/13/2023 4:30:00 PM 4.5 40.1 0.078 17.77 3.02 15.03
2/13/2023 4:45:00 PM 4.47 40.046 0.078 17.77 3.03 14.87
2/13/2023 5:00:00 PM 4.43 39.974 0.079 17.77 3.03 14.7
2/13/2023 5:15:00 PM 4.38 39.884 0.078 17.77 3.03 14.48
2/13/2023 5:30:00 PM 4.34 39.812 0.079 17.77 3.02 14.25
2/13/2023 5:45:00 PM 4.3 39.74 0.079 17.77 3.07 14.02
2/13/2023 6:00:00 PM 4.24 39.632 0.079 17.78 3.09 13.79
2/13/2023 6:15:00 PM 4.19 39.542 0.079 17.78 3.1 13.59
2/13/2023 6:30:00 PM 4.14 39.452 0.079 17.78 3.05 13.41
2/13/2023 6:45:00 PM 4.09 39.362 0.079 17.78 3.08 13.25
2/13/2023 7:00:00 PM 4.03 39.254 0.08 17.78 3.08 13.09
2/13/2023 7:15:00 PM 3.98 39.164 0.08 17.79 3.1 12.95
2/13/2023 7:30:00 PM 3.91 39.038 0.081 17.79 3.07 12.82
2/13/2023 7:45:00 PM 3.84 38.912 0.081 17.79 3.11 12.73
2/13/2023 8:00:00 PM 3.79 38.822 0.081 17.79 3.07 12.65
2/13/2023 8:15:00 PM 3.74 38.732 0.081 17.79 2.99 12.6
2/13/2023 8:30:00 PM 3.7 38.66 0.081 17.8 3.12 12.56
2/13/2023 8:45:00 PM 3.67 38.606 0.082 17.8 3.04 12.54
2/13/2023 9:00:00 PM 3.64 38.552 0.082 17.8 3.07 12.51
2/13/2023 9:15:00 PM 3.61 38.498 0.082 17.8 2.9 12.51
2/13/2023 9:30:00 PM 3.58 38.444 0.082 17.8 3.05 12.5
2/13/2023 9:45:00 PM 3.54 38.372 0.082 17.8 3 12.51
2/13/2023 10:00:00 PM 3.51 38.318 0.082 17.8 3.13 12.51
2/13/2023 10:15:00 PM 3.48 38.264 0.083 17.8 2.87 12.52
2/13/2023 10:30:00 PM 3.45 38.21 0.082 17.81 3.18 12.53
2/13/2023 10:45:00 PM 3.42 38.156 0.083 17.81 3.05 12.54
2/13/2023 11:00:00 PM 3.39 38.102 0.083 17.81 3.11 12.55
2/13/2023 11:15:00 PM 3.36 38.048 0.083 17.81 3.04 12.55
2/13/2023 11:30:00 PM 3.32 37.976 0.083 17.81 3.04 12.57
2/13/2023 11:45:00 PM 3.29 37.922 0.083 17.81 3.05 12.57
2/14/2023 12:00:00 AM 3.26 37.868 0.083 17.81 3.15 12.58
2/14/2023 12:15:00 AM 3.22 37.796 0.083 17.82 3 12.59
2/14/2023 12:30:00 AM 3.18 37.724 0.083 17.82 3.09 12.6
2/14/2023 12:45:00 AM 3.14 37.652 0.083 17.82 2.96 12.61
2/14/2023 1:00:00 AM 3.1 37.58 0.083 17.82 2.99 12.61
2/14/2023 1:15:00 AM 3.05 37.49 0.083 17.82 2.94 12.62
2/14/2023 1:30:00 AM 2.99 37.382 0.083 17.82 3.08 12.63
2/14/2023 1:45:00 AM 2.94 37.292 0.083 17.83 3.04 12.65
2/14/2023 2:00:00 AM 2.88 37.184 0.083 17.83 3 12.67
2/14/2023 2:15:00 AM 2.83 37.094 0.083 17.83 3 12.71
2/14/2023 2:30:00 AM 2.77 36.986 0.083 17.83 3.01 12.74
2/14/2023 2:45:00 AM 2.71 36.878 0.083 17.83 3.04 12.77
2/14/2023 3:00:00 AM 2.65 36.77 0.083 17.84 2.97 12.83
2/14/2023 3:15:00 AM 2.6 36.68 0.083 17.84 3.08 12.87
2/14/2023 3:30:00 AM 2.53 36.554 0.083 17.84 3.01 12.89
2/14/2023 3:45:00 AM 2.47 36.446 0.083 17.84 3.06 12.91
2/14/2023 4:00:00 AM 2.41 36.338 0.083 17.85 3.05 12.92
2/14/2023 4:15:00 AM 2.35 36.23 0.083 17.85 3.1 12.95
2/14/2023 4:30:00 AM 2.29 36.122 0.083 17.85 3.08 12.95
2/14/2023 4:45:00 AM 2.24 36.032 0.082 17.85 3.06 12.96
2/14/2023 5:00:00 AM 2.18 35.924 0.083 17.86 3.05 12.97
2/14/2023 5:15:00 AM 2.11 35.798 0.082 17.86 3.03 12.99
2/14/2023 5:30:00 AM 2.06 35.708 0.082 17.86 3 13.02
2/14/2023 5:45:00 AM 2 35.6 0.082 17.86 3 13.05
2/14/2023 6:00:00 AM 1.94 35.492 0.082 17.87 3.06 13.09
2/14/2023 6:15:00 AM 1.89 35.402 0.082 17.87 3.05 13.12
2/14/2023 6:30:00 AM 1.83 35.294 0.082 17.87 2.96 13.17
2/14/2023 6:45:00 AM 1.78 35.204 0.082 17.87 3.02 13.21
2/14/2023 7:00:00 AM 1.73 35.114 0.082 17.87 3 13.26
2/14/2023 7:15:00 AM 1.68 35.024 0.082 17.88 2.93 13.3
2/14/2023 7:30:00 AM 1.64 34.952 0.082 17.88 3.01 13.39
2/14/2023 7:45:00 AM 1.6 34.88 0.082 17.88 2.99 13.52
2/14/2023 8:00:00 AM 1.58 34.844 0.082 17.88 3.06 13.69
2/14/2023 8:15:00 AM 1.59 34.862 0.082 17.88 2.98 13.92
2/14/2023 8:30:00 AM 1.63 34.934 0.082 17.88 3.03 14.17
2/14/2023 8:45:00 AM 1.69 35.042 0.082 17.88 3.05 14.42
2/14/2023 9:00:00 AM 1.74 35.132 0.081 17.87 3.02 14.64
2/14/2023 9:15:00 AM 1.81 35.258 0.081 17.87 3.02 14.84
2/14/2023 9:30:00 AM 1.9 35.42 0.081 17.87 3.07 15.03
2/14/2023 9:45:00 AM 1.99 35.582 0.081 17.86 3.08 15.17
2/14/2023 10:00:00 AM 2.1 35.78 0.081 17.86 3.02 15.31
2/14/2023 10:15:00 AM 2.23 36.014 0.08 17.85 3.05 15.44
2/14/2023 10:30:00 AM 2.38 36.284 0.08 17.85 3.03 15.57
2/14/2023 10:45:00 AM 2.54 36.572 0.08 17.84 3.07 15.72
2/14/2023 11:00:00 AM 2.72 36.896 0.08 17.83 3.13 15.82
2/14/2023 11:15:00 AM 2.9 37.22 0.08 17.83 3.07 15.85
2/14/2023 11:30:00 AM 3.1 37.58 0.079 17.82 3.07 15.83
2/14/2023 11:45:00 AM 3.3 37.94 0.079 17.81 3.07 15.85
2/14/2023 12:00:00 PM 3.5 38.3 0.079 17.8 3.09 15.9
2/14/2023 12:15:00 PM 3.7 38.66 0.079 17.8 3.08 15.91
2/14/2023 12:30:00 PM 3.9 39.02 0.079 17.79 3.04 15.84
2/14/2023 12:45:00 PM 4.13 39.434 0.079 17.78 3.02 15.81
2/14/2023 1:00:00 PM 4.34 39.812 0.079 17.77 3.09 15.83
2/14/2023 1:15:00 PM 4.53 40.154 0.079 17.76 3.02 15.82
2/14/2023 1:30:00 PM 4.73 40.514 0.079 17.76 3.17 15.77
2/14/2023 1:45:00 PM 4.9 40.82 0.079 17.75 3.17 15.7
2/14/2023 2:00:00 PM 5.04 41.072 0.079 17.74 3.14 15.66
2/14/2023 2:15:00 PM 5.15 41.27 0.079 17.74 3.07 15.63
2/14/2023 2:30:00 PM 5.22 41.396 0.079 17.74 3.05 15.61
2/14/2023 2:45:00 PM 5.24 41.432 0.078 17.74 3.04 15.55
2/14/2023 3:00:00 PM 5.35 41.63 0.079 17.73 3.05 15.48
2/14/2023 3:15:00 PM 5.43 41.774 0.079 17.73 3.01 15.45
2/14/2023 3:30:00 PM 5.44 41.792 0.078 17.73 3.12 15.38
2/14/2023 3:45:00 PM 5.43 41.774 0.078 17.73 3.06 15.28
2/14/2023 4:00:00 PM 5.4 41.72 0.079 17.73 3.01 15.19
2/14/2023 4:15:00 PM 5.35 41.63 0.078 17.73 3.07 15.1
2/14/2023 4:30:00 PM 5.3 41.54 0.078 17.73 3.02 14.99
2/14/2023 4:45:00 PM 5.23 41.414 0.078 17.74 3.1 14.83
2/14/2023 5:00:00 PM 5.15 41.27 0.078 17.74 3.06 14.61
2/14/2023 5:15:00 PM 5.06 41.108 0.078 17.74 3.07 14.4
2/14/2023 5:30:00 PM 4.99 40.982 0.078 17.75 3.09 14.16
2/14/2023 5:45:00 PM 4.92 40.856 0.078 17.75 2.97 13.93
2/14/2023 6:00:00 PM 4.84 40.712 0.078 17.75 3.11 13.69
2/14/2023 6:15:00 PM 4.77 40.586 0.079 17.75 2.87 13.49
2/14/2023 6:30:00 PM 4.69 40.442 0.079 17.76 3.09 13.32
2/14/2023 6:45:00 PM 4.62 40.316 0.079 17.76 3.04 13.17
2/14/2023 7:00:00 PM 4.53 40.154 0.079 17.76 3.02 13.04
2/14/2023 7:15:00 PM 4.45 40.01 0.08 17.77 3.13 12.93
2/14/2023 7:30:00 PM 4.37 39.866 0.08 17.77 3.15 12.84
2/14/2023 7:45:00 PM 4.29 39.722 0.081 17.77 3.11 12.75
2/14/2023 8:00:00 PM 4.22 39.596 0.081 17.78 3.17 12.68
2/14/2023 8:15:00 PM 4.16 39.488 0.081 17.78 3.11 12.62
2/14/2023 8:30:00 PM 4.12 39.416 0.081 17.78 3.12 12.57
2/14/2023 8:45:00 PM 4.07 39.326 0.081 17.78 3.04 12.53
2/14/2023 9:00:00 PM 4.03 39.254 0.082 17.78 3.05 12.5
2/14/2023 9:15:00 PM 3.99 39.182 0.082 17.78 3.01 12.47
2/14/2023 9:30:00 PM 3.96 39.128 0.082 17.79 2.99 12.46
2/14/2023 9:45:00 PM 3.93 39.074 0.082 17.79 3.03 12.45
2/14/2023 10:00:00 PM 3.9 39.02 0.082 17.79 2.97 12.44
2/14/2023 10:15:00 PM 3.88 38.984 0.082 17.79 3.04 12.43
2/14/2023 10:30:00 PM 3.86 38.948 0.082 17.79 3.01 12.43
2/14/2023 10:45:00 PM 3.84 38.912 0.082 17.79 3.01 12.43
2/14/2023 11:00:00 PM 3.83 38.894 0.083 17.79 2.96 12.42
2/14/2023 11:15:00 PM 3.82 38.876 0.082 17.79 2.95 12.43
2/14/2023 11:30:00 PM 3.81 38.858 0.082 17.79 2.99 12.44
2/14/2023 11:45:00 PM 3.8 38.84 0.083 17.79 2.97 12.43
2/15/2023 12:00:00 AM 3.79 38.822 0.083 17.79 2.99 12.42
2/15/2023 12:15:00 AM 3.79 38.822 0.083 17.79 3.05 12.43
2/15/2023 12:30:00 AM 3.78 38.804 0.083 17.79 3.05 12.42
2/15/2023 12:45:00 AM 3.78 38.804 0.083 17.79 3 12.43
2/15/2023 1:00:00 AM 3.77 38.786 0.083 17.79 2.98 12.43
2/15/2023 1:15:00 AM 3.77 38.786 0.083 17.79 3.05 12.43
2/15/2023 1:30:00 AM 3.76 38.768 0.083 17.79 2.93 12.43
2/15/2023 1:45:00 AM 3.76 38.768 0.083 17.79 2.97 12.43
2/15/2023 2:00:00 AM 3.75 38.75 0.083 17.79 3.09 12.44
2/15/2023 2:15:00 AM 3.74 38.732 0.083 17.79 2.97 12.45
2/15/2023 2:30:00 AM 3.72 38.696 0.083 17.8 2.91 12.45
2/15/2023 2:45:00 AM 3.69 38.642 0.083 17.8 2.97 12.45
2/15/2023 3:00:00 AM 3.67 38.606 0.083 17.8 2.83 12.46
2/15/2023 3:15:00 AM 3.66 38.588 0.083 17.8 2.9 12.45
2/15/2023 3:30:00 AM 3.65 38.57 0.083 17.8 3.01 12.47
2/15/2023 3:45:00 AM 3.64 38.552 0.083 17.8 2.99 12.47
2/15/2023 4:00:00 AM 3.62 38.516 0.083 17.8 3 12.48
2/15/2023 4:15:00 AM 3.61 38.498 0.083 17.8 2.92 12.48
2/15/2023 4:30:00 AM 3.6 38.48 0.083 17.8 2.94 12.49
2/15/2023 4:45:00 AM 3.59 38.462 0.083 17.8 2.98 12.49
2/15/2023 5:00:00 AM 3.58 38.444 0.083 17.8 2.95 12.5
2/15/2023 5:15:00 AM 3.58 38.444 0.083 17.8 2.97 12.5
2/15/2023 5:30:00 AM 3.57 38.426 0.083 17.8 3.01 12.5
2/15/2023 5:45:00 AM 3.57 38.426 0.082 17.8 2.92 12.51
2/15/2023 6:00:00 AM 3.57 38.426 0.083 17.8 2.93 12.51
2/15/2023 6:15:00 AM 3.58 38.444 0.083 17.8 2.98 12.5
2/15/2023 6:30:00 AM 3.59 38.462 0.083 17.8 2.97 12.51
2/15/2023 6:45:00 AM 3.59 38.462 0.083 17.8 2.93 12.49
2/15/2023 7:00:00 AM 3.57 38.426 0.082 17.8 3.02 12.51
2/15/2023 7:15:00 AM 3.57 38.426 0.083 17.8 2.97 12.52
2/15/2023 7:30:00 AM 3.58 38.444 0.082 17.8 3.04 12.56
2/15/2023 7:45:00 AM 3.59 38.462 0.082 17.8 2.95 12.67
2/15/2023 8:00:00 AM 3.59 38.462 0.082 17.8 2.92 12.83
2/15/2023 8:15:00 AM 3.62 38.516 0.082 17.8 2.85 13.07
2/15/2023 8:30:00 AM 3.7 38.66 0.082 17.8 2.91 13.4
2/15/2023 8:45:00 AM 3.77 38.786 0.082 17.79 2.94 13.66
2/15/2023 9:00:00 AM 3.81 38.858 0.082 17.79 2.92 13.82
2/15/2023 9:15:00 AM 3.86 38.948 0.082 17.79 3.02 14.06
2/15/2023 9:30:00 AM 3.99 39.182 0.081 17.78 2.96 14.34
2/15/2023 9:45:00 AM 4.13 39.434 0.081 17.78 3.06 14.6
2/15/2023 10:00:00 AM 4.23 39.614 0.081 17.78 2.96 14.77
2/15/2023 10:15:00 AM 4.38 39.884 0.081 17.77 2.89 14.9
2/15/2023 10:30:00 AM 4.57 40.226 0.08 17.76 3.01 15.04
2/15/2023 10:45:00 AM 4.78 40.604 0.08 17.75 3.03 15.19
2/15/2023 11:00:00 AM 5.01 41.018 0.08 17.75 3.17 15.31
2/15/2023 11:15:00 AM 5.24 41.432 0.08 17.74 3.07 15.36
2/15/2023 11:30:00 AM 5.49 41.882 0.08 17.73 3.12 15.39
2/15/2023 11:45:00 AM 5.73 42.314 0.08 17.72 3.01 15.44
2/15/2023 12:00:00 PM 5.96 42.728 0.079 17.71 3.09 15.46
2/15/2023 12:15:00 PM 6.2 43.16 0.079 17.7 3.16 15.44
2/15/2023 12:30:00 PM 6.44 43.592 0.079 17.69 3.1 15.46
2/15/2023 12:45:00 PM 6.72 44.096 0.079 17.68 3.12 15.42
2/15/2023 1:00:00 PM 7.01 44.618 0.079 17.67 3.21 15.37
2/15/2023 1:15:00 PM 7.28 45.104 0.079 17.66 3.13 15.34
2/15/2023 1:30:00 PM 7.53 45.554 0.079 17.65 3.35 15.25
2/15/2023 1:45:00 PM 7.73 45.914 0.079 17.64 3.07 15.24
2/15/2023 2:00:00 PM 7.95 46.31 0.079 17.63 3.04 15.19
2/15/2023 2:15:00 PM 8.12 46.616 0.079 17.63 3.13 15.08
2/15/2023 2:30:00 PM 8.27 46.886 0.079 17.62 3.05 15.02
2/15/2023 2:45:00 PM 8.4 47.12 0.079 17.62 3.06 14.98
2/15/2023 3:00:00 PM 8.5 47.3 0.079 17.61 3.39 14.88
2/15/2023 3:15:00 PM 8.56 47.408 0.079 17.61 3.22 14.8
2/15/2023 3:30:00 PM 8.6 47.48 0.079 17.61 3.16 14.66
2/15/2023 3:45:00 PM 8.62 47.516 0.079 17.61 3.44 14.52
2/15/2023 4:00:00 PM 8.63 47.534 0.079 17.61 4.08 14.41
2/15/2023 4:15:00 PM 8.61 47.498 0.079 17.61 3.04 14.26
2/15/2023 4:30:00 PM 8.58 47.444 0.079 17.61 2.98 14.12
2/15/2023 4:45:00 PM 8.53 47.354 0.079 17.61 3.09 13.92
2/15/2023 5:00:00 PM 8.47 47.246 0.079 17.61 3.11 13.71
2/15/2023 5:15:00 PM 8.42 47.156 0.078 17.62 3.1 13.44
2/15/2023 5:30:00 PM 8.35 47.03 0.078 17.62 3.09 13.16
2/15/2023 5:45:00 PM 8.31 46.958 0.078 17.62 5.19 12.89
2/15/2023 6:00:00 PM 8.24 46.832 0.079 17.62 4.25 12.6
2/15/2023 6:15:00 PM 8.18 46.724 0.079 17.62 3.23 12.34
2/15/2023 6:30:00 PM 8.11 46.598 0.078 17.63 3.23 12.12
2/15/2023 6:45:00 PM 8.03 46.454 0.079 17.63 3.21 11.95
2/15/2023 7:00:00 PM 7.95 46.31 0.079 17.63 3.13 11.8
2/15/2023 7:15:00 PM 7.87 46.166 0.079 17.64 3.13 11.67
2/15/2023 7:30:00 PM 7.79 46.022 0.08 17.64 3.19 11.54
2/15/2023 7:45:00 PM 7.71 45.878 0.08 17.64 3.16 11.43
2/15/2023 8:00:00 PM 7.64 45.752 0.081 17.64 3.05 11.32
2/15/2023 8:15:00 PM 7.57 45.626 0.081 17.64 3.2 11.23
2/15/2023 8:30:00 PM 7.52 45.536 0.082 17.65 3.22 11.17
2/15/2023 8:45:00 PM 7.46 45.428 0.082 17.64 4.92 11.13
2/15/2023 9:00:00 PM 7.41 45.338 0.083 17.64 3.08 11.1
2/15/2023 9:15:00 PM 7.35 45.23 0.082 17.64 3.15 11.09
2/15/2023 9:30:00 PM 7.3 45.14 0.083 17.63 3.05 11.08
2/15/2023 9:45:00 PM 7.24 45.032 0.083 17.64 3.33 11.11
2/15/2023 10:00:00 PM 7.18 44.924 0.083 17.65 3.03 11.1
2/15/2023 10:15:00 PM 7.12 44.816 0.083 17.65 3.28 11.12
2/15/2023 10:30:00 PM 7.05 44.69 0.083 17.66 3.07 11.14
2/15/2023 10:45:00 PM 7 44.6 0.083 17.66 3.29 11.14
2/15/2023 11:00:00 PM 6.94 44.492 0.084 17.67 3.27 11.15
2/15/2023 11:15:00 PM 6.89 44.402 0.084 17.67 3.21 11.16
2/15/2023 11:30:00 PM 6.84 44.312 0.084 17.66 3.14 11.16
2/15/2023 11:45:00 PM 6.79 44.222 0.084 17.67 3.07 11.17
2/16/2023 12:00:00 AM 6.74 44.132 0.084 17.67 3.13 11.18
2/16/2023 12:15:00 AM 6.69 44.042 0.084 17.68 3.12 11.2
2/16/2023 12:30:00 AM 6.64 43.952 0.084 17.68 3.07 11.21
2/16/2023 12:45:00 AM 6.59 43.862 0.084 17.68 3.07 11.24
2/16/2023 1:00:00 AM 6.54 43.772 0.084 17.69 3.01 11.27
2/16/2023 1:15:00 AM 6.48 43.664 0.085 17.69 3.04 11.3
2/16/2023 1:30:00 AM 6.43 43.574 0.085 17.69 2.93 11.32
2/16/2023 1:45:00 AM 6.38 43.484 0.085 17.69 3.09 11.33
2/16/2023 2:00:00 AM 6.32 43.376 0.085 17.69 2.94 11.36
2/16/2023 2:15:00 AM 6.27 43.286 0.085 17.7 3.03 11.37
2/16/2023 2:30:00 AM 6.2 43.16 0.085 17.7 3.07 11.39
2/16/2023 2:45:00 AM 6.14 43.052 0.085 17.7 2.98 11.4
2/16/2023 3:00:00 AM 6.09 42.962 0.085 17.7 3.02 11.43
2/16/2023 3:15:00 AM 6.03 42.854 0.085 17.71 3.42 11.43
2/16/2023 3:30:00 AM 5.98 42.764 0.085 17.71 3.02 11.45
2/16/2023 3:45:00 AM 5.92 42.656 0.085 17.71 3.08 11.47
2/16/2023 4:00:00 AM 5.86 42.548 0.084 17.71 3.13 11.49
2/16/2023 4:15:00 AM 5.8 42.44 0.085 17.71 3.02 11.53
2/16/2023 4:30:00 AM 5.75 42.35 0.084 17.72 3.05 11.55
2/16/2023 4:45:00 AM 5.7 42.26 0.084 17.72 2.97 11.58
2/16/2023 5:00:00 AM 5.65 42.17 0.084 17.72 3.12 11.61
2/16/2023 5:15:00 AM 5.59 42.062 0.084 17.72 3.1 11.64
2/16/2023 5:30:00 AM 5.54 41.972 0.084 17.72 2.97 11.66
2/16/2023 5:45:00 AM 5.5 41.9 0.084 17.73 3.01 11.68
2/16/2023 6:00:00 AM 5.44 41.792 0.084 17.73 3.01 11.69
2/16/2023 6:15:00 AM 5.4 41.72 0.084 17.73 3.05 11.72
2/16/2023 6:30:00 AM 5.36 41.648 0.084 17.73 3.1 11.72
2/16/2023 6:45:00 AM 5.32 41.576 0.084 17.73 3.01 11.73
2/16/2023 7:00:00 AM 5.28 41.504 0.084 17.74 3.34 11.76
2/16/2023 7:15:00 AM 5.24 41.432 0.084 17.74 3.18 11.79
2/16/2023 7:30:00 AM 5.21 41.378 0.084 17.74 3.14 11.85
2/16/2023 7:45:00 AM 5.19 41.342 0.084 17.74 3.34 11.98
2/16/2023 8:00:00 AM 5.17 41.306 0.084 17.74 3.03 12.16
2/16/2023 8:15:00 AM 5.18 41.324 0.084 17.74 3.17 12.38
2/16/2023 8:30:00 AM 5.19 41.342 0.083 17.74 3.29 12.66
2/16/2023 8:45:00 AM 5.2 41.36 0.083 17.74 3.41 12.92
2/16/2023 9:00:00 AM 5.22 41.396 0.083 17.74 3.24 13.14
2/16/2023 9:15:00 AM 5.23 41.414 0.083 17.74 3.46 13.32
2/16/2023 9:30:00 AM 5.25 41.45 0.082 17.74 3.09 13.47
2/16/2023 9:45:00 AM 5.28 41.504 0.082 17.73 3.2 13.63
2/16/2023 10:00:00 AM 5.31 41.558 0.082 17.73 3.27 13.84
2/16/2023 10:15:00 AM 5.35 41.63 0.082 17.73 3.3 14.03
2/16/2023 10:30:00 AM 5.4 41.72 0.082 17.73 3.13 14.19
2/16/2023 10:45:00 AM 5.44 41.792 0.082 17.73 3.17 14.29
2/16/2023 11:00:00 AM 5.48 41.864 0.081 17.73 3.15 14.37
2/16/2023 11:15:00 AM 5.51 41.918 0.081 17.73 3.04 14.42
2/16/2023 11:30:00 AM 5.56 42.008 0.081 17.72 3.08 14.44
2/16/2023 11:45:00 AM 5.6 42.08 0.081 17.72 3.25 14.46
2/16/2023 12:00:00 PM 5.65 42.17 0.081 17.72 3.12 14.51
2/16/2023 12:15:00 PM 5.7 42.26 0.081 17.72 3.04 14.51
2/16/2023 12:30:00 PM 5.74 42.332 0.081 17.72 3.23 14.46
2/16/2023 12:45:00 PM 5.77 42.386 0.082 17.72 3.29 14.42
2/16/2023 1:00:00 PM 5.82 42.476 0.081 17.71 3.3 14.38
2/16/2023 1:15:00 PM 5.87 42.566 0.083 17.71 5.12 14.41
2/16/2023 1:30:00 PM 5.92 42.656 0.081 17.71 3.1 14.42
2/16/2023 1:45:00 PM 5.99 42.782 0.08 17.71 3.29 14.48
2/16/2023 2:00:00 PM 6.1 42.98 0.08 17.7 3.23 14.64
2/16/2023 2:15:00 PM 6.23 43.214 0.08 17.7 3.29 14.8
2/16/2023 2:30:00 PM 6.3 43.34 0.08 17.7 3.2 14.88
2/16/2023 2:45:00 PM 6.35 43.43 0.08 17.69 3.04 14.87
2/16/2023 3:00:00 PM 6.4 43.52 0.08 17.69 3.15 14.83
2/16/2023 3:15:00 PM 6.46 43.628 0.08 17.69 3.16 14.82
2/16/2023 3:30:00 PM 6.5 43.7 0.08 17.69 3.12 14.69
2/16/2023 3:45:00 PM 6.56 43.808 0.079 17.69 3.11 14.53
2/16/2023 4:00:00 PM 6.6 43.88 0.079 17.68 3.21 14.4
2/16/2023 4:15:00 PM 6.65 43.97 0.079 17.68 3.01 14.22
2/16/2023 4:30:00 PM 6.68 44.024 0.079 17.68 3.22 13.98
2/16/2023 4:45:00 PM 6.72 44.096 0.079 17.68 3.14 13.82
2/16/2023 5:00:00 PM 6.76 44.168 0.079 17.68 3.57 13.74
2/16/2023 5:15:00 PM 6.77 44.186 0.079 17.68 3.11 13.55
2/16/2023 5:30:00 PM 6.79 44.222 0.079 17.68 3.18 13.32
2/16/2023 5:45:00 PM 6.79 44.222 0.079 17.68 3.15 13.08
2/16/2023 6:00:00 PM 6.79 44.222 0.079 17.68 3.76 12.83
2/16/2023 6:15:00 PM 6.8 44.24 0.079 17.68 3.14 12.61
2/16/2023 6:30:00 PM 6.8 44.24 0.08 17.68 3.07 12.42
2/16/2023 6:45:00 PM 6.8 44.24 0.08 17.68 3.34 12.27
2/16/2023 7:00:00 PM 6.8 44.24 0.08 17.68 3.35 12.11
2/16/2023 7:15:00 PM 6.8 44.24 0.08 17.68 3.05 11.98
2/16/2023 7:30:00 PM 6.8 44.24 0.081 17.68 3.47 11.87
2/16/2023 7:45:00 PM 6.81 44.258 0.081 17.68 3.2 11.76
2/16/2023 8:00:00 PM 6.81 44.258 0.082 17.66 3.23 11.67
2/16/2023 8:15:00 PM 6.81 44.258 0.082 17.66 3.11 11.59
2/16/2023 8:30:00 PM 6.81 44.258 0.082 17.63 3.25 11.53
2/16/2023 8:45:00 PM 6.81 44.258 0.082 17.62 3.19 11.47
2/16/2023 9:00:00 PM 6.81 44.258 0.083 17.61 3.1 11.42
2/16/2023 9:15:00 PM 6.81 44.258 0.083 17.6 2.98 11.39
2/16/2023 9:30:00 PM 6.81 44.258 0.083 17.6 3.16 11.36
2/16/2023 9:45:00 PM 6.8 44.24 0.084 17.61 3.03 11.33
2/16/2023 10:00:00 PM 6.8 44.24 0.084 17.6 3.12 11.32
2/16/2023 10:15:00 PM 6.8 44.24 0.084 17.59 3.14 11.3
2/16/2023 10:30:00 PM 6.79 44.222 0.084 17.59 3.16 11.29
2/16/2023 10:45:00 PM 6.79 44.222 0.084 17.6 3 11.28
2/16/2023 11:00:00 PM 6.78 44.204 0.084 17.58 3.12 11.27
2/16/2023 11:15:00 PM 6.77 44.186 0.085 17.59 3.25 11.27
2/16/2023 11:30:00 PM 6.76 44.168 0.085 17.58 2.96 11.25
2/16/2023 11:45:00 PM 6.74 44.132 0.085 17.58 3.17 11.25
2/17/2023 12:00:00 AM 6.73 44.114 0.085 17.59 3 11.25
2/17/2023 12:15:00 AM 6.71 44.078 0.085 17.59 3.37 11.25
2/17/2023 12:30:00 AM 6.7 44.06 0.085 17.6 2.92 11.25
2/17/2023 12:45:00 AM 6.69 44.042 0.085 17.6 3.21 11.24
2/17/2023 1:00:00 AM 6.67 44.006 0.085 17.61 3.03 11.24
2/17/2023 1:15:00 AM 6.66 43.988 0.086 17.61 3.17 11.24
2/17/2023 1:30:00 AM 6.64 43.952 0.086 17.61 3.09 11.24
2/17/2023 1:45:00 AM 6.62 43.916 0.086 17.61 3.18 11.24
2/17/2023 2:00:00 AM 6.61 43.898 0.086 17.61 3.95 11.24
2/17/2023 2:15:00 AM 6.59 43.862 0.086 17.6 3.12 11.24
2/17/2023 2:30:00 AM 6.57 43.826 0.086 17.61 2.97 11.24
2/17/2023 2:45:00 AM 6.55 43.79 0.086 17.61 2.92 11.24
2/17/2023 3:00:00 AM 6.54 43.772 0.086 17.61 2.85 11.25
2/17/2023 3:15:00 AM 6.52 43.736 0.086 17.61 3.04 11.24
2/17/2023 3:30:00 AM 6.51 43.718 0.086 17.62 3.06 11.24
2/17/2023 3:45:00 AM 6.5 43.7 0.086 17.62 2.97 11.25
2/17/2023 4:00:00 AM 6.5 43.7 0.086 17.63 2.83 11.24
2/17/2023 4:15:00 AM 6.5 43.7 0.085 17.63 2.94 11.25
2/17/2023 4:30:00 AM 6.51 43.718 0.085 17.62 3.02 11.25
2/17/2023 4:45:00 AM 6.52 43.736 0.085 17.61 3.25 11.25
2/17/2023 5:00:00 AM 6.51 43.718 0.085 17.61 3.2 11.24
2/17/2023 5:15:00 AM 6.51 43.718 0.085 17.62 3.12 11.24
2/17/2023 5:30:00 AM 6.51 43.718 0.085 17.62 3.07 11.24
2/17/2023 5:45:00 AM 6.51 43.718 0.085 17.62 3.16 11.24
2/17/2023 6:00:00 AM 6.51 43.718 0.085 17.62 3.17 11.23
2/17/2023 6:15:00 AM 6.52 43.736 0.085 17.62 3.19 11.23
2/17/2023 6:30:00 AM 6.53 43.754 0.085 17.62 3.13 11.24
2/17/2023 6:45:00 AM 6.53 43.754 0.085 17.61 3.04 11.23
2/17/2023 7:00:00 AM 6.53 43.754 0.085 17.62 3.21 11.21
2/17/2023 7:15:00 AM 6.54 43.772 0.085 17.62 3.26 11.22
2/17/2023 7:30:00 AM 6.57 43.826 0.085 17.61 3.12 11.23
2/17/2023 7:45:00 AM 6.59 43.862 0.085 17.61 3.11 11.25
2/17/2023 8:00:00 AM 6.59 43.862 0.085 17.61 3.35 11.3
2/17/2023 8:15:00 AM 6.59 43.862 0.085 17.63 3.34 11.37
2/17/2023 8:30:00 AM 6.59 43.862 0.085 17.64 3.46 11.44
2/17/2023 8:45:00 AM 6.59 43.862 0.085 17.64 3.22 11.49
2/17/2023 9:00:00 AM 6.59 43.862 0.085 17.65 3.19 11.55
2/17/2023 9:15:00 AM 6.58 43.844 0.085 17.66 3.31 11.59
2/17/2023 9:30:00 AM 6.58 43.844 0.085 17.67 3.36 11.66
2/17/2023 9:45:00 AM 6.56 43.808 0.085 17.67 3.32 11.76
2/17/2023 10:00:00 AM 6.56 43.808 0.085 17.68 3.45 11.95
2/17/2023 10:15:00 AM 6.56 43.808 0.085 17.69 3.24 12.2
2/17/2023 10:30:00 AM 6.55 43.79 0.085 17.69 3.28 12.45
2/17/2023 10:45:00 AM 6.55 43.79 0.084 17.69 3.36 12.66
2/17/2023 11:00:00 AM 6.58 43.844 0.084 17.68 3.3 13.01
2/17/2023 11:15:00 AM 6.62 43.916 0.084 17.68 3.39 13.37
2/17/2023 11:30:00 AM 6.64 43.952 0.084 17.68 3.17 13.63
2/17/2023 11:45:00 AM 6.65 43.97 0.083 17.68 3.29 13.85
2/17/2023 12:00:00 PM 6.74 44.132 0.083 17.68 3.45 14.12
2/17/2023 12:15:00 PM 6.82 44.276 0.083 17.68 3.37 14.38
2/17/2023 12:30:00 PM 6.82 44.276 0.083 17.68 3.22 14.5
2/17/2023 12:45:00 PM 6.82 44.276 0.083 17.68 3.32 14.53
2/17/2023 1:00:00 PM 6.88 44.384 0.083 17.67 3.51 14.61
2/17/2023 1:15:00 PM 6.95 44.51 0.082 17.67 3.26 14.75
2/17/2023 1:30:00 PM 6.99 44.582 0.082 17.67 3.46 14.78
2/17/2023 1:45:00 PM 6.99 44.582 0.082 17.67 3.37 14.76
2/17/2023 2:00:00 PM 6.98 44.564 0.082 17.67 3.29 14.68
2/17/2023 2:15:00 PM 6.95 44.51 0.082 17.67 3.5 14.51
2/17/2023 2:30:00 PM 6.93 44.474 0.082 17.67 3.35 14.32
2/17/2023 2:45:00 PM 6.91 44.438 0.082 17.67 3.3 14.14
2/17/2023 3:00:00 PM 6.88 44.384 0.082 17.67 3.33 14.04
2/17/2023 3:15:00 PM 6.85 44.33 0.082 17.67 3.48 13.99
2/17/2023 3:30:00 PM 6.77 44.186 0.083 17.68 3.39 13.81
2/17/2023 3:45:00 PM 6.7 44.06 0.083 17.68 3.24 13.66
2/17/2023 4:00:00 PM 6.62 43.916 0.083 17.68 3.37 13.52
2/17/2023 4:15:00 PM 6.56 43.808 0.083 17.69 3.41 13.48
2/17/2023 4:30:00 PM 6.5 43.7 0.083 17.69 3.42 13.48
2/17/2023 4:45:00 PM 6.43 43.574 0.083 17.69 3.32 13.51
2/17/2023 5:00:00 PM 6.33 43.394 0.084 17.69 3.37 13.49
2/17/2023 5:15:00 PM 6.24 43.232 0.083 17.7 3.4 13.43
2/17/2023 5:30:00 PM 6.14 43.052 0.083 17.7 3.28 13.29
2/17/2023 5:45:00 PM 6.04 42.872 0.083 17.71 3.36 13.13
2/17/2023 6:00:00 PM 5.94 42.692 0.083 17.71 3.42 12.96
2/17/2023 6:15:00 PM 5.85 42.53 0.083 17.71 3.33 12.81
2/17/2023 6:30:00 PM 5.76 42.368 0.083 17.72 3.3 12.67
2/17/2023 6:45:00 PM 5.66 42.188 0.083 17.72 3.48 12.58
2/17/2023 7:00:00 PM 5.56 42.008 0.083 17.72 3.5 12.49
2/17/2023 7:15:00 PM 5.48 41.864 0.083 17.73 3.46 12.43
2/17/2023 7:30:00 PM 5.39 41.702 0.084 17.73 3.24 12.35
2/17/2023 7:45:00 PM 5.3 41.54 0.084 17.73 6.58 12.27
2/17/2023 8:00:00 PM 5.2 41.36 0.084 17.74 3.23 12.23
2/17/2023 8:15:00 PM 5.11 41.198 0.085 17.74 3.26 12.17
2/17/2023 8:30:00 PM 5.03 41.054 0.085 17.74 3.21 12.12
2/17/2023 8:45:00 PM 4.95 40.91 0.086 17.75 3.15 12.08
2/17/2023 9:00:00 PM 4.87 40.766 0.086 17.75 3.25 12.08
2/17/2023 9:15:00 PM 4.79 40.622 0.086 17.75 3.19 12.07
2/17/2023 9:30:00 PM 4.7 40.46 0.086 17.76 3.23 12.1
2/17/2023 9:45:00 PM 4.62 40.316 0.086 17.76 3.24 12.12
2/17/2023 10:00:00 PM 4.53 40.154 0.086 17.76 3.15 12.15
2/17/2023 10:15:00 PM 4.43 39.974 0.087 17.77 3.16 12.17
2/17/2023 10:30:00 PM 4.32 39.776 0.087 17.77 3.23 12.18
2/17/2023 10:45:00 PM 4.24 39.632 0.087 17.78 3.31 12.2
2/17/2023 11:00:00 PM 4.17 39.506 0.087 17.78 3.15 12.21
2/17/2023 11:15:00 PM 4.08 39.344 0.087 17.78 3.12 12.24
2/17/2023 11:30:00 PM 3.99 39.182 0.087 17.78 3.21 12.28
2/17/2023 11:45:00 PM 3.91 39.038 0.088 17.79 3 12.31
2/18/2023 12:00:00 AM 3.8 38.84 0.088 17.79 3.11 12.36
2/18/2023 12:15:00 AM 3.67 38.606 0.087 17.8 3.11 12.42
2/18/2023 12:30:00 AM 3.59 38.462 0.088 17.8 3.2 12.47
2/18/2023 12:45:00 AM 3.53 38.354 0.088 17.8 3.23 12.5
2/18/2023 1:00:00 AM 3.47 38.246 0.088 17.81 3.03 12.52
2/18/2023 1:15:00 AM 3.4 38.12 0.088 17.81 3.25 12.52
2/18/2023 1:30:00 AM 3.29 37.922 0.088 17.81 3.11 12.54
2/18/2023 1:45:00 AM 3.22 37.796 0.088 17.82 3.21 12.56
2/18/2023 2:00:00 AM 3.16 37.688 0.088 17.82 3.15 12.61
2/18/2023 2:15:00 AM 3.1 37.58 0.088 17.82 3.33 12.64
2/18/2023 2:30:00 AM 3.04 37.472 0.088 17.82 3.24 12.69
2/18/2023 2:45:00 AM 2.93 37.274 0.088 17.83 3.29 12.75
2/18/2023 3:00:00 AM 2.82 37.076 0.088 17.83 3.01 12.81
2/18/2023 3:15:00 AM 2.75 36.95 0.088 17.83 3.17 12.85
2/18/2023 3:30:00 AM 2.7 36.86 0.088 17.84 3.11 12.88
2/18/2023 3:45:00 AM 2.65 36.77 0.088 17.84 3.17 12.89
2/18/2023 4:00:00 AM 2.59 36.662 0.088 17.84 3.13 12.91
2/18/2023 4:15:00 AM 2.52 36.536 0.088 17.84 3.09 12.91
2/18/2023 4:30:00 AM 2.42 36.356 0.088 17.85 3.15 12.93
2/18/2023 4:45:00 AM 2.34 36.212 0.088 17.85 3.18 12.94
2/18/2023 5:00:00 AM 2.27 36.086 0.087 17.85 3.11 12.99
2/18/2023 5:15:00 AM 2.2 35.96 0.088 17.86 3.31 13.03
2/18/2023 5:30:00 AM 2.13 35.834 0.088 17.86 3.09 13.08
2/18/2023 5:45:00 AM 2.05 35.69 0.087 17.86 3.05 13.15
2/18/2023 6:00:00 AM 1.97 35.546 0.087 17.86 3.2 13.2
2/18/2023 6:15:00 AM 1.9 35.42 0.088 17.87 3.1 13.24
2/18/2023 6:30:00 AM 1.83 35.294 0.087 17.87 3.51 13.27
2/18/2023 6:45:00 AM 1.78 35.204 0.087 17.87 3.71 13.27
2/18/2023 7:00:00 AM 1.73 35.114 0.088 17.87 3.09 13.29
2/18/2023 7:15:00 AM 1.67 35.006 0.087 17.88 3.15 13.33
2/18/2023 7:30:00 AM 1.63 34.934 0.087 17.88 3.46 13.42
2/18/2023 7:45:00 AM 1.59 34.862 0.087 17.88 3.48 13.57
2/18/2023 8:00:00 AM 1.56 34.808 0.087 17.88 3.24 13.76
2/18/2023 8:15:00 AM 1.53 34.754 0.087 17.88 3.33 13.99
2/18/2023 8:30:00 AM 1.52 34.736 0.086 17.88 3.32 14.23
2/18/2023 8:45:00 AM 1.53 34.754 0.086 17.88 3.24 14.49
2/18/2023 9:00:00 AM 1.55 34.79 0.086 17.88 3.25 14.76
2/18/2023 9:15:00 AM 1.59 34.862 0.086 17.88 3.44 15.01
2/18/2023 9:30:00 AM 1.64 34.952 0.086 17.88 3.49 15.23
2/18/2023 9:45:00 AM 1.71 35.078 0.085 17.87 3.29 15.45
2/18/2023 10:00:00 AM 1.79 35.222 0.085 17.87 3.3 15.65
2/18/2023 10:15:00 AM 1.93 35.474 0.085 17.87 3.31 15.87
2/18/2023 10:30:00 AM 2.04 35.672 0.085 17.86 3.23 16.03
2/18/2023 10:45:00 AM 2.19 35.942 0.084 17.86 3.15 16.16
2/18/2023 11:00:00 AM 2.33 36.194 0.084 17.85 3.04 16.21
2/18/2023 11:15:00 AM 2.52 36.536 0.084 17.84 3.1 16.2
2/18/2023 11:30:00 AM 2.7 36.86 0.084 17.84 3.03 16.26
2/18/2023 11:45:00 AM 2.88 37.184 0.084 17.83 3.19 16.31
2/18/2023 12:00:00 PM 3.07 37.526 0.083 17.82 3.04 16.37
2/18/2023 12:15:00 PM 3.24 37.832 0.083 17.81 3.12 16.34
2/18/2023 12:30:00 PM 3.42 38.156 0.083 17.81 3.17 16.29
2/18/2023 12:45:00 PM 3.62 38.516 0.083 17.8 3.06 16.26
2/18/2023 1:00:00 PM 3.82 38.876 0.083 17.79 3.06 16.25
2/18/2023 1:15:00 PM 4.02 39.236 0.083 17.78 3.04 16.24
2/18/2023 1:30:00 PM 4.21 39.578 0.083 17.78 2.97 16.17
2/18/2023 1:45:00 PM 4.38 39.884 0.083 17.77 3.05 16.09
2/18/2023 2:00:00 PM 4.53 40.154 0.083 17.76 3.06 16.06
2/18/2023 2:15:00 PM 4.67 40.406 0.083 17.76 3 16.01
2/18/2023 2:30:00 PM 4.8 40.64 0.083 17.75 3.04 16.01
2/18/2023 2:45:00 PM 4.88 40.784 0.083 17.75 3.1 15.95
2/18/2023 3:00:00 PM 4.95 40.91 0.083 17.75 3.23 15.88
2/18/2023 3:15:00 PM 4.99 40.982 0.083 17.75 3.03 15.84
2/18/2023 3:30:00 PM 4.95 40.91 0.083 17.75 3.08 15.77
2/18/2023 3:45:00 PM 4.95 40.91 0.082 17.75 3.07 15.72
2/18/2023 4:00:00 PM 4.89 40.802 0.082 17.75 3.14 15.64
2/18/2023 4:15:00 PM 4.83 40.694 0.082 17.75 3.17 15.55
2/18/2023 4:30:00 PM 4.75 40.55 0.082 17.76 3.11 15.44
2/18/2023 4:45:00 PM 4.66 40.388 0.082 17.76 3.06 15.29
2/18/2023 5:00:00 PM 4.56 40.208 0.082 17.76 3.04 15.1
2/18/2023 5:15:00 PM 4.47 40.046 0.082 17.77 3.08 14.9
2/18/2023 5:30:00 PM 4.37 39.866 0.083 17.77 2.97 14.66
2/18/2023 5:45:00 PM 4.28 39.704 0.082 17.77 3.13 14.44
2/18/2023 6:00:00 PM 4.19 39.542 0.083 17.78 3.14 14.22
2/18/2023 6:15:00 PM 4.08 39.344 0.083 17.78 3.12 14.02
2/18/2023 6:30:00 PM 3.98 39.164 0.083 17.79 3.09 13.86
2/18/2023 6:45:00 PM 3.89 39.002 0.083 17.79 3.18 13.72
2/18/2023 7:00:00 PM 3.78 38.804 0.083 17.79 3.07 13.58
2/18/2023 7:15:00 PM 3.69 38.642 0.084 17.8 3.18 13.44
2/18/2023 7:30:00 PM 3.59 38.462 0.084 17.8 2.99 13.31
2/18/2023 7:45:00 PM 3.49 38.282 0.085 17.8 3 13.2
2/18/2023 8:00:00 PM 3.39 38.102 0.085 17.81 3.13 13.11
2/18/2023 8:15:00 PM 3.3 37.94 0.085 17.81 3.06 13.06
2/18/2023 8:30:00 PM 3.21 37.778 0.085 17.82 3.12 13.02
2/18/2023 8:45:00 PM 3.12 37.616 0.086 17.82 3.01 13
2/18/2023 9:00:00 PM 3.03 37.454 0.086 17.82 3 12.99
2/18/2023 9:15:00 PM 2.96 37.328 0.086 17.83 3.05 12.97
2/18/2023 9:30:00 PM 2.88 37.184 0.087 17.83 3 12.95
2/18/2023 9:45:00 PM 2.81 37.058 0.086 17.83 3.07 12.94
2/18/2023 10:00:00 PM 2.74 36.932 0.087 17.83 2.92 12.92
2/18/2023 10:15:00 PM 2.67 36.806 0.087 17.84 3.03 12.9
2/18/2023 10:30:00 PM 2.6 36.68 0.087 17.84 3.01 12.92
2/18/2023 10:45:00 PM 2.53 36.554 0.087 17.84 3.01 12.94
2/18/2023 11:00:00 PM 2.47 36.446 0.087 17.84 3.51 12.94
2/18/2023 11:15:00 PM 2.41 36.338 0.087 17.85 3.06 12.98
2/18/2023 11:30:00 PM 2.35 36.23 0.087 17.85 2.97 13.02
2/18/2023 11:45:00 PM 2.28 36.104 0.087 17.85 2.94 13.07
2/19/2023 12:00:00 AM 2.23 36.014 0.087 17.85 3 13.11
2/19/2023 12:15:00 AM 2.17 35.906 0.088 17.86 2.91 13.14
2/19/2023 12:30:00 AM 2.12 35.816 0.088 17.86 3.13 13.18
2/19/2023 12:45:00 AM 2.08 35.744 0.088 17.86 2.93 13.19
2/19/2023 1:00:00 AM 2.04 35.672 0.088 17.86 2.93 13.2
2/19/2023 1:15:00 AM 2.01 35.618 0.088 17.86 3.12 13.2
2/19/2023 1:30:00 AM 1.97 35.546 0.088 17.86 2.94 13.21
2/19/2023 1:45:00 AM 1.93 35.474 0.088 17.87 2.95 13.23
2/19/2023 2:00:00 AM 1.9 35.42 0.088 17.87 3.15 13.22
2/19/2023 2:15:00 AM 1.87 35.366 0.088 17.87 2.93 13.23
2/19/2023 2:30:00 AM 1.84 35.312 0.088 17.87 2.86 13.23
2/19/2023 2:45:00 AM 1.81 35.258 0.088 17.87 2.95 13.24
2/19/2023 3:00:00 AM 1.79 35.222 0.088 17.87 2.97 13.24
2/19/2023 3:15:00 AM 1.76 35.168 0.088 17.87 2.89 13.25
2/19/2023 3:30:00 AM 1.73 35.114 0.089 17.87 3.04 13.27
2/19/2023 3:45:00 AM 1.7 35.06 0.088 17.87 2.87 13.27
2/19/2023 4:00:00 AM 1.66 34.988 0.088 17.88 2.96 13.29
2/19/2023 4:15:00 AM 1.62 34.916 0.088 17.88 2.89 13.31
2/19/2023 4:30:00 AM 1.59 34.862 0.089 17.88 3.01 13.32
2/19/2023 4:45:00 AM 1.56 34.808 0.088 17.88 2.91 13.36
2/19/2023 5:00:00 AM 1.52 34.736 0.088 17.88 2.97 13.39
2/19/2023 5:15:00 AM 1.49 34.682 0.088 17.88 2.86 13.42
2/19/2023 5:30:00 AM 1.46 34.628 0.088 17.88 3.05 13.44
2/19/2023 5:45:00 AM 1.41 34.538 0.088 17.89 2.92 13.48
2/19/2023 6:00:00 AM 1.38 34.484 0.088 17.89 2.92 13.52
2/19/2023 6:15:00 AM 1.34 34.412 0.088 17.89 2.92 13.51
2/19/2023 6:30:00 AM 1.32 34.376 0.088 17.89 3 13.55
2/19/2023 6:45:00 AM 1.29 34.322 0.088 17.89 2.85 13.56
2/19/2023 7:00:00 AM 1.26 34.268 0.088 17.89 2.97 13.57
2/19/2023 7:15:00 AM 1.23 34.214 0.088 17.89 2.98 13.63
2/19/2023 7:30:00 AM 1.21 34.178 0.088 17.89 2.88 13.7
2/19/2023 7:45:00 AM 1.19 34.142 0.088 17.89 2.91 13.84
2/19/2023 8:00:00 AM 1.19 34.142 0.088 17.89 2.84 14.02
2/19/2023 8:15:00 AM 1.2 34.16 0.087 17.89 2.96 14.25
2/19/2023 8:30:00 AM 1.23 34.214 0.087 17.89 2.85 14.51
2/19/2023 8:45:00 AM 1.29 34.322 0.087 17.89 2.98 14.85
2/19/2023 9:00:00 AM 1.38 34.484 0.087 17.89 2.97 15.14
2/19/2023 9:15:00 AM 1.4 34.52 0.086 17.89 3.19 15.36
2/19/2023 9:30:00 AM 1.44 34.592 0.086 17.89 2.95 15.52
2/19/2023 9:45:00 AM 1.5 34.7 0.086 17.88 2.84 15.7
2/19/2023 10:00:00 AM 1.59 34.862 0.086 17.88 3.07 15.86
2/19/2023 10:15:00 AM 1.69 35.042 0.086 17.88 2.79 15.98
2/19/2023 10:30:00 AM 1.87 35.366 0.085 17.87 2.98 16.1
2/19/2023 10:45:00 AM 2.07 35.726 0.085 17.86 3.02 16.28
2/19/2023 11:00:00 AM 2.19 35.942 0.084 17.86 2.96 16.42
2/19/2023 11:15:00 AM 2.29 36.122 0.084 17.85 3.18 16.5
2/19/2023 11:30:00 AM 2.4 36.32 0.084 17.85 2.99 16.54
2/19/2023 11:45:00 AM 2.54 36.572 0.084 17.84 2.88 16.51
2/19/2023 12:00:00 PM 2.72 36.896 0.084 17.83 3 16.47
2/19/2023 12:15:00 PM 2.89 37.202 0.083 17.83 2.96 16.51
2/19/2023 12:30:00 PM 3.04 37.472 0.083 17.82 2.9 16.54
2/19/2023 12:45:00 PM 3.14 37.652 0.083 17.82 2.96 16.55
2/19/2023 1:00:00 PM 3.33 37.994 0.083 17.81 3.05 16.48
2/19/2023 1:15:00 PM 3.48 38.264 0.083 17.8 2.9 16.4
2/19/2023 1:30:00 PM 3.6 38.48 0.083 17.8 3.01 16.35
2/19/2023 1:45:00 PM 3.76 38.768 0.083 17.79 3.02 16.32
2/19/2023 2:00:00 PM 3.85 38.93 0.083 17.79 3.01 16.24
2/19/2023 2:15:00 PM 3.94 39.092 0.083 17.79 2.98 16.19
2/19/2023 2:30:00 PM 4.09 39.362 0.082 17.78 3 16.13
2/19/2023 2:45:00 PM 4.21 39.578 0.082 17.78 3.11 16.07
2/19/2023 3:00:00 PM 4.34 39.812 0.082 17.77 3.04 16.01
2/19/2023 3:15:00 PM 4.54 40.172 0.082 17.76 3.11 15.98
2/19/2023 3:30:00 PM 4.68 40.424 0.082 17.76 2.98 15.94
2/19/2023 3:45:00 PM 4.77 40.586 0.082 17.75 2.98 15.85
2/19/2023 4:00:00 PM 4.81 40.658 0.082 17.75 2.97 15.76
2/19/2023 4:15:00 PM 4.84 40.712 0.082 17.75 3.03 15.62
2/19/2023 4:30:00 PM 4.84 40.712 0.082 17.75 3.03 15.49
2/19/2023 4:45:00 PM 4.85 40.73 0.082 17.75 3.03 15.39
2/19/2023 5:00:00 PM 4.82 40.676 0.082 17.75 3.05 15.21
2/19/2023 5:15:00 PM 4.77 40.586 0.082 17.75 3.12 14.96
2/19/2023 5:30:00 PM 4.72 40.496 0.082 17.76 2.98 14.69
2/19/2023 5:45:00 PM 4.68 40.424 0.082 17.76 2.99 14.42
2/19/2023 6:00:00 PM 4.66 40.388 0.082 17.76 3.03 14.13
2/19/2023 6:15:00 PM 4.66 40.388 0.082 17.76 2.9 13.88
2/19/2023 6:30:00 PM 4.67 40.406 0.082 17.76 3.08 13.64
2/19/2023 6:45:00 PM 4.66 40.388 0.082 17.76 3.04 13.42
2/19/2023 7:00:00 PM 4.63 40.334 0.082 17.76 2.94 13.24
2/19/2023 7:15:00 PM 4.57 40.226 0.082 17.76 3.04 13.07
2/19/2023 7:30:00 PM 4.49 40.082 0.082 17.77 3.04 12.91
2/19/2023 7:45:00 PM 4.41 39.938 0.083 17.77 3 12.78
2/19/2023 8:00:00 PM 4.32 39.776 0.083 17.77 2.99 12.65
2/19/2023 8:15:00 PM 4.22 39.596 0.084 17.78 3.06 12.57
2/19/2023 8:30:00 PM 4.12 39.416 0.084 17.78 3.21 12.51
2/19/2023 8:45:00 PM 4.03 39.254 0.085 17.78 3.05 12.45
2/19/2023 9:00:00 PM 3.95 39.11 0.085 17.79 3.07 12.43
2/19/2023 9:15:00 PM 3.87 38.966 0.085 17.79 3.05 12.4
2/19/2023 9:30:00 PM 3.8 38.84 0.086 17.79 3.16 12.39
2/19/2023 9:45:00 PM 3.72 38.696 0.086 17.8 3.03 12.38
2/19/2023 10:00:00 PM 3.66 38.588 0.086 17.8 2.98 12.37
2/19/2023 10:15:00 PM 3.59 38.462 0.086 17.8 3 12.35
2/19/2023 10:30:00 PM 3.52 38.336 0.087 17.8 2.87 12.34
2/19/2023 10:45:00 PM 3.45 38.21 0.087 17.81 2.93 12.34
2/19/2023 11:00:00 PM 3.38 38.084 0.087 17.81 2.97 12.35
2/19/2023 11:15:00 PM 3.32 37.976 0.087 17.81 2.93 12.37
2/19/2023 11:30:00 PM 3.26 37.868 0.087 17.81 2.92 12.38
2/19/2023 11:45:00 PM 3.18 37.724 0.087 17.82 2.91 12.4
2/20/2023 12:00:00 AM 3.12 37.616 0.088 17.82 3 12.44
2/20/2023 12:15:00 AM 3.05 37.49 0.088 17.82 2.9 12.48
2/20/2023 12:30:00 AM 2.99 37.382 0.088 17.82 3.04 12.52
2/20/2023 12:45:00 AM 2.92 37.256 0.088 17.83 2.95 12.55
2/20/2023 1:00:00 AM 2.86 37.148 0.088 17.83 2.98 12.58
2/20/2023 1:15:00 AM 2.8 37.04 0.088 17.83 3.16 12.59
2/20/2023 1:30:00 AM 2.75 36.95 0.088 17.83 3 12.62
2/20/2023 1:45:00 AM 2.7 36.86 0.088 17.84 2.98 12.63
2/20/2023 2:00:00 AM 2.66 36.788 0.088 17.84 2.84 12.63
2/20/2023 2:15:00 AM 2.62 36.716 0.088 17.84 3.05 12.66
2/20/2023 2:30:00 AM 2.58 36.644 0.089 17.84 2.9 12.65
2/20/2023 2:45:00 AM 2.55 36.59 0.088 17.84 2.85 12.67
2/20/2023 3:00:00 AM 2.51 36.518 0.089 17.84 2.95 12.69
2/20/2023 3:15:00 AM 2.47 36.446 0.088 17.84 3 12.7
2/20/2023 3:30:00 AM 2.43 36.374 0.089 17.85 3.14 12.69
2/20/2023 3:45:00 AM 2.4 36.32 0.089 17.85 2.84 12.71
2/20/2023 4:00:00 AM 2.37 36.266 0.088 17.85 2.95 12.73
2/20/2023 4:15:00 AM 2.34 36.212 0.089 17.85 2.88 12.75
2/20/2023 4:30:00 AM 2.31 36.158 0.088 17.85 2.86 12.77
2/20/2023 4:45:00 AM 2.29 36.122 0.088 17.85 2.99 12.78
2/20/2023 5:00:00 AM 2.27 36.086 0.089 17.85 2.9 12.8
2/20/2023 5:15:00 AM 2.25 36.05 0.088 17.85 2.99 12.82
2/20/2023 5:30:00 AM 2.23 36.014 0.088 17.85 3.04 12.84
2/20/2023 5:45:00 AM 2.21 35.978 0.088 17.85 3.01 12.85
2/20/2023 6:00:00 AM 2.2 35.96 0.088 17.86 2.84 12.86
2/20/2023 6:15:00 AM 2.19 35.942 0.088 17.86 2.93 12.87
2/20/2023 6:30:00 AM 2.17 35.906 0.088 17.86 2.89 12.9
2/20/2023 6:45:00 AM 2.16 35.888 0.088 17.86 2.92 12.9
2/20/2023 7:00:00 AM 2.14 35.852 0.088 17.86 2.98 12.92
2/20/2023 7:15:00 AM 2.12 35.816 0.088 17.86 3.02 12.97
2/20/2023 7:30:00 AM 2.11 35.798 0.088 17.86 2.92 13.04
2/20/2023 7:45:00 AM 2.12 35.816 0.088 17.86 2.96 13.19
2/20/2023 8:00:00 AM 2.13 35.834 0.088 17.86 2.92 13.36
2/20/2023 8:15:00 AM 2.14 35.852 0.087 17.86 2.96 13.55
2/20/2023 8:30:00 AM 2.16 35.888 0.087 17.86 2.86 13.82
2/20/2023 8:45:00 AM 2.26 36.068 0.087 17.85 2.87 14.14
2/20/2023 9:00:00 AM 2.38 36.284 0.087 17.85 2.93 14.45
2/20/2023 9:15:00 AM 2.48 36.464 0.086 17.84 2.87 14.73
2/20/2023 9:30:00 AM 2.63 36.734 0.086 17.84 2.94 14.98
2/20/2023 9:45:00 AM 2.76 36.968 0.086 17.83 3.02 15.23
2/20/2023 10:00:00 AM 2.88 37.184 0.085 17.83 2.94 15.41
2/20/2023 10:15:00 AM 2.99 37.382 0.085 17.82 3.03 15.56
2/20/2023 10:30:00 AM 3.11 37.598 0.085 17.82 2.92 15.63
2/20/2023 10:45:00 AM 3.21 37.778 0.085 17.82 3.02 15.63
2/20/2023 11:00:00 AM 3.27 37.886 0.084 17.81 3.15 15.61
2/20/2023 11:15:00 AM 3.46 38.228 0.084 17.81 2.91 15.65
2/20/2023 11:30:00 AM 3.8 38.84 0.084 17.79 2.99 15.82
2/20/2023 11:45:00 AM 4.11 39.398 0.084 17.78 3.04 15.85
2/20/2023 12:00:00 PM 4.24 39.632 0.084 17.78 3.07 15.86
2/20/2023 12:15:00 PM 4.22 39.596 0.084 17.78 2.97 15.76
2/20/2023 12:30:00 PM 4.27 39.686 0.083 17.77 3.15 15.72
2/20/2023 12:45:00 PM 4.5 40.1 0.083 17.77 3.09 15.76
2/20/2023 1:00:00 PM 4.9 40.82 0.083 17.75 3.08 15.8
2/20/2023 1:15:00 PM 5.12 41.216 0.083 17.74 3.01 15.77
2/20/2023 1:30:00 PM 5.2 41.36 0.083 17.74 3.04 15.69
2/20/2023 1:45:00 PM 5.38 41.684 0.082 17.73 3.08 15.61
2/20/2023 2:00:00 PM 5.51 41.918 0.082 17.73 3.03 15.53
2/20/2023 2:15:00 PM 5.67 42.206 0.082 17.72 3.16 15.41
2/20/2023 2:30:00 PM 5.8 42.44 0.082 17.72 3.11 15.35
2/20/2023 2:45:00 PM 5.92 42.656 0.082 17.71 3.05 15.36
2/20/2023 3:00:00 PM 6.03 42.854 0.083 17.71 2.93 15.36
2/20/2023 3:15:00 PM 6.06 42.908 0.082 17.7 3.04 15.3
2/20/2023 3:30:00 PM 6.03 42.854 0.082 17.71 3.01 15.18
2/20/2023 3:45:00 PM 5.98 42.764 0.082 17.71 3.06 15.09
2/20/2023 4:00:00 PM 5.97 42.746 0.082 17.71 3.15 15.02
2/20/2023 4:15:00 PM 5.92 42.656 0.082 17.71 2.89 14.92
2/20/2023 4:30:00 PM 5.88 42.584 0.082 17.71 3.02 14.77
2/20/2023 4:45:00 PM 5.82 42.476 0.082 17.71 2.97 14.55
2/20/2023 5:00:00 PM 5.77 42.386 0.082 17.72 3.08 14.36
2/20/2023 5:15:00 PM 5.72 42.296 0.082 17.72 3.06 14.17
2/20/2023 5:30:00 PM 5.68 42.224 0.082 17.72 2.99 14
2/20/2023 5:45:00 PM 5.63 42.134 0.082 17.72 2.98 13.74
2/20/2023 6:00:00 PM 5.6 42.08 0.082 17.72 2.89 13.48
2/20/2023 6:15:00 PM 5.56 42.008 0.082 17.72 3.02 13.21
2/20/2023 6:30:00 PM 5.53 41.954 0.082 17.73 2.97 13
2/20/2023 6:45:00 PM 5.51 41.918 0.082 17.73 3.06 12.83
2/20/2023 7:00:00 PM 5.47 41.846 0.082 17.73 2.97 12.68
2/20/2023 7:15:00 PM 5.42 41.756 0.082 17.73 3 12.55
2/20/2023 7:30:00 PM 5.36 41.648 0.082 17.73 2.98 12.43
2/20/2023 7:45:00 PM 5.31 41.558 0.083 17.73 3.03 12.3
2/20/2023 8:00:00 PM 5.26 41.468 0.083 17.74 3.12 12.2
2/20/2023 8:15:00 PM 5.21 41.378 0.084 17.74 3.01 12.11
2/20/2023 8:30:00 PM 5.19 41.342 0.084 17.74 3.04 12.02
2/20/2023 8:45:00 PM 5.17 41.306 0.084 17.74 2.95 11.96
2/20/2023 9:00:00 PM 5.15 41.27 0.085 17.74 2.99 11.89
2/20/2023 9:15:00 PM 5.12 41.216 0.085 17.74 3.02 11.86
2/20/2023 9:30:00 PM 5.09 41.162 0.085 17.74 2.97 11.82
2/20/2023 9:45:00 PM 5.07 41.126 0.086 17.74 3.05 11.78
2/20/2023 10:00:00 PM 5.04 41.072 0.086 17.74 3 11.76
2/20/2023 10:15:00 PM 5.02 41.036 0.086 17.74 3.03 11.75
2/20/2023 10:30:00 PM 5 41 0.086 17.75 3.01 11.74
2/20/2023 10:45:00 PM 4.99 40.982 0.086 17.75 2.97 11.73
2/20/2023 11:00:00 PM 4.97 40.946 0.087 17.75 2.97 11.73
2/20/2023 11:15:00 PM 4.96 40.928 0.087 17.75 2.96 11.72
2/20/2023 11:30:00 PM 4.94 40.892 0.087 17.75 3 11.72
2/20/2023 11:45:00 PM 4.93 40.874 0.087 17.75 3 11.72
2/21/2023 12:00:00 AM 4.93 40.874 0.087 17.75 3.03 11.72
2/21/2023 12:15:00 AM 4.92 40.856 0.087 17.75 2.97 11.71
2/21/2023 12:30:00 AM 4.92 40.856 0.087 17.75 2.98 11.72
2/21/2023 12:45:00 AM 4.91 40.838 0.087 17.75 2.99 11.71
2/21/2023 1:00:00 AM 4.91 40.838 0.087 17.75 3.07 11.71
2/21/2023 1:15:00 AM 4.91 40.838 0.088 17.75 3 11.69
2/21/2023 1:30:00 AM 4.91 40.838 0.087 17.75 2.97 11.71
2/21/2023 1:45:00 AM 4.91 40.838 0.087 17.75 3.03 11.7
2/21/2023 2:00:00 AM 4.9 40.82 0.088 17.75 2.99 11.7
2/21/2023 2:15:00 AM 4.9 40.82 0.088 17.75 3.01 11.69
2/21/2023 2:30:00 AM 4.9 40.82 0.088 17.75 2.98 11.69
2/21/2023 2:45:00 AM 4.88 40.784 0.088 17.75 3.06 11.69
2/21/2023 3:00:00 AM 4.85 40.73 0.088 17.75 3.02 11.69
2/21/2023 3:15:00 AM 4.85 40.73 0.088 17.75 3.03 11.68
2/21/2023 3:30:00 AM 4.84 40.712 0.088 17.75 3.02 11.7
2/21/2023 3:45:00 AM 4.83 40.694 0.088 17.75 3.01 11.7
2/21/2023 4:00:00 AM 4.82 40.676 0.088 17.75 2.98 11.72
2/21/2023 4:15:00 AM 4.81 40.658 0.088 17.75 3.13 11.72
2/21/2023 4:30:00 AM 4.78 40.604 0.088 17.75 3.11 11.72
2/21/2023 4:45:00 AM 4.75 40.55 0.088 17.76 3.01 11.71
2/21/2023 5:00:00 AM 4.71 40.478 0.088 17.76 3.06 11.74
2/21/2023 5:15:00 AM 4.69 40.442 0.088 17.76 8.82 11.74
2/21/2023 5:30:00 AM 4.66 40.388 0.088 17.76 3.13 11.75
2/21/2023 5:45:00 AM 4.63 40.334 0.088 17.76 3.13 11.76
2/21/2023 6:00:00 AM 4.62 40.316 0.088 17.76 3.12 11.78
2/21/2023 6:15:00 AM 4.6 40.28 0.088 17.76 3.09 11.79
2/21/2023 6:30:00 AM 4.58 40.244 0.088 17.76 3.02 11.79
2/21/2023 6:45:00 AM 4.55 40.19 0.088 17.76 3.14 11.81
2/21/2023 7:00:00 AM 4.53 40.154 0.088 17.76 3.02 11.82
2/21/2023 7:15:00 AM 4.52 40.136 0.088 17.76 3.08 11.87
2/21/2023 7:30:00 AM 4.5 40.1 0.088 17.76 3.11 11.94
2/21/2023 7:45:00 AM 4.49 40.082 0.087 17.77 3.04 12.08
2/21/2023 8:00:00 AM 4.48 40.064 0.087 17.77 3.1 12.23
2/21/2023 8:15:00 AM 4.49 40.082 0.087 17.77 3.02 12.4
2/21/2023 8:30:00 AM 4.51 40.118 0.087 17.76 3.07 12.68
2/21/2023 8:45:00 AM 4.53 40.154 0.087 17.76 3.1 12.94
2/21/2023 9:00:00 AM 4.56 40.208 0.086 17.76 3.08 13.14
2/21/2023 9:15:00 AM 4.62 40.316 0.086 17.76 3.06 13.4
2/21/2023 9:30:00 AM 4.68 40.424 0.086 17.76 3.11 13.68
2/21/2023 9:45:00 AM 4.79 40.622 0.086 17.75 3.18 14.06
2/21/2023 10:00:00 AM 4.83 40.694 0.085 17.75 3.11 14.29
2/21/2023 10:15:00 AM 5.02 41.036 0.085 17.75 3.09 14.56
2/21/2023 10:30:00 AM 5.11 41.198 0.085 17.74 3.06 14.74
2/21/2023 10:45:00 AM 5.09 41.162 0.085 17.74 3.26 14.59
2/21/2023 11:00:00 AM 5.1 41.18 0.084 17.74 3.14 14.48
2/21/2023 11:15:00 AM 5.21 41.378 0.084 17.74 3.15 14.49
2/21/2023 11:30:00 AM 5.31 41.558 0.084 17.73 3.27 14.67
2/21/2023 11:45:00 AM 5.46 41.828 0.084 17.73 3.26 14.83
2/21/2023 12:00:00 PM 5.55 41.99 0.084 17.72 3.27 14.89
2/21/2023 12:15:00 PM 5.58 42.044 0.084 17.72 3.15 14.84
2/21/2023 12:30:00 PM 5.66 42.188 0.084 17.72 3.18 14.82
2/21/2023 12:45:00 PM 5.8 42.44 0.083 17.71 3.34 14.9
2/21/2023 1:00:00 PM 6 42.8 0.083 17.71 3.31 14.97
2/21/2023 1:15:00 PM 6.16 43.088 0.083 17.7 3.4 15
2/21/2023 1:30:00 PM 6.22 43.196 0.084 17.7 3.44 15.02
2/21/2023 1:45:00 PM 6.16 43.088 0.084 17.7 3.31 14.79
2/21/2023 2:00:00 PM 6.28 43.304 0.084 17.7 3.38 14.6
2/21/2023 2:15:00 PM 6.56 43.808 0.084 17.69 3.4 14.79
2/21/2023 2:30:00 PM 6.66 43.988 0.084 17.68 3.39 14.91
2/21/2023 2:45:00 PM 6.75 44.15 0.084 17.68 3.32 14.88
2/21/2023 3:00:00 PM 6.92 44.456 0.084 17.67 3.32 14.85
2/21/2023 3:15:00 PM 6.99 44.582 0.084 17.67 3.33 14.77
2/21/2023 3:30:00 PM 7.04 44.672 0.084 17.67 3.35 14.66
2/21/2023 3:45:00 PM 7.07 44.726 0.084 17.67 3.42 14.6
2/21/2023 4:00:00 PM 7.13 44.834 0.084 17.66 3.33 14.62
2/21/2023 4:15:00 PM 7.13 44.834 0.084 17.66 3.46 14.55
2/21/2023 4:30:00 PM 7.08 44.744 0.083 17.67 3.33 14.41
2/21/2023 4:45:00 PM 7.02 44.636 0.084 17.67 3.48 14.23
2/21/2023 5:00:00 PM 6.95 44.51 0.084 17.67 3.32 13.99
2/21/2023 5:15:00 PM 6.88 44.384 0.083 17.67 3.34 13.79
2/21/2023 5:30:00 PM 6.83 44.294 0.083 17.68 3.27 13.57
2/21/2023 5:45:00 PM 6.77 44.186 0.083 17.68 3.33 13.33
2/21/2023 6:00:00 PM 6.7 44.06 0.083 17.68 3.36 13.09
2/21/2023 6:15:00 PM 6.62 43.916 0.083 17.68 3.59 12.84
2/21/2023 6:30:00 PM 6.52 43.736 0.083 17.69 3.3 12.65
2/21/2023 6:45:00 PM 6.41 43.538 0.083 17.69 3.51 12.46
2/21/2023 7:00:00 PM 6.3 43.34 0.084 17.7 3.36 12.28
2/21/2023 7:15:00 PM 6.21 43.178 0.084 17.7 3.46 12.16
2/21/2023 7:30:00 PM 6.1 42.98 0.084 17.7 3.29 12.06
2/21/2023 7:45:00 PM 5.99 42.782 0.085 17.71 3.42 11.97
2/21/2023 8:00:00 PM 5.88 42.584 0.086 17.71 3.25 11.89
2/21/2023 8:15:00 PM 5.78 42.404 0.086 17.72 3.36 11.83
2/21/2023 8:30:00 PM 5.68 42.224 0.087 17.72 3.35 11.76
2/21/2023 8:45:00 PM 5.58 42.044 0.088 17.72 3.28 11.72
2/21/2023 9:00:00 PM 5.5 41.9 0.089 17.73 3.3 11.67
2/21/2023 9:15:00 PM 5.43 41.774 0.09 17.73 3.58 11.66
2/21/2023 9:30:00 PM 5.35 41.63 0.09 17.73 3.37 11.67
2/21/2023 9:45:00 PM 5.28 41.504 0.091 17.73 3.38 11.68
2/21/2023 10:00:00 PM 5.22 41.396 0.092 17.74 3.34 11.71
2/21/2023 10:15:00 PM 5.16 41.288 0.092 17.74 3.32 11.73
2/21/2023 10:30:00 PM 5.09 41.162 0.092 17.74 3.35 11.74
2/21/2023 10:45:00 PM 5.01 41.018 0.092 17.75 3.35 11.76
2/21/2023 11:00:00 PM 4.94 40.892 0.093 17.75 3.2 11.77
2/21/2023 11:15:00 PM 4.86 40.748 0.093 17.75 3.36 11.79
2/21/2023 11:30:00 PM 4.78 40.604 0.093 17.75 3.38 11.81
2/21/2023 11:45:00 PM 4.69 40.442 0.094 17.76 3.27 11.83
2/22/2023 12:00:00 AM 4.6 40.28 0.094 17.76 3.33 11.86
2/22/2023 12:15:00 AM 4.53 40.154 0.094 17.76 3.33 11.91
2/22/2023 12:30:00 AM 4.45 40.01 0.095 17.77 3.25 11.95
2/22/2023 12:45:00 AM 4.37 39.866 0.095 17.77 3.37 12
2/22/2023 1:00:00 AM 4.28 39.704 0.095 17.77 3.41 12.02
2/22/2023 1:15:00 AM 4.2 39.56 0.095 17.78 3.22 12.06
2/22/2023 1:30:00 AM 4.11 39.398 0.095 17.78 3.21 12.09
2/22/2023 1:45:00 AM 4.02 39.236 0.094 17.78 3.33 12.11
2/22/2023 2:00:00 AM 3.95 39.11 0.094 17.79 3.24 12.13
2/22/2023 2:15:00 AM 3.86 38.948 0.094 17.79 3.22 12.15
2/22/2023 2:30:00 AM 3.78 38.804 0.094 17.79 3.2 12.19
2/22/2023 2:45:00 AM 3.7 38.66 0.094 17.8 3.28 12.23
2/22/2023 3:00:00 AM 3.62 38.516 0.093 17.8 3.35 12.28
2/22/2023 3:15:00 AM 3.54 38.372 0.093 17.8 3.28 12.32
2/22/2023 3:30:00 AM 3.46 38.228 0.093 17.81 3.24 12.36
2/22/2023 3:45:00 AM 3.38 38.084 0.093 17.81 3.29 12.41
2/22/2023 4:00:00 AM 3.31 37.958 0.093 17.81 3.33 12.43
2/22/2023 4:15:00 AM 3.24 37.832 0.093 17.81 3.25 12.46
2/22/2023 4:30:00 AM 3.17 37.706 0.093 17.82 3.15 12.47
2/22/2023 4:45:00 AM 3.1 37.58 0.093 17.82 3.15 12.49
2/22/2023 5:00:00 AM 3.04 37.472 0.092 17.82 3.07 12.51
2/22/2023 5:15:00 AM 2.99 37.382 0.092 17.82 3.27 12.52
2/22/2023 5:30:00 AM 2.93 37.274 0.092 17.83 3.53 12.56
2/22/2023 5:45:00 AM 2.88 37.184 0.092 17.83 3.27 12.58
2/22/2023 6:00:00 AM 2.85 37.13 0.092 17.83 3.23 12.6
2/22/2023 6:15:00 AM 2.81 37.058 0.092 17.83 3.17 12.64
2/22/2023 6:30:00 AM 2.77 36.986 0.092 17.83 3.32 12.68
2/22/2023 6:45:00 AM 2.73 36.914 0.092 17.83 3.15 12.72
2/22/2023 7:00:00 AM 2.69 36.842 0.092 17.84 3.91 12.77
2/22/2023 7:15:00 AM 2.66 36.788 0.092 17.84 3.33 12.82
2/22/2023 7:30:00 AM 2.64 36.752 0.092 17.84 3.31 12.93
2/22/2023 7:45:00 AM 2.63 36.734 0.091 17.84 3.26 13.13
2/22/2023 8:00:00 AM 2.63 36.734 0.091 17.84 3.4 13.32
2/22/2023 8:15:00 AM 2.62 36.716 0.091 17.84 3.27 13.53
2/22/2023 8:30:00 AM 2.61 36.698 0.091 17.84 3.16 13.62
2/22/2023 8:45:00 AM 2.6 36.68 0.091 17.84 3.32 13.65
2/22/2023 9:00:00 AM 2.6 36.68 0.091 17.84 3.31 13.71
2/22/2023 9:15:00 AM 2.6 36.68 0.091 17.84 3.09 13.79
2/22/2023 9:30:00 AM 2.59 36.662 0.091 17.84 3.19 13.93
2/22/2023 9:45:00 AM 2.56 36.608 0.09 17.84 3.32 14.08
2/22/2023 10:00:00 AM 2.57 36.626 0.09 17.84 3.2 14.24
2/22/2023 10:15:00 AM 2.58 36.644 0.09 17.84 3.15 14.37
2/22/2023 10:30:00 AM 2.57 36.626 0.09 17.84 3.15 14.48
2/22/2023 10:45:00 AM 2.5 36.5 0.09 17.84 3.17 14.52
2/22/2023 11:00:00 AM 2.3 36.14 0.089 17.85 3.26 14.53
2/22/2023 11:15:00 AM 2.14 35.852 0.09 17.86 3.19 14.56
2/22/2023 11:30:00 AM 1.82 35.276 0.089 17.87 3.47 14.65
2/22/2023 11:45:00 AM 1.58 34.844 0.088 17.88 3.35 14.73
2/22/2023 12:00:00 PM 1.49 34.682 0.088 17.88 3.38 14.81
2/22/2023 12:15:00 PM 1.6 34.88 0.088 17.88 3.45 14.95
2/22/2023 12:30:00 PM 1.69 35.042 0.087 17.88 3.57 15
2/22/2023 12:45:00 PM 1.71 35.078 0.087 17.87 3.34 15.04
2/22/2023 1:00:00 PM 1.69 35.042 0.087 17.88 3.64 15.06
2/22/2023 1:15:00 PM 1.65 34.97 0.087 17.88 3.5 15.15
2/22/2023 1:30:00 PM 1.61 34.898 0.087 17.88 3.57 15.25
2/22/2023 1:45:00 PM 1.56 34.808 0.087 17.88 3.6 15.23
2/22/2023 2:00:00 PM 1.56 34.808 0.087 17.88 3.71 15.25
2/22/2023 2:15:00 PM 1.57 34.826 0.087 17.88 3.7 15.32
2/22/2023 2:30:00 PM 1.6 34.88 0.087 17.88 4.03 15.41
2/22/2023 2:45:00 PM 1.65 34.97 0.087 17.88 3.78 15.5
2/22/2023 3:00:00 PM 1.71 35.078 0.088 17.87 4.12 15.54
2/22/2023 3:15:00 PM 1.77 35.186 0.087 17.87 4.13 15.58
2/22/2023 3:30:00 PM 1.82 35.276 0.088 17.87 4.27 15.52
2/22/2023 3:45:00 PM 1.84 35.312 0.089 17.87 4.66 15.45
2/22/2023 4:00:00 PM 1.87 35.366 0.09 17.87 4.47 15.35
2/22/2023 4:15:00 PM 1.89 35.402 0.091 17.87 4.8 15.26
2/22/2023 4:30:00 PM 1.9 35.42 0.092 17.87 4.91 15.16
2/22/2023 4:45:00 PM 1.92 35.456 0.093 17.87 5.11 15
2/22/2023 5:00:00 PM 1.92 35.456 0.095 17.87 5.26 14.85
2/22/2023 5:15:00 PM 1.95 35.51 0.095 17.87 5.28 14.71
2/22/2023 5:30:00 PM 1.97 35.546 0.096 17.86 5.33 14.54
2/22/2023 5:45:00 PM 1.99 35.582 0.096 17.86 5.88 14.38
2/22/2023 6:00:00 PM 2.01 35.618 0.098 17.86 6.45 14.21
2/22/2023 6:15:00 PM 2.03 35.654 0.098 17.86 6.18 14.05
2/22/2023 6:30:00 PM 2.05 35.69 0.104 17.86 6.52 13.91
2/22/2023 6:45:00 PM 2.06 35.708 0.118 17.86 6.46 13.79
2/22/2023 7:00:00 PM 2.08 35.744 0.136 17.86 5.93 13.67
2/22/2023 7:15:00 PM 2.09 35.762 0.149 17.86 6.06 13.57
2/22/2023 7:30:00 PM 2.09 35.762 0.166 17.86 6.22 13.49
2/22/2023 7:45:00 PM 2.1 35.78 0.166 17.86 6.35 13.42
2/22/2023 8:00:00 PM 2.1 35.78 0.151 17.86 5.73 13.37
2/22/2023 8:15:00 PM 2.1 35.78 0.143 17.86 6.03 13.32
2/22/2023 8:30:00 PM 2.1 35.78 0.136 17.86 5.8 13.29
2/22/2023 8:45:00 PM 2.1 35.78 0.129 17.86 6.18 13.25
2/22/2023 9:00:00 PM 2.11 35.798 0.126 17.86 6.13 13.22
2/22/2023 9:15:00 PM 2.11 35.798 0.122 17.86 5.58 13.21
2/22/2023 9:30:00 PM 2.12 35.816 0.12 17.86 5.95 13.17
2/22/2023 9:45:00 PM 2.13 35.834 0.12 17.86 6.39 13.15
2/22/2023 10:00:00 PM 2.14 35.852 0.118 17.86 7.73 13.12
2/22/2023 10:15:00 PM 2.16 35.888 0.12 17.86 9.82 13.13
2/22/2023 10:30:00 PM 2.17 35.906 0.12 17.86 10.45 13.09
2/22/2023 10:45:00 PM 2.19 35.942 0.118 17.86 12.87 13.1
2/22/2023 11:00:00 PM 2.2 35.96 0.121 17.85 14.16 13.06
2/22/2023 11:15:00 PM 2.22 35.996 0.121 17.85 16.72 13.03
2/22/2023 11:30:00 PM 2.23 36.014 0.121 17.85 14.62 12.98
2/22/2023 11:45:00 PM 2.25 36.05 0.12 17.85 13.89 13.04
2/23/2023 12:00:00 AM 2.26 36.068 0.119 17.85 12.24 13.03
2/23/2023 12:15:00 AM 2.27 36.086 0.119 17.85 11.26 13.03
2/23/2023 12:30:00 AM 2.28 36.104 0.12 17.85 11.25 12.98
2/23/2023 12:45:00 AM 2.29 36.122 0.119 17.85 9.73 12.92
2/23/2023 1:00:00 AM 2.3 36.14 0.117 17.85 8.67 12.98
2/23/2023 1:15:00 AM 2.3 36.14 0.118 17.85 8.24 12.98
2/23/2023 1:30:00 AM 2.31 36.158 0.118 17.85 9.25 12.96
2/23/2023 1:45:00 AM 2.32 36.176 0.117 17.85 8.29 13
2/23/2023 2:00:00 AM 2.33 36.194 0.117 17.85 9.9 12.97
2/23/2023 2:15:00 AM 2.34 36.212 0.117 17.85 7.66 12.94
2/23/2023 2:30:00 AM 2.34 36.212 0.118 17.85 7.26 12.94
2/23/2023 2:45:00 AM 2.34 36.212 0.117 17.85 7.41 12.95
2/23/2023 3:00:00 AM 2.35 36.23 0.117 17.85 7.52 12.95
2/23/2023 3:15:00 AM 2.36 36.248 0.117 17.85 7.39 12.95
2/23/2023 3:30:00 AM 2.37 36.266 0.117 17.85 7.48 12.94
2/23/2023 3:45:00 AM 2.38 36.284 0.118 17.85 7.49 12.93
2/23/2023 4:00:00 AM 2.39 36.302 0.116 17.85 7.59 12.95
2/23/2023 4:15:00 AM 2.4 36.32 0.116 17.85 7.4 12.92
2/23/2023 4:30:00 AM 2.41 36.338 0.117 17.85 9.32 12.84
2/23/2023 4:45:00 AM 2.42 36.356 0.117 17.85 8.69 12.85
2/23/2023 5:00:00 AM 2.43 36.374 0.117 17.85 8.21 12.85
2/23/2023 5:15:00 AM 2.44 36.392 0.116 17.85 8.3 12.88
2/23/2023 5:30:00 AM 2.46 36.428 0.117 17.84 7.89 12.85
2/23/2023 5:45:00 AM 2.47 36.446 0.118 17.84 8.44 12.84
2/23/2023 6:00:00 AM 2.48 36.464 0.119 17.84 9.24 12.87
2/23/2023 6:15:00 AM 2.48 36.464 0.119 17.84 8.15 12.86
2/23/2023 6:30:00 AM 2.48 36.464 0.121 17.84 8.65 12.91
2/23/2023 6:45:00 AM 2.47 36.446 0.122 17.84 8.05 12.87
2/23/2023 7:00:00 AM 2.46 36.428 0.123 17.84 8.72 12.87
2/23/2023 7:15:00 AM 2.45 36.41 0.123 17.85 7.86 12.96
2/23/2023 7:30:00 AM 2.46 36.428 0.124 17.84 8.46 13.08
2/23/2023 7:45:00 AM 2.48 36.464 0.124 17.84 8.29 13.2
2/23/2023 8:00:00 AM 2.51 36.518 0.125 17.84 8.33 13.36
2/23/2023 8:15:00 AM 2.54 36.572 0.125 17.84 7.94 13.51
2/23/2023 8:30:00 AM 2.58 36.644 0.125 17.84 8.3 13.73
2/23/2023 8:45:00 AM 2.64 36.752 0.124 17.84 8.53 13.96
2/23/2023 9:00:00 AM 2.71 36.878 0.124 17.83 8.24 14.17
2/23/2023 9:15:00 AM 2.78 37.004 0.125 17.83 7.83 14.34
2/23/2023 9:30:00 AM 2.82 37.076 0.124 17.83 8.29 14.48
2/23/2023 9:45:00 AM 2.88 37.184 0.123 17.83 8.06 14.56
2/23/2023 10:00:00 AM 3 37.4 0.122 17.82 8.3 14.73
2/23/2023 10:15:00 AM 3.11 37.598 0.123 17.82 8.6 14.84
2/23/2023 10:30:00 AM 3.21 37.778 0.122 17.82 8.68 14.9
2/23/2023 10:45:00 AM 3.34 38.012 0.121 17.81 8.3 15.03
2/23/2023 11:00:00 AM 3.53 38.354 0.121 17.8 8.68 15.22
2/23/2023 11:15:00 AM 3.79 38.822 0.121 17.79 8.93 15.22
2/23/2023 11:30:00 AM 3.96 39.128 0.12 17.79 8.95 15.35
2/23/2023 11:45:00 AM 4.14 39.452 0.121 17.78 9.68 15.33
2/23/2023 12:00:00 PM 4.41 39.938 0.121 17.77 9.02 15.38
2/23/2023 12:15:00 PM 4.7 40.46 0.12 17.76 9.26 15.36
2/23/2023 12:30:00 PM 4.98 40.964 0.12 17.75 8.75 15.36
2/23/2023 12:45:00 PM 5.26 41.468 0.119 17.74 9.31 15.4
2/23/2023 1:00:00 PM 5.57 42.026 0.119 17.72 9.21 15.34
2/23/2023 1:15:00 PM 5.82 42.476 0.118 17.71 9.06 15.33
2/23/2023 1:30:00 PM 6.03 42.854 0.119 17.71 9.16 15.24
2/23/2023 1:45:00 PM 6.14 43.052 0.117 17.7 8.9 15.17
2/23/2023 2:00:00 PM 6.4 43.52 0.118 17.69 8.91 15.07
2/23/2023 2:15:00 PM 6.66 43.988 0.118 17.68 9.16 14.99
2/23/2023 2:30:00 PM 6.85 44.33 0.117 17.67 8.84 14.97
2/23/2023 2:45:00 PM 7.04 44.672 0.117 17.67 9.45 14.83
2/23/2023 3:00:00 PM 7.19 44.942 0.117 17.66 9.28 14.75
2/23/2023 3:15:00 PM 7.29 45.122 0.117 17.66 9.24 14.66
2/23/2023 3:30:00 PM 7.43 45.374 0.117 17.65 9.15 14.54
2/23/2023 3:45:00 PM 7.47 45.446 0.117 17.65 9.14 14.44
2/23/2023 4:00:00 PM 7.52 45.536 0.117 17.65 9.25 14.26
2/23/2023 4:15:00 PM 7.55 45.59 0.117 17.65 9.22 14.09
2/23/2023 4:30:00 PM 7.6 45.68 0.117 17.65 8.76 13.9
2/23/2023 4:45:00 PM 7.6 45.68 0.118 17.65 9.35 13.7
2/23/2023 5:00:00 PM 7.58 45.644 0.118 17.65 11.97 13.45
2/23/2023 5:15:00 PM 7.49 45.482 0.117 17.65 9.4 13.26
2/23/2023 5:30:00 PM 7.46 45.428 0.117 17.65 8.54 13.01
2/23/2023 5:45:00 PM 7.4 45.32 0.117 17.65 9.75 12.8
2/23/2023 6:00:00 PM 7.35 45.23 0.117 17.66 8.56 12.54
2/23/2023 6:15:00 PM 7.3 45.14 0.117 17.66 8.19 12.34
2/23/2023 6:30:00 PM 7.24 45.032 0.116 17.66 9.82 12.16
2/23/2023 6:45:00 PM 7.18 44.924 0.117 17.66 9.2 11.96
2/23/2023 7:00:00 PM 7.1 44.78 0.117 17.67 11.06 11.8
2/23/2023 7:15:00 PM 7.04 44.672 0.117 17.67 7.63 11.68
2/23/2023 7:30:00 PM 6.96 44.528 0.117 17.67 7.57 11.58
2/23/2023 7:45:00 PM 6.9 44.42 0.118 17.67 7.25 11.48
2/23/2023 8:00:00 PM 6.83 44.294 0.116 17.68 7.25 11.46
2/23/2023 8:15:00 PM 6.77 44.186 0.115 17.68 7.19 11.43
2/23/2023 8:30:00 PM 6.75 44.15 0.116 17.68 7.2 11.38
2/23/2023 8:45:00 PM 6.73 44.114 0.117 17.68 6.92 11.36
2/23/2023 9:00:00 PM 6.73 44.114 0.116 17.67 6.92 11.33
2/23/2023 9:15:00 PM 6.72 44.096 0.116 17.66 6.56 11.33
2/23/2023 9:30:00 PM 6.7 44.06 0.116 17.65 6.92 11.3
2/23/2023 9:45:00 PM 6.68 44.024 0.116 17.64 6.49 11.3
2/23/2023 10:00:00 PM 6.67 44.006 0.116 17.63 6.4 11.3
2/23/2023 10:15:00 PM 6.66 43.988 0.116 17.63 6.26 11.29
2/23/2023 10:30:00 PM 6.68 44.024 0.116 17.61 6.4 11.27
2/23/2023 10:45:00 PM 6.7 44.06 0.115 17.6 6.3 11.29
2/23/2023 11:00:00 PM 6.71 44.078 0.116 17.59 6.73 11.29
2/23/2023 11:15:00 PM 6.7 44.06 0.116 17.59 6.67 11.26
2/23/2023 11:30:00 PM 6.7 44.06 0.115 17.57 6.19 11.27
2/23/2023 11:45:00 PM 6.7 44.06 0.115 17.57 6.07 11.29
2/24/2023 12:00:00 AM 6.69 44.042 0.115 17.55 6.46 11.27
2/24/2023 12:15:00 AM 6.69 44.042 0.115 17.54 6.01 11.26
2/24/2023 12:30:00 AM 6.69 44.042 0.115 17.53 5.82 11.27
2/24/2023 12:45:00 AM 6.68 44.024 0.115 17.52 5.94 11.26
2/24/2023 1:00:00 AM 6.66 43.988 0.115 17.51 5.88 11.28
2/24/2023 1:15:00 AM 6.62 43.916 0.114 17.52 5.66 11.3
2/24/2023 1:30:00 AM 6.58 43.844 0.113 17.51 5.65 11.31
2/24/2023 1:45:00 AM 6.54 43.772 0.114 17.5 5.71 11.32
2/24/2023 2:00:00 AM 6.48 43.664 0.113 17.5 5.79 11.3
2/24/2023 2:15:00 AM 6.42 43.556 0.114 17.49 5.73 11.31
2/24/2023 2:30:00 AM 6.36 43.448 0.113 17.5 5.67 11.35
2/24/2023 2:45:00 AM 6.31 43.358 0.112 17.5 5.44 11.34
2/24/2023 3:00:00 AM 6.25 43.25 0.113 17.5 5.69 11.35
2/24/2023 3:15:00 AM 6.17 43.106 0.112 17.5 5.5 11.41
2/24/2023 3:30:00 AM 6.13 43.034 0.111 17.5 5.92 11.43
2/24/2023 3:45:00 AM 6.06 42.908 0.112 17.5 5.51 11.43
2/24/2023 4:00:00 AM 5.99 42.782 0.112 17.5 5.42 11.49
2/24/2023 4:15:00 AM 5.93 42.674 0.112 17.51 5.38 11.53
2/24/2023 4:30:00 AM 5.88 42.584 0.112 17.5 5.36 11.54
2/24/2023 4:45:00 AM 5.84 42.512 0.112 17.5 5.38 11.54
2/24/2023 5:00:00 AM 5.77 42.386 0.112 17.51 5.24 11.59
2/24/2023 5:15:00 AM 5.71 42.278 0.111 17.5 5.22 11.59
2/24/2023 5:30:00 AM 5.66 42.188 0.111 17.51 5.22 11.63
2/24/2023 5:45:00 AM 5.59 42.062 0.112 17.5 5.43 11.61
2/24/2023 6:00:00 AM 5.54 41.972 0.112 17.51 5.38 11.64
2/24/2023 6:15:00 AM 5.46 41.828 0.112 17.51 5.24 11.65
2/24/2023 6:30:00 AM 5.39 41.702 0.111 17.52 5.24 11.73
2/24/2023 6:45:00 AM 5.32 41.576 0.111 17.52 5.8 11.76
2/24/2023 7:00:00 AM 5.27 41.486 0.112 17.51 5.21 11.78
2/24/2023 7:15:00 AM 5.2 41.36 0.112 17.52 5.13 11.88
2/24/2023 7:30:00 AM 5.13 41.234 0.112 17.52 5.1 11.93
2/24/2023 7:45:00 AM 5.08 41.144 0.111 17.53 4.95 12.04
2/24/2023 8:00:00 AM 5.02 41.036 0.112 17.53 5.29 12.08
2/24/2023 8:15:00 AM 4.95 40.91 0.111 17.54 4.96 12.18
2/24/2023 8:30:00 AM 4.91 40.838 0.111 17.55 4.97 12.42
2/24/2023 8:45:00 AM 4.86 40.748 0.111 17.57 5.01 12.72
2/24/2023 9:00:00 AM 4.82 40.676 0.111 17.58 4.96 12.93
2/24/2023 9:15:00 AM 4.8 40.64 0.11 17.59 5.3 13.24
2/24/2023 9:30:00 AM 4.77 40.586 0.11 17.62 4.86 13.46
2/24/2023 9:45:00 AM 4.76 40.568 0.11 17.64 4.8 13.67
2/24/2023 10:00:00 AM 4.79 40.622 0.11 17.67 4.8 13.97
2/24/2023 10:15:00 AM 4.77 40.586 0.109 17.7 4.85 14.21
2/24/2023 10:30:00 AM 4.75 40.55 0.11 17.73 4.74 14.39
2/24/2023 10:45:00 AM 4.78 40.604 0.109 17.75 4.86 14.59
2/24/2023 11:00:00 AM 4.86 40.748 0.108 17.75 4.73 14.78
2/24/2023 11:15:00 AM 4.94 40.892 0.108 17.75 4.76 14.8
2/24/2023 11:30:00 AM 4.91 40.838 0.108 17.75 4.72 14.92
2/24/2023 11:45:00 AM 5 41 0.107 17.75 4.71 14.98
2/24/2023 12:00:00 PM 5.15 41.27 0.107 17.74 4.59 15.17
2/24/2023 12:15:00 PM 5.27 41.486 0.107 17.74 4.72 15.16
2/24/2023 12:30:00 PM 5.4 41.72 0.107 17.73 4.81 15.2
2/24/2023 12:45:00 PM 5.64 42.152 0.106 17.72 5.33 15.24
2/24/2023 1:00:00 PM 5.85 42.53 0.106 17.71 5.25 15.32
2/24/2023 1:15:00 PM 5.99 42.782 0.105 17.71 4.89 15.37
2/24/2023 1:30:00 PM 6.17 43.106 0.105 17.7 6.13 15.17
2/24/2023 1:45:00 PM 6.35 43.43 0.105 17.69 7.08 15.38
2/24/2023 2:00:00 PM 6.5 43.7 0.105 17.69 5.15 15.35
2/24/2023 2:15:00 PM 6.62 43.916 0.105 17.68 4.93 15.32
2/24/2023 2:30:00 PM 6.73 44.114 0.104 17.68 5.01 15.35
2/24/2023 2:45:00 PM 6.81 44.258 0.104 17.68 4.43 15.29
2/24/2023 3:00:00 PM 6.83 44.294 0.104 17.68 4.53 15.22
2/24/2023 3:15:00 PM 6.82 44.276 0.105 17.68 4.45 15.13
2/24/2023 3:30:00 PM 6.78 44.204 0.104 17.68 4.46 15.09
2/24/2023 3:45:00 PM 6.69 44.042 0.104 17.68 4.49 15.04
2/24/2023 4:00:00 PM 6.63 43.934 0.104 17.68 4.54 14.95
2/24/2023 4:15:00 PM 6.53 43.754 0.104 17.69 4.36 14.84
2/24/2023 4:30:00 PM 6.41 43.538 0.104 17.69 4.4 14.67
2/24/2023 4:45:00 PM 6.32 43.376 0.104 17.69 4.44 14.52
2/24/2023 5:00:00 PM 6.18 43.124 0.104 17.7 5 14.35
2/24/2023 5:15:00 PM 6.04 42.872 0.103 17.71 4.45 14.14
2/24/2023 5:30:00 PM 5.92 42.656 0.104 17.71 4.69 13.93
2/24/2023 5:45:00 PM 5.79 42.422 0.104 17.72 4.4 13.71
2/24/2023 6:00:00 PM 5.66 42.188 0.104 17.72 4.52 13.43
2/24/2023 6:15:00 PM 5.51 41.918 0.104 17.73 4.35 13.23
2/24/2023 6:30:00 PM 5.4 41.72 0.105 17.73 4.6 13.07
2/24/2023 6:45:00 PM 5.28 41.504 0.106 17.73 4.63 12.95
2/24/2023 7:00:00 PM 5.15 41.27 0.105 17.72 4.41 12.84
2/24/2023 7:15:00 PM 5.03 41.054 0.105 17.68 4.64 12.67
2/24/2023 7:30:00 PM 4.89 40.802 0.106 17.66 4.25 12.59
2/24/2023 7:45:00 PM 4.76 40.568 0.106 17.64 4.25 12.49
2/24/2023 8:00:00 PM 4.62 40.316 0.107 17.64 4.13 12.47
2/24/2023 8:15:00 PM 4.5 40.1 0.107 17.63 4.24 12.46
2/24/2023 8:30:00 PM 4.4 39.92 0.107 17.64 4.21 12.45
2/24/2023 8:45:00 PM 4.3 39.74 0.107 17.63 4.13 12.43
2/24/2023 9:00:00 PM 4.21 39.578 0.107 17.63 4.15 12.43
2/24/2023 9:15:00 PM 4.13 39.434 0.107 17.62 4.23 12.41
2/24/2023 9:30:00 PM 4.04 39.272 0.107 17.62 4.06 12.4
2/24/2023 9:45:00 PM 3.95 39.11 0.107 17.62 4.11 12.44
2/24/2023 10:00:00 PM 3.85 38.93 0.107 17.63 3.99 12.44
2/24/2023 10:15:00 PM 3.77 38.786 0.107 17.63 3.99 12.46
2/24/2023 10:30:00 PM 3.68 38.624 0.108 17.63 3.93 12.55
2/24/2023 10:45:00 PM 3.6 38.48 0.107 17.65 4 12.59
2/24/2023 11:00:00 PM 3.53 38.354 0.108 17.65 4 12.63
2/24/2023 11:15:00 PM 3.45 38.21 0.107 17.65 3.9 12.64
2/24/2023 11:30:00 PM 3.37 38.066 0.107 17.65 3.95 12.68
2/24/2023 11:45:00 PM 3.29 37.922 0.107 17.66 3.86 12.68
2/25/2023 12:00:00 AM 3.21 37.778 0.107 17.67 3.91 12.72
2/25/2023 12:15:00 AM 3.13 37.634 0.107 17.67 3.86 12.73
2/25/2023 12:30:00 AM 3.04 37.472 0.107 17.67 3.95 12.75
2/25/2023 12:45:00 AM 2.96 37.328 0.107 17.69 3.93 12.81
2/25/2023 1:00:00 AM 2.88 37.184 0.107 17.69 3.84 12.87
2/25/2023 1:15:00 AM 2.8 37.04 0.107 17.7 3.91 12.92
2/25/2023 1:30:00 AM 2.72 36.896 0.106 17.7 3.76 12.94
2/25/2023 1:45:00 AM 2.63 36.734 0.106 17.72 3.86 12.97
2/25/2023 2:00:00 AM 2.54 36.572 0.106 17.74 3.87 13.02
2/25/2023 2:15:00 AM 2.46 36.428 0.106 17.74 3.78 13.04
2/25/2023 2:30:00 AM 2.39 36.302 0.106 17.75 3.8 13.06
2/25/2023 2:45:00 AM 2.32 36.176 0.106 17.76 3.84 13.05
2/25/2023 3:00:00 AM 2.26 36.068 0.106 17.77 3.75 13.03
2/25/2023 3:15:00 AM 2.19 35.942 0.106 17.78 3.74 13.1
2/25/2023 3:30:00 AM 2.15 35.87 0.105 17.79 3.83 13.14
2/25/2023 3:45:00 AM 2.09 35.762 0.105 17.79 3.78 13.17
2/25/2023 4:00:00 AM 2.05 35.69 0.105 17.79 3.76 13.2
2/25/2023 4:15:00 AM 2 35.6 0.105 17.8 3.82 13.24
2/25/2023 4:30:00 AM 1.97 35.546 0.105 17.79 3.73 13.27
2/25/2023 4:45:00 AM 1.92 35.456 0.105 17.8 3.71 13.31
2/25/2023 5:00:00 AM 1.88 35.384 0.105 17.79 3.83 13.35
2/25/2023 5:15:00 AM 1.85 35.33 0.105 17.8 3.87 13.38
2/25/2023 5:30:00 AM 1.82 35.276 0.105 17.8 3.86 13.37
2/25/2023 5:45:00 AM 1.79 35.222 0.104 17.81 3.7 13.4
2/25/2023 6:00:00 AM 1.76 35.168 0.104 17.81 3.73 13.4
2/25/2023 6:15:00 AM 1.73 35.114 0.104 17.82 3.73 13.44
2/25/2023 6:30:00 AM 1.7 35.06 0.105 17.82 3.68 13.44
2/25/2023 6:45:00 AM 1.67 35.006 0.104 17.82 3.7 13.46
2/25/2023 7:00:00 AM 1.65 34.97 0.104 17.83 3.89 13.46
2/25/2023 7:15:00 AM 1.62 34.916 0.104 17.83 3.74 13.48
2/25/2023 7:30:00 AM 1.6 34.88 0.104 17.84 3.66 13.5
2/25/2023 7:45:00 AM 1.53 34.754 0.104 17.85 3.79 13.53
2/25/2023 8:00:00 AM 1.51 34.718 0.104 17.86 3.55 13.67
2/25/2023 8:15:00 AM 1.5 34.7 0.104 17.86 3.67 13.84
2/25/2023 8:30:00 AM 1.49 34.682 0.103 17.87 3.73 14.02
2/25/2023 8:45:00 AM 1.49 34.682 0.103 17.87 3.75 14.25
2/25/2023 9:00:00 AM 1.5 34.7 0.103 17.88 3.74 14.53
2/25/2023 9:15:00 AM 1.48 34.664 0.103 17.88 3.7 14.71
2/25/2023 9:30:00 AM 1.47 34.646 0.103 17.88 3.68 14.83
2/25/2023 9:45:00 AM 1.49 34.682 0.103 17.88 3.69 15.02
2/25/2023 10:00:00 AM 1.52 34.736 0.103 17.88 3.63 15.26
2/25/2023 10:15:00 AM 1.54 34.772 0.102 17.88 3.65 15.45
2/25/2023 10:30:00 AM 1.55 34.79 0.102 17.88 3.7 15.56
2/25/2023 10:45:00 AM 1.56 34.808 0.101 17.88 3.55 15.63
2/25/2023 11:00:00 AM 1.58 34.844 0.101 17.88 3.77 15.73
2/25/2023 11:15:00 AM 1.64 34.952 0.101 17.88 3.64 15.87
2/25/2023 11:30:00 AM 1.71 35.078 0.1 17.87 3.68 16.01
2/25/2023 11:45:00 AM 1.76 35.168 0.1 17.87 3.67 16.13
2/25/2023 12:00:00 PM 1.83 35.294 0.1 17.87 3.62 16.21
2/25/2023 12:15:00 PM 1.92 35.456 0.1 17.87 3.57 16.31
2/25/2023 12:30:00 PM 2.09 35.762 0.099 17.86 3.65 16.36
2/25/2023 12:45:00 PM 2.3 36.14 0.099 17.85 3.69 16.37
2/25/2023 1:00:00 PM 2.47 36.446 0.099 17.84 3.74 16.41
2/25/2023 1:15:00 PM 2.59 36.662 0.099 17.84 3.64 16.44
2/25/2023 1:30:00 PM 2.71 36.878 0.099 17.83 3.65 16.5
2/25/2023 1:45:00 PM 2.83 37.094 0.099 17.83 3.56 16.49
2/25/2023 2:00:00 PM 2.95 37.31 0.098 17.83 3.68 16.48
2/25/2023 2:15:00 PM 3.07 37.526 0.098 17.82 3.71 16.41
2/25/2023 2:30:00 PM 3.21 37.778 0.098 17.82 3.58 16.37
2/25/2023 2:45:00 PM 3.28 37.904 0.098 17.81 3.74 16.31
2/25/2023 3:00:00 PM 3.35 38.03 0.098 17.81 3.65 16.23
2/25/2023 3:15:00 PM 3.41 38.138 0.097 17.81 3.62 16.18
2/25/2023 3:30:00 PM 3.47 38.246 0.097 17.81 3.69 16.13
2/25/2023 3:45:00 PM 3.53 38.354 0.097 17.8 3.62 16.08
2/25/2023 4:00:00 PM 3.55 38.39 0.097 17.8 3.7 16.01
2/25/2023 4:15:00 PM 3.53 38.354 0.097 17.8 3.77 15.9
2/25/2023 4:30:00 PM 3.49 38.282 0.097 17.8 3.71 15.78
2/25/2023 4:45:00 PM 3.45 38.21 0.097 17.81 3.62 15.64
2/25/2023 5:00:00 PM 3.4 38.12 0.097 17.81 3.66 15.46
2/25/2023 5:15:00 PM 3.32 37.976 0.097 17.81 3.63 15.22
2/25/2023 5:30:00 PM 3.26 37.868 0.098 17.81 3.67 15.02
2/25/2023 5:45:00 PM 3.18 37.724 0.097 17.82 3.75 14.79
2/25/2023 6:00:00 PM 3.12 37.616 0.097 17.82 3.65 14.54
2/25/2023 6:15:00 PM 3.07 37.526 0.098 17.82 3.63 14.3
2/25/2023 6:30:00 PM 3.02 37.436 0.098 17.82 3.63 14.08
2/25/2023 6:45:00 PM 2.97 37.346 0.098 17.82 3.63 13.9
2/25/2023 7:00:00 PM 2.92 37.256 0.098 17.83 3.68 13.76
2/25/2023 7:15:00 PM 2.87 37.166 0.099 17.83 3.59 13.62
2/25/2023 7:30:00 PM 2.79 37.022 0.099 17.83 3.62 13.49
2/25/2023 7:45:00 PM 2.7 36.86 0.1 17.84 3.61 13.41
2/25/2023 8:00:00 PM 2.6 36.68 0.1 17.84 3.64 13.32
2/25/2023 8:15:00 PM 2.52 36.536 0.101 17.84 3.66 13.23
2/25/2023 8:30:00 PM 2.44 36.392 0.101 17.84 3.54 13.19
2/25/2023 8:45:00 PM 2.36 36.248 0.101 17.83 3.51 13.11
2/25/2023 9:00:00 PM 2.28 36.104 0.101 17.84 3.54 13.09
2/25/2023 9:15:00 PM 2.21 35.978 0.101 17.84 3.7 13.1
2/25/2023 9:30:00 PM 2.15 35.87 0.101 17.84 3.58 13.09
2/25/2023 9:45:00 PM 2.09 35.762 0.101 17.84 3.53 13.11
2/25/2023 10:00:00 PM 2.01 35.618 0.101 17.84 3.49 13.15
2/25/2023 10:15:00 PM 1.96 35.528 0.101 17.84 3.54 13.17
2/25/2023 10:30:00 PM 1.89 35.402 0.102 17.84 3.39 13.22
2/25/2023 10:45:00 PM 1.83 35.294 0.101 17.84 3.63 13.21
2/25/2023 11:00:00 PM 1.76 35.168 0.101 17.85 3.6 13.27
2/25/2023 11:15:00 PM 1.7 35.06 0.101 17.85 3.57 13.25
2/25/2023 11:30:00 PM 1.63 34.934 0.101 17.85 3.49 13.27
2/25/2023 11:45:00 PM 1.57 34.826 0.101 17.86 3.56 13.29
2/26/2023 12:00:00 AM 1.51 34.718 0.101 17.86 3.52 13.25
2/26/2023 12:15:00 AM 1.44 34.592 0.101 17.86 3.41 13.29
2/26/2023 12:30:00 AM 1.39 34.502 0.101 17.86 3.96 13.31
2/26/2023 12:45:00 AM 1.32 34.376 0.101 17.86 3.77 13.33
2/26/2023 1:00:00 AM 1.27 34.286 0.101 17.86 3.51 13.34
2/26/2023 1:15:00 AM 1.2 34.16 0.101 17.87 3.53 13.38
2/26/2023 1:30:00 AM 1.14 34.052 0.101 17.87 3.38 13.41
2/26/2023 1:45:00 AM 1.08 33.944 0.1 17.88 3.38 13.49
2/26/2023 2:00:00 AM 1.02 33.836 0.101 17.88 3.46 13.53
2/26/2023 2:15:00 AM 0.97 33.746 0.1 17.88 3.99 13.57
2/26/2023 2:30:00 AM 0.91 33.638 0.1 17.89 3.73 13.61
2/26/2023 2:45:00 AM 0.85 33.53 0.1 17.89 3.56 13.63
2/26/2023 3:00:00 AM 0.8 33.44 0.1 17.9 3.49 13.6
2/26/2023 3:15:00 AM 0.73 33.314 0.1 17.9 3.61 13.65
2/26/2023 3:30:00 AM 0.68 33.224 0.1 17.9 3.57 13.68
2/26/2023 3:45:00 AM 0.63 33.134 0.1 17.91 3.58 13.66
2/26/2023 4:00:00 AM 0.58 33.044 0.1 17.91 3.44 13.65
2/26/2023 4:15:00 AM 0.53 32.954 0.1 17.92 3.54 13.67
2/26/2023 4:30:00 AM 0.49 32.882 0.099 17.92 3.48 13.67
2/26/2023 4:45:00 AM 0.43 32.774 0.099 17.92 3.34 13.68
2/26/2023 5:00:00 AM 0.39 32.702 0.099 17.93 3.45 13.69
2/26/2023 5:15:00 AM 0.34 32.612 0.1 17.93 3.41 13.71
2/26/2023 5:30:00 AM 0.3 32.54 0.099 17.93 3.71 13.77
2/26/2023 5:45:00 AM 0.26 32.468 0.1 17.93 3.67 13.79
2/26/2023 6:00:00 AM 0.22 32.396 0.099 17.93 3.6 13.83
2/26/2023 6:15:00 AM 0.19 32.342 0.1 17.93 3.42 13.87
2/26/2023 6:30:00 AM 0.14 32.252 0.099 17.94 3.4 13.93
2/26/2023 6:45:00 AM 0.1 32.18 0.099 17.94 3.41 13.95
2/26/2023 7:00:00 AM 0.07 32.126 0.099 17.94 3.44 13.98
2/26/2023 7:15:00 AM 0.04 32.072 0.1 17.94 3.66 14.05
2/26/2023 7:30:00 AM 0.03 32.054 0.099 17.94 3.49 14.27
2/26/2023 7:45:00 AM 0.03 32.054 0.099 17.94 3.51 14.39
2/26/2023 8:00:00 AM 0.06 32.108 0.099 17.94 3.54 14.56
2/26/2023 8:15:00 AM 0.06 32.108 0.099 17.94 3.4 14.69
2/26/2023 8:30:00 AM 0.06 32.108 0.099 17.94 3.48 14.76
2/26/2023 8:45:00 AM 0.07 32.126 0.099 17.94 3.43 14.81
2/26/2023 9:00:00 AM 0.12 32.216 0.098 17.94 3.42 15.03
2/26/2023 9:15:00 AM 0.19 32.342 0.098 17.93 3.48 15.27
2/26/2023 9:30:00 AM 0.24 32.432 0.098 17.93 3.42 15.43
2/26/2023 9:45:00 AM 0.28 32.504 0.098 17.93 3.53 15.55
2/26/2023 10:00:00 AM 0.35 32.63 0.098 17.93 3.5 15.66
2/26/2023 10:15:00 AM 0.41 32.738 0.098 17.93 3.45 15.75
2/26/2023 10:30:00 AM 0.5 32.9 0.097 17.92 3.38 15.86
2/26/2023 10:45:00 AM 0.61 33.098 0.098 17.92 3.39 15.97
2/26/2023 11:00:00 AM 0.86 33.548 0.097 17.91 3.45 16.16
2/26/2023 11:15:00 AM 1.12 34.016 0.097 17.9 3.52 16.3
2/26/2023 11:30:00 AM 1.32 34.376 0.096 17.89 3.48 16.3
2/26/2023 11:45:00 AM 1.6 34.88 0.096 17.88 3.55 16.25
2/26/2023 12:00:00 PM 1.87 35.366 0.096 17.87 3.5 16.31
2/26/2023 12:15:00 PM 2.12 35.816 0.096 17.86 3.64 16.31
2/26/2023 12:30:00 PM 2.42 36.356 0.096 17.85 3.54 16.21
2/26/2023 12:45:00 PM 2.72 36.896 0.095 17.83 3.4 16.18
2/26/2023 1:00:00 PM 2.99 37.382 0.096 17.82 3.48 16.18
2/26/2023 1:15:00 PM 3.26 37.868 0.095 17.81 3.44 16.06
2/26/2023 1:30:00 PM 3.5 38.3 0.094 17.8 3.49 16.02
2/26/2023 1:45:00 PM 3.75 38.75 0.094 17.79 3.51 16
2/26/2023 2:00:00 PM 3.94 39.092 0.094 17.79 3.53 15.93
2/26/2023 2:15:00 PM 4.11 39.398 0.094 17.78 3.5 15.83
2/26/2023 2:30:00 PM 4.26 39.668 0.094 17.77 3.57 15.75
2/26/2023 2:45:00 PM 4.37 39.866 0.094 17.77 3.61 15.62
2/26/2023 3:00:00 PM 4.44 39.992 0.094 17.77 3.52 15.62
2/26/2023 3:15:00 PM 4.5 40.1 0.094 17.77 3.57 15.54
2/26/2023 3:30:00 PM 4.55 40.19 0.094 17.76 3.5 15.48
2/26/2023 3:45:00 PM 4.57 40.226 0.094 17.76 3.64 15.36
2/26/2023 4:00:00 PM 4.59 40.262 0.094 17.76 4.32 15.24
2/26/2023 4:15:00 PM 4.6 40.28 0.094 17.76 3.63 15.16
2/26/2023 4:30:00 PM 4.56 40.208 0.094 17.76 3.62 15
2/26/2023 4:45:00 PM 4.52 40.136 0.094 17.76 3.65 14.87
2/26/2023 5:00:00 PM 4.46 40.028 0.094 17.77 3.62 14.66
2/26/2023 5:15:00 PM 4.42 39.956 0.094 17.77 3.55 14.42
2/26/2023 5:30:00 PM 4.37 39.866 0.094 17.77 3.46 14.27
2/26/2023 5:45:00 PM 4.31 39.758 0.095 17.77 3.59 14.04
2/26/2023 6:00:00 PM 4.23 39.614 0.094 17.78 3.63 13.8
2/26/2023 6:15:00 PM 4.18 39.524 0.095 17.78 3.62 13.57
2/26/2023 6:30:00 PM 4.11 39.398 0.096 17.78 3.52 13.38
2/26/2023 6:45:00 PM 4.03 39.254 0.095 17.78 3.66 13.22
2/26/2023 7:00:00 PM 3.95 39.11 0.096 17.77 3.57 13.07
2/26/2023 7:15:00 PM 3.86 38.948 0.096 17.77 3.59 12.95
2/26/2023 7:30:00 PM 3.78 38.804 0.097 17.75 3.63 12.86
2/26/2023 7:45:00 PM 3.69 38.642 0.096 17.76 3.46 12.79
2/26/2023 8:00:00 PM 3.61 38.498 0.097 17.75 3.61 12.73
2/26/2023 8:15:00 PM 3.55 38.39 0.097 17.75 3.49 12.69
2/26/2023 8:30:00 PM 3.49 38.282 0.097 17.75 3.55 12.63
2/26/2023 8:45:00 PM 3.44 38.192 0.096 17.75 3.54 12.6
2/26/2023 9:00:00 PM 3.39 38.102 0.097 17.75 3.4 12.55
2/26/2023 9:15:00 PM 3.36 38.048 0.097 17.76 3.42 12.58
2/26/2023 9:30:00 PM 3.31 37.958 0.097 17.76 3.6 12.54
2/26/2023 9:45:00 PM 3.27 37.886 0.096 17.77 3.46 12.56
2/26/2023 10:00:00 PM 3.24 37.832 0.097 17.81 3.6 12.54
2/26/2023 10:15:00 PM 3.2 37.76 0.097 17.82 3.74 12.53
2/26/2023 10:30:00 PM 3.16 37.688 0.096 17.82 3.89 12.56
2/26/2023 10:45:00 PM 3.13 37.634 0.097 17.82 3.57 12.54
2/26/2023 11:00:00 PM 3.08 37.544 0.097 17.82 3.68 12.56
2/26/2023 11:15:00 PM 3.03 37.454 0.097 17.82 3.63 12.57
2/26/2023 11:30:00 PM 2.98 37.364 0.097 17.82 3.57 12.59
2/26/2023 11:45:00 PM 2.93 37.274 0.097 17.83 3.42 12.64
2/27/2023 12:00:00 AM 2.87 37.166 0.097 17.83 3.32 12.65
2/27/2023 12:15:00 AM 2.81 37.058 0.097 17.83 3.38 12.74
2/27/2023 12:30:00 AM 2.75 36.95 0.096 17.83 3.49 12.74
2/27/2023 12:45:00 AM 2.69 36.842 0.096 17.84 3.52 12.74
2/27/2023 1:00:00 AM 2.62 36.716 0.097 17.84 3.48 12.83
2/27/2023 1:15:00 AM 2.57 36.626 0.096 17.84 3.49 12.82
2/27/2023 1:30:00 AM 2.51 36.518 0.096 17.84 3.7 12.83
2/27/2023 1:45:00 AM 2.45 36.41 0.096 17.85 3.49 12.84
2/27/2023 2:00:00 AM 2.4 36.32 0.096 17.85 3.41 12.83
2/27/2023 2:15:00 AM 2.34 36.212 0.097 17.85 3.78 12.84
2/27/2023 2:30:00 AM 2.28 36.104 0.096 17.85 3.64 12.85
2/27/2023 2:45:00 AM 2.23 36.014 0.096 17.85 4.48 12.87
2/27/2023 3:00:00 AM 2.18 35.924 0.096 17.86 3.56 12.9
2/27/2023 3:15:00 AM 2.13 35.834 0.096 17.86 3.72 12.91
2/27/2023 3:30:00 AM 2.08 35.744 0.096 17.86 3.81 12.95
2/27/2023 3:45:00 AM 2.02 35.636 0.096 17.86 3.56 13.01
2/27/2023 4:00:00 AM 1.97 35.546 0.095 17.86 3.57 13.04
2/27/2023 4:15:00 AM 1.93 35.474 0.095 17.87 3.54 13.08
2/27/2023 4:30:00 AM 1.89 35.402 0.096 17.87 3.45 13.09
2/27/2023 4:45:00 AM 1.85 35.33 0.095 17.87 4.07 13.11
2/27/2023 5:00:00 AM 1.81 35.258 0.095 17.87 3.78 13.14
2/27/2023 5:15:00 AM 1.76 35.168 0.095 17.87 3.95 13.16
2/27/2023 5:30:00 AM 1.72 35.096 0.095 17.87 3.88 13.13
2/27/2023 5:45:00 AM 1.68 35.024 0.095 17.88 3.5 13.19
2/27/2023 6:00:00 AM 1.64 34.952 0.095 17.88 3.52 13.18
2/27/2023 6:15:00 AM 1.6 34.88 0.095 17.88 3.69 13.2
2/27/2023 6:30:00 AM 1.56 34.808 0.095 17.88 3.34 13.23
2/27/2023 6:45:00 AM 1.52 34.736 0.095 17.88 3.52 13.19
2/27/2023 7:00:00 AM 1.49 34.682 0.095 17.88 3.39 13.25
2/27/2023 7:15:00 AM 1.46 34.628 0.095 17.88 3.46 13.33
2/27/2023 7:30:00 AM 1.43 34.574 0.094 17.89 3.35 13.47
2/27/2023 7:45:00 AM 1.42 34.556 0.094 17.89 3.42 13.66
2/27/2023 8:00:00 AM 1.42 34.556 0.094 17.89 3.48 13.86
2/27/2023 8:15:00 AM 1.45 34.61 0.094 17.88 3.47 14.07
2/27/2023 8:30:00 AM 1.49 34.682 0.094 17.88 3.43 14.27
2/27/2023 8:45:00 AM 1.54 34.772 0.094 17.88 3.56 14.59
2/27/2023 9:00:00 AM 1.61 34.898 0.093 17.88 3.41 14.81
2/27/2023 9:15:00 AM 1.69 35.042 0.093 17.88 3.56 15.04
2/27/2023 9:30:00 AM 1.78 35.204 0.093 17.87 3.44 15.24
2/27/2023 9:45:00 AM 1.89 35.402 0.092 17.87 3.42 15.44
2/27/2023 10:00:00 AM 2.02 35.636 0.092 17.86 3.39 15.54
2/27/2023 10:15:00 AM 2.16 35.888 0.092 17.86 3.43 15.65
2/27/2023 10:30:00 AM 2.28 36.104 0.091 17.85 3.41 15.73
2/27/2023 10:45:00 AM 2.39 36.302 0.091 17.85 3.49 15.83
2/27/2023 11:00:00 AM 2.5 36.5 0.091 17.84 3.42 15.89
2/27/2023 11:15:00 AM 2.62 36.716 0.091 17.84 3.43 15.96
2/27/2023 11:30:00 AM 2.75 36.95 0.09 17.83 3.35 16.01
2/27/2023 11:45:00 AM 2.89 37.202 0.09 17.83 3.42 16.04
2/27/2023 12:00:00 PM 3.13 37.634 0.09 17.82 3.52 16
2/27/2023 12:15:00 PM 3.36 38.048 0.09 17.81 3.5 16
2/27/2023 12:30:00 PM 3.56 38.408 0.09 17.8 3.46 16.05
2/27/2023 12:45:00 PM 3.78 38.804 0.09 17.79 3.51 16.03
2/27/2023 1:00:00 PM 3.85 38.93 0.09 17.79 3.53 15.98
2/27/2023 1:15:00 PM 3.92 39.056 0.09 17.79 3.51 15.94
2/27/2023 1:30:00 PM 4 39.2 0.09 17.78 3.44 15.91
2/27/2023 1:45:00 PM 4.03 39.254 0.09 17.78 3.46 15.77
2/27/2023 2:00:00 PM 4.09 39.362 0.09 17.78 3.52 15.7
2/27/2023 2:15:00 PM 4.15 39.47 0.089 17.78 3.56 15.58
2/27/2023 2:30:00 PM 4.22 39.596 0.089 17.78 3.44 15.39
2/27/2023 2:45:00 PM 4.26 39.668 0.089 17.77 3.56 15.15
2/27/2023 3:00:00 PM 4.28 39.704 0.089 17.77 3.47 14.96
2/27/2023 3:15:00 PM 4.26 39.668 0.089 17.77 3.51 14.78
2/27/2023 3:30:00 PM 4.22 39.596 0.09 17.78 3.39 14.59
2/27/2023 3:45:00 PM 4.17 39.506 0.09 17.78 3.48 14.48
2/27/2023 4:00:00 PM 4.11 39.398 0.09 17.78 3.44 14.27
2/27/2023 4:15:00 PM 4.05 39.29 0.09 17.78 3.52 14.05
2/27/2023 4:30:00 PM 4 39.2 0.09 17.78 3.73 13.87
2/27/2023 4:45:00 PM 3.96 39.128 0.09 17.79 3.5 13.73
2/27/2023 5:00:00 PM 3.93 39.074 0.09 17.79 3.56 13.53
2/27/2023 5:15:00 PM 3.9 39.02 0.091 17.79 3.47 13.35
2/27/2023 5:30:00 PM 3.89 39.002 0.091 17.79 3.43 13.17
2/27/2023 5:45:00 PM 3.86 38.948 0.091 17.79 3.43 13.04
2/27/2023 6:00:00 PM 3.84 38.912 0.092 17.79 3.66 12.89
2/27/2023 6:15:00 PM 3.83 38.894 0.091 17.79 3.63 12.77
2/27/2023 6:30:00 PM 3.82 38.876 0.092 17.79 3.59 12.67
2/27/2023 6:45:00 PM 3.79 38.822 0.092 17.79 3.67 12.58
2/27/2023 7:00:00 PM 3.76 38.768 0.093 17.79 3.51 12.48
2/27/2023 7:15:00 PM 3.73 38.714 0.093 17.8 3.51 12.47
2/27/2023 7:30:00 PM 3.69 38.642 0.093 17.8 3.55 12.46
2/27/2023 7:45:00 PM 3.66 38.588 0.093 17.8 3.63 12.4
2/27/2023 8:00:00 PM 3.61 38.498 0.093 17.8 3.67 12.38
2/27/2023 8:15:00 PM 3.46 38.228 0.093 17.81 3.67 12.37
2/27/2023 8:30:00 PM 3.42 38.156 0.093 17.81 3.99 12.35
2/27/2023 8:45:00 PM 3.4 38.12 0.094 17.81 3.83 12.37
2/27/2023 9:00:00 PM 3.33 37.994 0.094 17.81 3.97 12.39
2/27/2023 9:15:00 PM 3.29 37.922 0.095 17.81 4.11 12.39
2/27/2023 9:30:00 PM 3.21 37.778 0.094 17.82 4.23 12.38
2/27/2023 9:45:00 PM 3.15 37.67 0.094 17.82 4.19 12.45
2/27/2023 10:00:00 PM 3.09 37.562 0.095 17.82 4.57 12.46
2/27/2023 10:15:00 PM 3.05 37.49 0.095 17.82 4.61 12.47
2/27/2023 10:30:00 PM 2.99 37.382 0.096 17.82 5.05 12.49
2/27/2023 10:45:00 PM 2.92 37.256 0.095 17.83 5.6 12.5
2/27/2023 11:00:00 PM 2.89 37.202 0.094 17.83 5.39 12.52
2/27/2023 11:15:00 PM 2.86 37.148 0.095 17.83 6.33 12.56
2/27/2023 11:30:00 PM 2.83 37.094 0.095 17.83 5.59 12.6
2/27/2023 11:45:00 PM 2.81 37.058 0.097 17.83 5.73 12.61
2/28/2023 12:00:00 AM 2.77 36.986 0.099 17.83 6.08 12.6
2/28/2023 12:15:00 AM 2.72 36.896 0.1 17.83 5.98 12.66
2/28/2023 12:30:00 AM 2.68 36.824 0.102 17.84 6.52 12.69
2/28/2023 12:45:00 AM 2.66 36.788 0.106 17.84 5.88 12.74
2/28/2023 1:00:00 AM 2.65 36.77 0.112 17.84 6.88 12.77
2/28/2023 1:15:00 AM 2.64 36.752 0.116 17.84 7.42 12.77
2/28/2023 1:30:00 AM 2.63 36.734 0.118 17.84 5.59 12.77
2/28/2023 1:45:00 AM 2.63 36.734 0.117 17.84 6.5 12.76
2/28/2023 2:00:00 AM 2.62 36.716 0.116 17.84 6.49 12.79
2/28/2023 2:15:00 AM 2.62 36.716 0.113 17.84 6.34 12.78
2/28/2023 2:30:00 AM 2.62 36.716 0.112 17.84 6.56 12.77
2/28/2023 2:45:00 AM 2.61 36.698 0.11 17.84 6.78 12.8
2/28/2023 3:00:00 AM 2.61 36.698 0.11 17.84 6.86 12.77
2/28/2023 3:15:00 AM 2.61 36.698 0.109 17.84 7.06 12.79
2/28/2023 3:30:00 AM 2.61 36.698 0.107 17.84 6.99 12.81
2/28/2023 3:45:00 AM 2.61 36.698 0.106 17.84 7.09 12.79
2/28/2023 4:00:00 AM 2.62 36.716 0.105 17.83 6.77 12.79
2/28/2023 4:15:00 AM 2.63 36.734 0.106 17.84 7.11 12.81
2/28/2023 4:30:00 AM 2.64 36.752 0.105 17.82 7.23 12.8
2/28/2023 4:45:00 AM 2.65 36.77 0.105 17.83 6.91 12.79
2/28/2023 5:00:00 AM 2.67 36.806 0.106 17.82 7.37 12.79
2/28/2023 5:15:00 AM 2.68 36.824 0.105 17.82 7.13 12.77
2/28/2023 5:30:00 AM 2.68 36.824 0.105 17.82 7.56 12.79
2/28/2023 5:45:00 AM 2.69 36.842 0.105 17.81 7.53 12.78
2/28/2023 6:00:00 AM 2.69 36.842 0.104 17.81 7.48 12.78
2/28/2023 6:15:00 AM 2.69 36.842 0.105 17.82 8.61 12.79
2/28/2023 6:30:00 AM 2.69 36.842 0.105 17.8 8.57 12.79
2/28/2023 6:45:00 AM 2.7 36.86 0.105 17.8 7.56 12.77
2/28/2023 7:00:00 AM 2.7 36.86 0.105 17.8 7.9 12.78
2/28/2023 7:15:00 AM 2.7 36.86 0.106 17.8 8.7 12.81
2/28/2023 7:30:00 AM 2.71 36.878 0.107 17.79 9.93 12.8
2/28/2023 7:45:00 AM 2.72 36.896 0.107 17.79 9.56 12.88
2/28/2023 8:00:00 AM 2.73 36.914 0.106 17.79 8.56 12.99
2/28/2023 8:15:00 AM 2.74 36.932 0.107 17.79 8.94 13.04
2/28/2023 8:30:00 AM 2.76 36.968 0.107 17.79 9.96 13.15
2/28/2023 8:45:00 AM 2.78 37.004 0.107 17.8 9.61 13.26
2/28/2023 9:00:00 AM 2.8 37.04 0.107 17.8 10.72 13.32
2/28/2023 9:15:00 AM 2.83 37.094 0.107 17.8 9.74 13.37
2/28/2023 9:30:00 AM 2.85 37.13 0.106 17.81 9.98 13.48
2/28/2023 9:45:00 AM 2.89 37.202 0.107 17.81 12.51 13.63
2/28/2023 10:00:00 AM 2.92 37.256 0.107 17.82 10.94 13.72
2/28/2023 10:15:00 AM 2.96 37.328 0.107 17.81 11.48 13.82
2/28/2023 10:30:00 AM 3.03 37.454 0.107 17.81 80.21 13.99
2/28/2023 10:45:00 AM 3.09 37.562 0.108 17.81 13.89 14.1
2/28/2023 11:00:00 AM 3.15 37.67 0.108 17.81 10.99 14.22
2/28/2023 11:15:00 AM 3.23 37.814 0.107 17.81 10.73 14.36
2/28/2023 11:30:00 AM 3.32 37.976 0.107 17.8 10.03 14.43
2/28/2023 11:45:00 AM 3.48 38.264 0.106 17.8 15.87 14.6
2/28/2023 12:00:00 PM 3.64 38.552 0.106 17.8 10.77 14.7
2/28/2023 12:15:00 PM 3.75 38.75 0.105 17.79 9.55 14.75
2/28/2023 12:30:00 PM 3.94 39.092 0.105 17.79 10.19 14.76
2/28/2023 12:45:00 PM 4.07 39.326 0.105 17.78 10.23 14.75
2/28/2023 1:00:00 PM 4.17 39.506 0.104 17.78 11.72 14.66
2/28/2023 1:15:00 PM 4.29 39.722 0.105 17.77 9.84 14.66
2/28/2023 1:30:00 PM 4.41 39.938 0.104 17.77 10.04 14.64
2/28/2023 1:45:00 PM 4.53 40.154 0.104 17.76 10.54 14.59
2/28/2023 2:00:00 PM 4.68 40.424 0.104 17.76 9.57 14.59
2/28/2023 2:15:00 PM 4.71 40.478 0.104 17.76 10.37 14.51
2/28/2023 2:30:00 PM 4.81 40.658 0.104 17.75 10.99 14.43
2/28/2023 2:45:00 PM 4.87 40.766 0.104 17.75 10.17 14.4
2/28/2023 3:00:00 PM 4.95 40.91 0.103 17.75 12.79 14.35
2/28/2023 3:15:00 PM 4.99 40.982 0.103 17.75 9.89 14.28
2/28/2023 3:30:00 PM 5.02 41.036 0.103 17.75 10.53 14.2
2/28/2023 3:45:00 PM 5.04 41.072 0.102 17.74 10.15 14.13
2/28/2023 4:00:00 PM 5.06 41.108 0.102 17.74 9.42 14.06
2/28/2023 4:15:00 PM 5.05 41.09 0.102 17.74 10.9 13.96
2/28/2023 4:30:00 PM 5.05 41.09 0.102 17.74 10.43 13.82
2/28/2023 4:45:00 PM 5.04 41.072 0.102 17.74 11.19 13.68
2/28/2023 5:00:00 PM 5.03 41.054 0.102 17.74 10.63 13.53
2/28/2023 5:15:00 PM 5.01 41.018 0.103 17.71 11.42 13.41
2/28/2023 5:30:00 PM 4.98 40.964 0.103 17.7 11.23 13.26
2/28/2023 5:45:00 PM 4.94 40.892 0.104 17.66 11.88 13.11
2/28/2023 6:00:00 PM 4.89 40.802 0.104 17.6 10.9 12.96
2/28/2023 6:15:00 PM 4.86 40.748 0.104 17.59 11.91 12.82
2/28/2023 6:30:00 PM 4.84 40.712 0.104 17.65 14.4 12.71
2/28/2023 6:45:00 PM 4.82 40.676 0.105 17.62 12.1 12.62
2/28/2023 7:00:00 PM 4.79 40.622 0.104 17.61 10.61 12.55
2/28/2023 7:15:00 PM 4.75 40.55 0.104 17.63 11.63 12.49
2/28/2023 7:30:00 PM 4.71 40.478 0.104 17.63 11.46 12.46
2/28/2023 7:45:00 PM 4.67 40.406 0.103 17.66 14.6 12.45
2/28/2023 8:00:00 PM 4.62 40.316 0.103 17.62 10.98 12.44
2/28/2023 8:15:00 PM 4.58 40.244 0.103 17.67 15.25 12.43
2/28/2023 8:30:00 PM 4.54 40.172 0.103 17.68 10.8 12.43
2/28/2023 8:45:00 PM 4.5 40.1 0.102 17.71 12.31 12.44
2/28/2023 9:00:00 PM 4.46 40.028 0.103 17.73 11.57 12.44
2/28/2023 9:15:00 PM 4.43 39.974 0.103 17.71 16.35 12.45
2/28/2023 9:30:00 PM 4.4 39.92 0.104 17.73 15.23 12.45
2/28/2023 9:45:00 PM 4.36 39.848 0.103 17.75 14.71 12.45
2/28/2023 10:00:00 PM 4.33 39.794 0.104 17.71 14.28 12.45
2/28/2023 10:15:00 PM 4.3 39.74 0.104 17.77 12.44 12.45
2/28/2023 10:30:00 PM 4.27 39.686 0.105 17.77 14.08 12.46
2/28/2023 10:45:00 PM 4.24 39.632 0.105 17.78 14.02 12.46
2/28/2023 11:00:00 PM 4.22 39.596 0.106 17.78 13.04 12.47
2/28/2023 11:15:00 PM 4.21 39.578 0.107 17.78 13.67 12.48
2/28/2023 11:30:00 PM 4.19 39.542 0.107 17.78 14.64 12.48
2/28/2023 11:45:00 PM 4.17 39.506 0.108 17.78 10.98 12.48
3/1/2023 12:00:00 AM 4.16 39.488 0.109 17.78 13.97 12.48
3/1/2023 12:15:00 AM 4.13 39.434 0.11 17.78 13.5 12.49
3/1/2023 12:30:00 AM 4.1 39.38 0.11 17.78 14.02 12.5
3/1/2023 12:45:00 AM 4.06 39.308 0.11 17.78 14.48 12.51
3/1/2023 1:00:00 AM 4.02 39.236 0.11 17.78 13.94 12.51
3/1/2023 1:15:00 AM 3.97 39.146 0.11 17.79 13.53 12.53
3/1/2023 1:30:00 AM 3.92 39.056 0.11 17.79 11.42 12.54
3/1/2023 1:45:00 AM 3.87 38.966 0.11 17.79 12.53 12.57
3/1/2023 2:00:00 AM 3.82 38.876 0.11 17.79 13.32 12.58
3/1/2023 2:15:00 AM 3.77 38.786 0.109 17.79 12.64 12.62
3/1/2023 2:30:00 AM 3.71 38.678 0.109 17.8 13.4 12.64
3/1/2023 2:45:00 AM 3.66 38.588 0.108 17.8 12.1 12.66
3/1/2023 3:00:00 AM 3.62 38.516 0.108 17.8 12.88 12.69
3/1/2023 3:15:00 AM 3.57 38.426 0.109 17.8 12.78 12.71
3/1/2023 3:30:00 AM 3.52 38.336 0.109 17.8 12.31 12.73
3/1/2023 3:45:00 AM 3.48 38.264 0.109 17.8 13.39 12.75
3/1/2023 4:00:00 AM 3.44 38.192 0.109 17.81 13.56 12.77
3/1/2023 4:15:00 AM 3.39 38.102 0.109 17.81 14.11 12.78
3/1/2023 4:30:00 AM 3.35 38.03 0.109 17.81 12.56 12.79
3/1/2023 4:45:00 AM 3.3 37.94 0.109 17.81 11.9 12.8
3/1/2023 5:00:00 AM 3.26 37.868 0.109 17.81 11.86 12.82
3/1/2023 5:15:00 AM 3.21 37.778 0.11 17.82 12.53 12.82
3/1/2023 5:30:00 AM 3.16 37.688 0.109 17.82 12.85 12.83
3/1/2023 5:45:00 AM 3.11 37.598 0.109 17.82 12.63 12.84
3/1/2023 6:00:00 AM 3.06 37.508 0.109 17.82 12.95 12.87
3/1/2023 6:15:00 AM 3.02 37.436 0.108 17.82 13.31 12.89
3/1/2023 6:30:00 AM 2.99 37.382 0.108 17.82 12.89 12.92
3/1/2023 6:45:00 AM 2.95 37.31 0.107 17.83 14.11 12.94
3/1/2023 7:00:00 AM 2.92 37.256 0.106 17.83 11.89 12.97
3/1/2023 7:15:00 AM 2.88 37.184 0.105 17.83 12.63 13.03
3/1/2023 7:30:00 AM 2.85 37.13 0.105 17.83 11.55 13.08
3/1/2023 7:45:00 AM 2.84 37.112 0.104 17.83 13.39 13.16
3/1/2023 8:00:00 AM 2.83 37.094 0.103 17.83 12.03 13.29
3/1/2023 8:15:00 AM 2.82 37.076 0.103 17.83 13.05 13.37
3/1/2023 8:30:00 AM 2.84 37.112 0.102 17.83 11.95 13.54
3/1/2023 8:45:00 AM 2.88 37.184 0.101 17.83 11.3 13.69
3/1/2023 9:00:00 AM 2.89 37.202 0.101 17.83 10.84 13.77
3/1/2023 9:15:00 AM 2.95 37.31 0.1 17.83 10.43 13.91
3/1/2023 9:30:00 AM 3.04 37.472 0.099 17.82 10.1 14.1
3/1/2023 9:45:00 AM 3.06 37.508 0.099 17.82 13.87 14.15
3/1/2023 10:00:00 AM 3.1 37.58 0.099 17.82 9.75 14.21
3/1/2023 10:15:00 AM 3.14 37.652 0.098 17.82 10.09 14.21
3/1/2023 10:30:00 AM 3.18 37.724 0.098 17.82 9.62 14.24
3/1/2023 10:45:00 AM 3.21 37.778 0.098 17.82 9.29 14.25
3/1/2023 11:00:00 AM 3.26 37.868 0.097 17.81 8.84 14.28
3/1/2023 11:15:00 AM 3.32 37.976 0.097 17.81 10.7 14.35
3/1/2023 11:30:00 AM 3.39 38.102 0.097 17.81 9.44 14.39
3/1/2023 11:45:00 AM 3.48 38.264 0.096 17.8 9.1 14.45
3/1/2023 12:00:00 PM 3.57 38.426 0.096 17.8 8.63 14.48
3/1/2023 12:15:00 PM 3.67 38.606 0.096 17.8 8.77 14.49
3/1/2023 12:30:00 PM 3.75 38.75 0.096 17.79 8.46 14.43
3/1/2023 12:45:00 PM 3.82 38.876 0.095 17.79 8.32 14.35
3/1/2023 1:00:00 PM 3.91 39.038 0.095 17.79 8.3 14.36
3/1/2023 1:15:00 PM 4.02 39.236 0.095 17.78 7.86 14.4
3/1/2023 1:30:00 PM 4.12 39.416 0.095 17.78 7.86 14.43
3/1/2023 1:45:00 PM 4.19 39.542 0.095 17.78 8.2 14.45
3/1/2023 2:00:00 PM 4.29 39.722 0.094 17.77 7.1 14.47
3/1/2023 2:15:00 PM 4.4 39.92 0.094 17.77 7.14 14.46
3/1/2023 2:30:00 PM 4.58 40.244 0.094 17.76 8 14.45
3/1/2023 2:45:00 PM 4.76 40.568 0.094 17.76 7.65 14.42
3/1/2023 3:00:00 PM 4.91 40.838 0.093 17.75 7.05 14.41
3/1/2023 3:15:00 PM 5.04 41.072 0.093 17.74 7.08 14.38
3/1/2023 3:30:00 PM 5.15 41.27 0.093 17.74 7.01 14.33
3/1/2023 3:45:00 PM 5.24 41.432 0.093 17.74 7.05 14.25
3/1/2023 4:00:00 PM 5.31 41.558 0.092 17.73 7.13 14.13
3/1/2023 4:15:00 PM 5.35 41.63 0.092 17.73 6.91 14
3/1/2023 4:30:00 PM 5.38 41.684 0.092 17.73 6.84 13.9
3/1/2023 4:45:00 PM 5.37 41.666 0.092 17.73 6.55 13.77
3/1/2023 5:00:00 PM 5.34 41.612 0.092 17.73 7.17 13.65
3/1/2023 5:15:00 PM 5.35 41.63 0.092 17.73 6.94 13.5
3/1/2023 5:30:00 PM 5.36 41.648 0.092 17.73 6.57 13.36
3/1/2023 5:45:00 PM 5.35 41.63 0.092 17.73 6.83 13.18
3/1/2023 6:00:00 PM 5.35 41.63 0.092 17.73 6.6 12.99
3/1/2023 6:15:00 PM 5.35 41.63 0.092 17.73 6.92 12.81
3/1/2023 6:30:00 PM 5.35 41.63 0.092 17.73 7.06 12.65
3/1/2023 6:45:00 PM 5.36 41.648 0.092 17.73 6.99 12.5
3/1/2023 7:00:00 PM 5.37 41.666 0.092 17.73 6.67 12.37
3/1/2023 7:15:00 PM 5.39 41.702 0.092 17.72 6.69 12.27
3/1/2023 7:30:00 PM 5.41 41.738 0.092 17.69 6.64 12.2
3/1/2023 7:45:00 PM 5.42 41.756 0.092 17.69 7.04 12.13
3/1/2023 8:00:00 PM 5.41 41.738 0.092 17.71 6.71 12.09
3/1/2023 8:15:00 PM 5.4 41.72 0.092 17.7 7.06 12.07
3/1/2023 8:30:00 PM 5.38 41.684 0.092 17.71 6.85 12.04
3/1/2023 8:45:00 PM 5.36 41.648 0.092 17.71 6.31 12.03
3/1/2023 9:00:00 PM 5.34 41.612 0.092 17.71 6.71 12.03
3/1/2023 9:15:00 PM 5.33 41.594 0.092 17.68 6.52 12.01
3/1/2023 9:30:00 PM 5.32 41.576 0.091 17.71 7.26 12.02
3/1/2023 9:45:00 PM 5.31 41.558 0.091 17.71 6.68 12.02
3/1/2023 10:00:00 PM 5.3 41.54 0.091 17.72 7.03 12.01
3/1/2023 10:15:00 PM 5.29 41.522 0.091 17.7 6.86 12.02
3/1/2023 10:30:00 PM 5.28 41.504 0.091 17.71 6.64 12.01
3/1/2023 10:45:00 PM 5.26 41.468 0.091 17.73 6.7 12.02
3/1/2023 11:00:00 PM 5.24 41.432 0.091 17.73 7.15 12.03
3/1/2023 11:15:00 PM 5.22 41.396 0.091 17.73 7.12 12.04
3/1/2023 11:30:00 PM 5.2 41.36 0.091 17.69 6.68 12.03
3/1/2023 11:45:00 PM 5.19 41.342 0.091 17.72 6.65 12.04
3/2/2023 12:00:00 AM 5.19 41.342 0.09 17.72 6.8 12.03
3/2/2023 12:15:00 AM 5.18 41.324 0.091 17.73 6.3 12.03
3/2/2023 12:30:00 AM 5.18 41.324 0.09 17.71 7.47 12.03
3/2/2023 12:45:00 AM 5.18 41.324 0.09 17.73 7.28 12.04
3/2/2023 1:00:00 AM 5.18 41.324 0.09 17.65 6.55 12.03
3/2/2023 1:15:00 AM 5.18 41.324 0.09 17.62 6.32 12.03
3/2/2023 1:30:00 AM 5.18 41.324 0.09 17.6 7.05 12.04
3/2/2023 1:45:00 AM 5.17 41.306 0.09 17.63 7.47 12.04
3/2/2023 2:00:00 AM 5.17 41.306 0.09 17.6 6.49 12.03
3/2/2023 2:15:00 AM 5.17 41.306 0.089 17.64 7.08 12.03
3/2/2023 2:30:00 AM 5.17 41.306 0.089 17.59 6.77 12.03
3/2/2023 2:45:00 AM 5.17 41.306 0.089 17.63 6.7 12.02
3/2/2023 3:00:00 AM 5.17 41.306 0.089 17.64 7.19 12.03
3/2/2023 3:15:00 AM 5.17 41.306 0.089 17.7 7.81 12.02
3/2/2023 3:30:00 AM 5.16 41.288 0.089 17.69 6.73 12.02
3/2/2023 3:45:00 AM 5.16 41.288 0.089 17.71 7.57 12.02
3/2/2023 4:00:00 AM 5.16 41.288 0.089 17.7 6.63 12.02
3/2/2023 4:15:00 AM 5.16 41.288 0.089 17.68 6.51 12.01
3/2/2023 4:30:00 AM 5.16 41.288 0.089 17.61 8.21 12.01
3/2/2023 4:45:00 AM 5.16 41.288 0.089 17.59 6.8 12.02
3/2/2023 5:00:00 AM 5.17 41.306 0.089 17.65 7.19 12.02
3/2/2023 5:15:00 AM 5.17 41.306 0.088 17.67 7.18 12.02
3/2/2023 5:30:00 AM 5.18 41.324 0.088 17.68 6.35 12.02
3/2/2023 5:45:00 AM 5.18 41.324 0.088 17.65 7.41 12.01
3/2/2023 6:00:00 AM 5.17 41.306 0.088 17.62 6.3 12.01
3/2/2023 6:15:00 AM 5.16 41.288 0.088 17.62 8.08 12.02
3/2/2023 6:30:00 AM 5.15 41.27 0.088 17.6 7.22 12.02
3/2/2023 6:45:00 AM 5.13 41.234 0.088 17.63 6.55 12.02
3/2/2023 7:00:00 AM 5.12 41.216 0.088 17.67 6.84 12.05
3/2/2023 7:15:00 AM 5.11 41.198 0.088 17.66 7.78 12.08
3/2/2023 7:30:00 AM 5.09 41.162 0.088 17.66 6.94 12.18
3/2/2023 7:45:00 AM 5.08 41.144 0.087 17.66 7.98 12.28
3/2/2023 8:00:00 AM 5.09 41.162 0.087 17.68 7 12.43
3/2/2023 8:15:00 AM 5.1 41.18 0.087 17.69 6.78 12.6
3/2/2023 8:30:00 AM 5.12 41.216 0.087 17.7 7.02 12.74
3/2/2023 8:45:00 AM 5.17 41.306 0.087 17.69 7.02 12.92
3/2/2023 9:00:00 AM 5.16 41.288 0.087 17.72 7.18 12.97
3/2/2023 9:15:00 AM 5.23 41.414 0.086 17.74 6.79 13.09
3/2/2023 9:30:00 AM 5.37 41.666 0.086 17.72 6.52 13.31
3/2/2023 9:45:00 AM 5.47 41.846 0.086 17.67 5.72 13.46
3/2/2023 10:00:00 AM 5.65 42.17 0.086 17.65 6.23 13.62
3/2/2023 10:15:00 AM 5.84 42.512 0.085 17.68 5.97 13.68
3/2/2023 10:30:00 AM 6 42.8 0.085 17.68 6.96 13.74
3/2/2023 10:45:00 AM 6.15 43.07 0.085 17.7 7.45 13.81
3/2/2023 11:00:00 AM 6.28 43.304 0.085 17.69 7.2 13.83
3/2/2023 11:15:00 AM 6.38 43.484 0.085 17.69 6.4 13.82
3/2/2023 11:30:00 AM 6.58 43.844 0.085 17.69 5.84 13.81
3/2/2023 11:45:00 AM 6.72 44.096 0.084 17.68 6.06 13.84
3/2/2023 12:00:00 PM 6.89 44.402 0.084 17.67 8.57 13.85
3/2/2023 12:15:00 PM 7.04 44.672 0.084 17.67 8.35 13.82
3/2/2023 12:30:00 PM 7.14 44.852 0.084 17.66 6.62 13.79
3/2/2023 12:45:00 PM 7.29 45.122 0.084 17.66 5.89 13.79
3/2/2023 1:00:00 PM 7.39 45.302 0.084 17.58 5.75 13.78
3/2/2023 1:15:00 PM 7.48 45.464 0.084 17.53 6.01 13.74
3/2/2023 1:30:00 PM 7.55 45.59 0.084 17.5 5.42 13.7
3/2/2023 1:45:00 PM 7.65 45.77 0.084 17.52 6.55 13.65
3/2/2023 2:00:00 PM 7.7 45.86 0.084 17.5 6.28 13.62
3/2/2023 2:15:00 PM 7.77 45.986 0.084 17.61 8.78 13.6
3/2/2023 2:30:00 PM 7.83 46.094 0.084 17.41 6.81 13.58
3/2/2023 2:45:00 PM 7.89 46.202 0.083 17.41 6.5 13.55
3/2/2023 3:00:00 PM 7.93 46.274 0.083 17.51 7.15 13.5
3/2/2023 3:15:00 PM 7.98 46.364 0.083 17.37 5.99 13.45
3/2/2023 3:30:00 PM 8.03 46.454 0.083 17.34 6.29 13.38
3/2/2023 3:45:00 PM 8.08 46.544 0.083 17.32 6.06 13.34
3/2/2023 4:00:00 PM 8.08 46.544 0.083 17.34 6.09 13.24
3/2/2023 4:15:00 PM 8.08 46.544 0.083 17.37 6.29 13.16
3/2/2023 4:30:00 PM 8.08 46.544 0.083 17.38 5.88 13.08
3/2/2023 4:45:00 PM 8.07 46.526 0.083 17.32 5.75 12.97
3/2/2023 5:00:00 PM 8.03 46.454 0.083 17.25 6.12 12.78
3/2/2023 5:15:00 PM 7.99 46.382 0.083 17.27 6.13 12.65
3/2/2023 5:30:00 PM 7.94 46.292 0.083 17.13 6.56 12.5
3/2/2023 5:45:00 PM 7.89 46.202 0.083 17.04 5.85 12.3
3/2/2023 6:00:00 PM 7.83 46.094 0.083 16.98 5.39 12.12
3/2/2023 6:15:00 PM 7.77 45.986 0.083 16.96 5.65 11.94
3/2/2023 6:30:00 PM 7.72 45.896 0.084 16.93 6.87 11.77
3/2/2023 6:45:00 PM 7.68 45.824 0.084 16.91 5.82 11.65
3/2/2023 7:00:00 PM 7.64 45.752 0.084 16.88 5.79 11.55
3/2/2023 7:15:00 PM 7.61 45.698 0.084 16.86 6.4 11.48
3/2/2023 7:30:00 PM 7.56 45.608 0.084 16.88 6.98 11.43
3/2/2023 7:45:00 PM 7.52 45.536 0.084 16.86 6.22 11.41
3/2/2023 8:00:00 PM 7.47 45.446 0.084 16.82 5.97 11.39
3/2/2023 8:15:00 PM 7.42 45.356 0.084 16.82 6.75 11.39
3/2/2023 8:30:00 PM 7.37 45.266 0.084 16.81 6.76 11.38
3/2/2023 8:45:00 PM 7.32 45.176 0.084 16.78 5.84 11.38
3/2/2023 9:00:00 PM 7.27 45.086 0.084 16.77 5.86 11.37
3/2/2023 9:15:00 PM 7.21 44.978 0.084 16.77 6.39 11.36
3/2/2023 9:30:00 PM 7.14 44.852 0.084 16.75 6.16 11.37
3/2/2023 9:45:00 PM 7.08 44.744 0.084 16.77 7.23 11.38
3/2/2023 10:00:00 PM 7.01 44.618 0.084 16.76 6.64 11.41
3/2/2023 10:15:00 PM 6.95 44.51 0.084 16.76 6.59 11.44
3/2/2023 10:30:00 PM 6.87 44.366 0.084 16.76 5.62 11.46
3/2/2023 10:45:00 PM 6.8 44.24 0.083 16.85 5.76 11.49
3/2/2023 11:00:00 PM 6.72 44.096 0.083 16.9 5.75 11.5
3/2/2023 11:15:00 PM 6.65 43.97 0.083 16.85 6.42 11.52
3/2/2023 11:30:00 PM 6.57 43.826 0.084 16.83 6.39 11.52
3/2/2023 11:45:00 PM 6.5 43.7 0.083 16.94 5.46 11.55
3/3/2023 12:00:00 AM 6.43 43.574 0.083 16.97 5.63 11.57
3/3/2023 12:15:00 AM 6.35 43.43 0.083 17.16 5.99 11.61
3/3/2023 12:30:00 AM 6.27 43.286 0.083 16.99 5.69 11.65
3/3/2023 12:45:00 AM 6.19 43.142 0.083 16.88 5.88 11.69
3/3/2023 1:00:00 AM 6.12 43.016 0.083 16.88 5.71 11.72
3/3/2023 1:15:00 AM 6.04 42.872 0.083 16.87 5.49 11.73
3/3/2023 1:30:00 AM 5.96 42.728 0.083 16.87 5.74 11.75
3/3/2023 1:45:00 AM 5.88 42.584 0.083 16.86 5.67 11.77
3/3/2023 2:00:00 AM 5.81 42.458 0.083 16.89 5.69 11.8
3/3/2023 2:15:00 AM 5.72 42.296 0.083 16.87 6.16 11.84
3/3/2023 2:30:00 AM 5.65 42.17 0.083 16.87 6.08 11.88
3/3/2023 2:45:00 AM 5.57 42.026 0.083 16.88 5.93 11.92
3/3/2023 3:00:00 AM 5.49 41.882 0.083 16.91 5.72 11.96
3/3/2023 3:15:00 AM 5.41 41.738 0.083 16.93 5.75 11.98
3/3/2023 3:30:00 AM 5.33 41.594 0.083 16.96 6.33 12.01
3/3/2023 3:45:00 AM 5.25 41.45 0.083 16.96 5.84 12.03
3/3/2023 4:00:00 AM 5.18 41.324 0.083 16.96 6.08 12.05
3/3/2023 4:15:00 AM 5.11 41.198 0.083 16.96 5.4 12.06
3/3/2023 4:30:00 AM 5.04 41.072 0.083 16.98 5.45 12.1
3/3/2023 4:45:00 AM 4.97 40.946 0.083 17 5.48 12.14
3/3/2023 5:00:00 AM 4.91 40.838 0.083 16.99 5.51 12.17
3/3/2023 5:15:00 AM 4.84 40.712 0.083 17.02 5.56 12.2
3/3/2023 5:30:00 AM 4.78 40.604 0.083 17.03 5.55 12.23
3/3/2023 5:45:00 AM 4.71 40.478 0.084 17.05 5.72 12.26
3/3/2023 6:00:00 AM 4.63 40.334 0.083 17.05 5.23 12.29
3/3/2023 6:15:00 AM 4.57 40.226 0.083 17.05 5.43 12.31
3/3/2023 6:30:00 AM 4.49 40.082 0.083 17.05 5.4 12.33
3/3/2023 6:45:00 AM 4.43 39.974 0.084 17.05 6.75 12.35
3/3/2023 7:00:00 AM 4.37 39.866 0.083 17.06 5.33 12.39
3/3/2023 7:15:00 AM 4.31 39.758 0.083 17.06 6.26 12.47
3/3/2023 7:30:00 AM 4.27 39.686 0.083 17.09 5.66 12.58
3/3/2023 7:45:00 AM 4.24 39.632 0.083 17.14 6.29 12.72
3/3/2023 8:00:00 AM 4.22 39.596 0.083 17.11 5.68 12.87
3/3/2023 8:15:00 AM 4.21 39.578 0.083 17.13 6.4 13.04
3/3/2023 8:30:00 AM 4.21 39.578 0.083 17.15 6.38 13.23
3/3/2023 8:45:00 AM 4.23 39.614 0.083 17.16 5.24 13.44
3/3/2023 9:00:00 AM 4.24 39.632 0.082 17.18 5.16 13.62
3/3/2023 9:15:00 AM 4.26 39.668 0.082 17.19 6.04 13.75
3/3/2023 9:30:00 AM 4.33 39.794 0.082 17.19 7.26 13.92
3/3/2023 9:45:00 AM 4.41 39.938 0.082 17.21 5.54 14.06
3/3/2023 10:00:00 AM 4.53 40.154 0.082 17.22 5.54 14.21
3/3/2023 10:15:00 AM 4.65 40.37 0.082 17.24 5.18 14.3
3/3/2023 10:30:00 AM 4.72 40.496 0.082 17.26 5.08 14.36
3/3/2023 10:45:00 AM 4.77 40.586 0.081 17.29 5.28 14.37
3/3/2023 11:00:00 AM 4.82 40.676 0.081 17.29 4.78 14.35
3/3/2023 11:15:00 AM 4.9 40.82 0.081 17.29 5.07 14.31
3/3/2023 11:30:00 AM 4.95 40.91 0.081 17.3 5.15 14.28
3/3/2023 11:45:00 AM 4.99 40.982 0.081 17.32 4.75 14.24
3/3/2023 12:00:00 PM 4.99 40.982 0.081 17.33 5.05 14.22
3/3/2023 12:15:00 PM 4.97 40.946 0.081 17.33 4.65 14.17
3/3/2023 12:30:00 PM 4.95 40.91 0.081 17.31 4.77 14.1
3/3/2023 12:45:00 PM 4.97 40.946 0.081 17.34 5.1 14.1
3/3/2023 1:00:00 PM 5.02 41.036 0.081 17.33 4.92 14.08
3/3/2023 1:15:00 PM 5.06 41.108 0.081 17.33 5.13 14.04
3/3/2023 1:30:00 PM 5.1 41.18 0.081 17.29 4.88 14
3/3/2023 1:45:00 PM 5.11 41.198 0.081 17.28 4.84 13.93
3/3/2023 2:00:00 PM 5.1 41.18 0.081 17.25 5.47 13.81
3/3/2023 2:15:00 PM 5.08 41.144 0.081 17.21 4.73 13.67
3/3/2023 2:30:00 PM 5.03 41.054 0.081 17.18 5.09 13.59
3/3/2023 2:45:00 PM 4.98 40.964 0.081 17.15 5.24 13.49
3/3/2023 3:00:00 PM 4.9 40.82 0.081 17.12 4.58 13.37
3/3/2023 3:15:00 PM 4.84 40.712 0.081 17.1 5.33 13.32
3/3/2023 3:30:00 PM 4.78 40.604 0.081 17.1 5.05 13.25
3/3/2023 3:45:00 PM 4.7 40.46 0.081 17.07 4.87 13.19
3/3/2023 4:00:00 PM 4.65 40.37 0.081 17.07 4.96 13.12
3/3/2023 4:15:00 PM 4.56 40.208 0.081 17.07 4.99 13.06
3/3/2023 4:30:00 PM 4.47 40.046 0.081 17.07 5.18 12.99
3/3/2023 4:45:00 PM 4.4 39.92 0.081 17.06 5.09 12.93
3/3/2023 5:00:00 PM 4.31 39.758 0.081 17.06 5.18 12.86
3/3/2023 5:15:00 PM 4.22 39.596 0.081 17.07 5.22 12.79
3/3/2023 5:30:00 PM 4.18 39.524 0.081 17.08 5.19 12.74
3/3/2023 5:45:00 PM 4.14 39.452 0.082 17.07 4.85 12.69
3/3/2023 6:00:00 PM 4.11 39.398 0.081 17.09 5.81 12.65
3/3/2023 6:15:00 PM 4.1 39.38 0.081 17.07 5.82 12.61
3/3/2023 6:30:00 PM 4.08 39.344 0.081 17.05 6.08 12.58
3/3/2023 6:45:00 PM 4.06 39.308 0.081 17.05 6.34 12.56
3/3/2023 7:00:00 PM 4.03 39.254 0.082 17.04 5.88 12.55
3/3/2023 7:15:00 PM 4.01 39.218 0.082 17.03 6.27 12.55
3/3/2023 7:30:00 PM 3.99 39.182 0.084 17.03 6.98 12.53
3/3/2023 7:45:00 PM 3.96 39.128 0.085 17.05 9.62 12.53
3/3/2023 8:00:00 PM 3.95 39.11 0.087 17.07 11.28 12.53
3/3/2023 8:15:00 PM 3.81 38.858 0.09 17.07 13.04 12.53
3/3/2023 8:30:00 PM 3.74 38.732 0.093 17.08 17.35 12.54
3/3/2023 8:45:00 PM 3.73 38.714 0.095 17.07 16.41 12.55
3/3/2023 9:00:00 PM 3.68 38.624 0.094 17.13 20.12 12.55
3/3/2023 9:15:00 PM 3.65 38.57 0.093 17.09 16.72 12.56
3/3/2023 9:30:00 PM 3.62 38.516 0.095 17.12 16.6 12.56
3/3/2023 9:45:00 PM 3.6 38.48 0.102 17.12 12.81 12.57
3/3/2023 10:00:00 PM 3.59 38.462 0.105 17.12 21.53 12.57
3/3/2023 10:15:00 PM 3.57 38.426 0.103 17.24 16.03 12.57
3/3/2023 10:30:00 PM 3.54 38.372 0.101 17.24 20.4 12.57
3/3/2023 10:45:00 PM 3.54 38.372 0.102 17.23 21.21 12.58
3/3/2023 11:00:00 PM 3.54 38.372 0.1 17.2 23.3 12.57
3/3/2023 11:15:00 PM 3.54 38.372 0.098 17.18 30.65 12.58
3/3/2023 11:30:00 PM 3.55 38.39 0.096 17.14 18.48 12.58
3/3/2023 11:45:00 PM 3.54 38.372 0.095 17.24 19.64 12.57
3/4/2023 12:00:00 AM 3.54 38.372 0.094 17.14 19.35 12.58
3/4/2023 12:15:00 AM 3.54 38.372 0.094 17.15 20.53 12.57
3/4/2023 12:30:00 AM 3.54 38.372 0.093 17.14 14.34 12.57
3/4/2023 12:45:00 AM 3.55 38.39 0.092 17.24 16.09 12.56
3/4/2023 1:00:00 AM 3.56 38.408 0.092 17.25 17.97 12.56
3/4/2023 1:15:00 AM 3.56 38.408 0.092 17.37 18.11 12.55
3/4/2023 1:30:00 AM 3.57 38.426 0.092 17.41 19.61 12.55
3/4/2023 1:45:00 AM 3.56 38.408 0.093 17.6 23.02 12.55
3/4/2023 2:00:00 AM 3.56 38.408 0.093 17.53 20.93 12.55
3/4/2023 2:15:00 AM 3.56 38.408 0.091 17.54 24.96 12.54
3/4/2023 2:30:00 AM 3.55 38.39 0.091 17.66 24.25 12.53
3/4/2023 2:45:00 AM 3.55 38.39 0.091 17.62 20.09 12.53
3/4/2023 3:00:00 AM 3.55 38.39 0.092 17.69 23 12.53
3/4/2023 3:15:00 AM 3.55 38.39 0.093 17.76 21.71 12.52
3/4/2023 3:30:00 AM 3.55 38.39 0.094 17.76 21.63 12.52
3/4/2023 3:45:00 AM 3.55 38.39 0.095 17.79 19.07 12.52
3/4/2023 4:00:00 AM 3.56 38.408 0.095 17.8 20.34 12.52
3/4/2023 4:15:00 AM 3.56 38.408 0.094 17.8 23.77 12.52
3/4/2023 4:30:00 AM 3.57 38.426 0.094 17.79 18.67 12.52
3/4/2023 4:45:00 AM 3.58 38.444 0.094 17.75 25.06 12.53
3/4/2023 5:00:00 AM 3.59 38.462 0.094 17.73 21.58 12.53
3/4/2023 5:15:00 AM 3.6 38.48 0.094 17.71 21.65 12.52
3/4/2023 5:30:00 AM 3.61 38.498 0.094 17.8 23.27 12.53
3/4/2023 5:45:00 AM 3.62 38.516 0.094 17.79 21.87 12.53
3/4/2023 6:00:00 AM 3.64 38.552 0.094 17.79 20.59 12.52
3/4/2023 6:15:00 AM 3.65 38.57 0.095 17.79 32.34 12.53
3/4/2023 6:30:00 AM 3.66 38.588 0.095 17.78 20.95 12.52
3/4/2023 6:45:00 AM 3.67 38.606 0.095 17.75 20.89 12.53
3/4/2023 7:00:00 AM 3.68 38.624 0.095 17.77 21.92 12.54
3/4/2023 7:15:00 AM 3.7 38.66 0.095 17.77 22.65 12.55
3/4/2023 7:30:00 AM 3.72 38.696 0.094 17.76 19.82 12.58
3/4/2023 7:45:00 AM 3.74 38.732 0.094 17.77 36.91 12.61
3/4/2023 8:00:00 AM 3.77 38.786 0.093 17.76 19.32 12.65
3/4/2023 8:15:00 AM 3.81 38.858 0.093 17.72 20.43 12.72
3/4/2023 8:30:00 AM 3.85 38.93 0.093 17.7 21.78 12.78
3/4/2023 8:45:00 AM 3.88 38.984 0.093 17.69 17.11 12.84
3/4/2023 9:00:00 AM 3.94 39.092 0.093 17.67 17.19 12.92
3/4/2023 9:15:00 AM 4 39.2 0.093 17.68 14.11 12.99
3/4/2023 9:30:00 AM 4.07 39.326 0.093 17.65 14.13 13.06
3/4/2023 9:45:00 AM 4.14 39.452 0.093 17.59 15.74 13.11
3/4/2023 10:00:00 AM 4.23 39.614 0.093 17.62 20.37 13.15
3/4/2023 10:15:00 AM 4.34 39.812 0.093 17.63 14.18 13.2
3/4/2023 10:30:00 AM 4.48 40.064 0.093 17.62 15.59 13.25
3/4/2023 10:45:00 AM 4.61 40.298 0.093 17.58 15.43 13.29
3/4/2023 11:00:00 AM 4.74 40.532 0.093 17.58 12.91 13.34
3/4/2023 11:15:00 AM 4.86 40.748 0.093 17.56 13.86 13.38
3/4/2023 11:30:00 AM 4.99 40.982 0.093 17.56 14.5 13.38
3/4/2023 11:45:00 AM 5.12 41.216 0.094 17.55 13.04 13.37
3/4/2023 12:00:00 PM 5.16 41.288 0.094 17.16 14.07 13.34
3/4/2023 12:15:00 PM 5.25 41.45 0.094 17.15 13.97 13.32
3/4/2023 12:30:00 PM 5.33 41.594 0.094 17.11 13.18 13.31
3/4/2023 12:45:00 PM 5.42 41.756 0.094 17.01 14.89 13.32
3/4/2023 1:00:00 PM 5.47 41.846 0.094 17.04 16.26 13.31
3/4/2023 1:15:00 PM 5.5 41.9 0.093 17.16 14.94 13.3
3/4/2023 1:30:00 PM 5.52 41.936 0.093 17.22 12.79 13.29
3/4/2023 1:45:00 PM 5.56 42.008 0.093 17.24 13.86 13.27
3/4/2023 2:00:00 PM 5.59 42.062 0.093 17.23 12.31 13.23
3/4/2023 2:15:00 PM 5.62 42.116 0.093 17.17 12.38 13.22
3/4/2023 2:30:00 PM 5.63 42.134 0.093 17.14 13.25 13.2
3/4/2023 2:45:00 PM 5.66 42.188 0.093 17.25 13.13 13.19
3/4/2023 3:00:00 PM 5.67 42.206 0.092 17.23 12.83 13.17
3/4/2023 3:15:00 PM 5.7 42.26 0.092 17.18 14.35 13.15
3/4/2023 3:30:00 PM 5.69 42.242 0.092 17.08 14.57 13.1
3/4/2023 3:45:00 PM 5.7 42.26 0.092 17.06 14.34 13.06
3/4/2023 4:00:00 PM 5.7 42.26 0.092 17.12 11.88 13
3/4/2023 4:15:00 PM 5.69 42.242 0.092 17.07 14.12 12.95
3/4/2023 4:30:00 PM 5.69 42.242 0.092 16.99 14.13 12.9
3/4/2023 4:45:00 PM 5.68 42.224 0.092 17.11 14.02 12.86
3/4/2023 5:00:00 PM 5.68 42.224 0.092 17.24 14.39 12.81
3/4/2023 5:15:00 PM 5.66 42.188 0.092 17.31 13.8 12.75
3/4/2023 5:30:00 PM 5.65 42.17 0.091 17.23 14.91 12.68
3/4/2023 5:45:00 PM 5.62 42.116 0.091 17.08 14.28 12.6
3/4/2023 6:00:00 PM 5.59 42.062 0.091 17.08 14.43 12.51
3/4/2023 6:15:00 PM 5.56 42.008 0.09 17.22 15.02 12.44
3/4/2023 6:30:00 PM 5.52 41.936 0.09 17.21 16.65 12.38
3/4/2023 6:45:00 PM 5.48 41.864 0.09 17.14 14.16 12.32
3/4/2023 7:00:00 PM 5.42 41.756 0.09 17.31 15.25 12.29
3/4/2023 7:15:00 PM 5.37 41.666 0.089 17.22 16.08 12.26
3/4/2023 7:30:00 PM 5.32 41.576 0.089 17.3 15.43 12.25
3/4/2023 7:45:00 PM 5.27 41.486 0.089 17.32 15.07 12.25
3/4/2023 8:00:00 PM 5.22 41.396 0.089 17.36 14.26 12.25
3/4/2023 8:15:00 PM 5.17 41.306 0.089 17.32 15.15 12.27
3/4/2023 8:30:00 PM 5.12 41.216 0.089 17.31 16.7 12.28
3/4/2023 8:45:00 PM 5.07 41.126 0.089 17.35 14.93 12.31
3/4/2023 9:00:00 PM 5.03 41.054 0.088 17.33 14.4 12.31
3/4/2023 9:15:00 PM 4.98 40.964 0.088 17.46 14.21 12.34
3/4/2023 9:30:00 PM 4.93 40.874 0.088 17.54 14.28 12.36
3/4/2023 9:45:00 PM 4.88 40.784 0.088 17.61 14.45 12.38
3/4/2023 10:00:00 PM 4.83 40.694 0.087 17.62 16.06 12.38
3/4/2023 10:15:00 PM 4.78 40.604 0.087 17.61 16.3 12.4
3/4/2023 10:30:00 PM 4.74 40.532 0.087 17.64 14.68 12.41
3/4/2023 10:45:00 PM 4.69 40.442 0.087 17.57 13.88 12.42
3/4/2023 11:00:00 PM 4.64 40.352 0.086 17.61 13.59 12.42
3/4/2023 11:15:00 PM 4.59 40.262 0.086 17.56 13.2 12.44
3/4/2023 11:30:00 PM 4.53 40.154 0.086 17.61 13.4 12.45
3/4/2023 11:45:00 PM 4.49 40.082 0.086 17.59 14.43 12.47
3/5/2023 12:00:00 AM 4.45 40.01 0.086 17.62 16.08 12.49
3/5/2023 12:15:00 AM 4.42 39.956 0.085 17.54 13 12.52
3/5/2023 12:30:00 AM 4.39 39.902 0.085 17.58 12.46 12.53
3/5/2023 12:45:00 AM 4.37 39.866 0.085 17.58 13.32 12.55
3/5/2023 1:00:00 AM 4.34 39.812 0.085 17.61 14.73 12.57
3/5/2023 1:15:00 AM 4.32 39.776 0.085 17.62 12.48 12.59
3/5/2023 1:30:00 AM 4.29 39.722 0.084 17.56 12.27 12.6
3/5/2023 1:45:00 AM 4.27 39.686 0.084 17.59 11.52 12.62
3/5/2023 2:00:00 AM 4.25 39.65 0.083 17.69 14.21 12.63
3/5/2023 2:15:00 AM 4.23 39.614 0.083 17.62 13.47 12.64
3/5/2023 2:30:00 AM 4.22 39.596 0.083 17.58 11.16 12.65
3/5/2023 2:45:00 AM 4.19 39.542 0.082 17.61 11.97 12.66
3/5/2023 3:00:00 AM 4.17 39.506 0.082 17.6 11.68 12.67
3/5/2023 3:15:00 AM 4.15 39.47 0.082 17.61 12.82 12.68
3/5/2023 3:30:00 AM 4.12 39.416 0.082 17.57 11.18 12.69
3/5/2023 3:45:00 AM 4.1 39.38 0.082 17.57 11.4 12.7
3/5/2023 4:00:00 AM 4.09 39.362 0.081 17.61 10.91 12.7
3/5/2023 4:30:00 AM 4.05 39.29 0.081 17.51 14.02 12.71
3/5/2023 4:45:00 AM 4.03 39.254 0.081 17.5 12.37 12.71
3/5/2023 5:00:00 AM 4.02 39.236 0.081 17.58 13.44 12.72
3/5/2023 5:15:00 AM 4 39.2 0.081 17.65 11.48 12.72
3/5/2023 5:30:00 AM 3.98 39.164 0.081 17.65 12.15 12.73
3/5/2023 5:45:00 AM 3.96 39.128 0.08 17.71 9.94 12.73
3/5/2023 6:00:00 AM 3.94 39.092 0.08 17.69 12.36 12.74
3/5/2023 6:15:00 AM 3.91 39.038 0.081 17.62 12.92 12.75
3/5/2023 6:30:00 AM 3.89 39.002 0.08 17.59 12.08 12.75
3/5/2023 6:45:00 AM 3.88 38.984 0.08 17.68 12.43 12.76
3/5/2023 7:00:00 AM 3.87 38.966 0.08 17.71 13.41 12.78
3/5/2023 7:15:00 AM 3.86 38.948 0.08 17.56 9.67 12.81
3/5/2023 7:30:00 AM 3.84 38.912 0.08 17.67 12.77 12.86
3/5/2023 7:45:00 AM 3.86 38.948 0.08 17.57 12.17 12.93
3/5/2023 8:00:00 AM 3.86 38.948 0.079 17.53 12.5 12.99
3/5/2023 8:15:00 AM 3.88 38.984 0.079 17.5 11.28 13.08
3/5/2023 8:30:00 AM 3.93 39.074 0.079 17.47 11.46 13.19
3/5/2023 8:45:00 AM 3.97 39.146 0.079 17.41 11.7 13.28
3/5/2023 9:00:00 AM 4.02 39.236 0.079 17.56 11.26 13.36
3/5/2023 9:15:00 AM 4.06 39.308 0.079 17.64 11.23 13.42
3/5/2023 9:30:00 AM 4.13 39.434 0.078 17.53 12.08 13.5
3/5/2023 9:45:00 AM 4.2 39.56 0.078 17.59 10.9 13.56
3/5/2023 10:00:00 AM 4.28 39.704 0.079 17.5 11.58 13.6
3/5/2023 10:15:00 AM 4.41 39.938 0.078 17.43 11.3 13.63
3/5/2023 10:30:00 AM 4.53 40.154 0.078 17.62 11.38 13.64
3/5/2023 10:45:00 AM 4.7 40.46 0.078 17.45 10.52 13.66
3/5/2023 11:00:00 AM 4.77 40.586 0.078 17.5 11.57 13.65
3/5/2023 11:15:00 AM 4.95 40.91 0.078 17.46 11.18 13.67
3/5/2023 11:30:00 AM 4.99 40.982 0.078 17.36 12.33 13.64
3/5/2023 11:45:00 AM 5.04 41.072 0.077 17.35 10.81 13.6
3/5/2023 12:00:00 PM 5.08 41.144 0.077 17.55 9.8 13.56
3/5/2023 12:15:00 PM 5.2 41.36 0.077 17.5 11.41 13.51
3/5/2023 12:30:00 PM 5.27 41.486 0.077 17.29 10.39 13.48
3/5/2023 12:45:00 PM 5.39 41.702 0.077 17.44 12.5 13.44
3/5/2023 1:00:00 PM 5.53 41.954 0.077 17.46 10.96 13.42
3/5/2023 1:15:00 PM 5.65 42.17 0.077 17.37 11.2 13.39
3/5/2023 1:30:00 PM 5.68 42.224 0.077 17.43 11.72 13.36
3/5/2023 1:45:00 PM 5.74 42.332 0.077 17.38 9.72 13.36
3/5/2023 2:00:00 PM 5.81 42.458 0.077 17.36 10.72 13.34
3/5/2023 2:15:00 PM 5.95 42.71 0.077 17.32 10.95 13.32
3/5/2023 2:30:00 PM 6.05 42.89 0.077 17.29 10.9 13.3
3/5/2023 2:45:00 PM 6.25 43.25 0.077 17.28 10.36 13.33
3/5/2023 3:00:00 PM 6.46 43.628 0.076 17.28 10.52 13.31
3/5/2023 3:15:00 PM 6.59 43.862 0.076 17.24 9.6 13.24
3/5/2023 3:30:00 PM 6.69 44.042 0.076 17.18 10.31 13.17
3/5/2023 3:45:00 PM 6.77 44.186 0.076 16.82 10.13 13.12
3/5/2023 4:00:00 PM 6.8 44.24 0.076 16.78 10.52 13.05
3/5/2023 4:15:00 PM 6.8 44.24 0.076 16.77 9.57 12.95
3/5/2023 4:30:00 PM 6.86 44.348 0.076 16.74 10.27 12.9
3/5/2023 4:45:00 PM 6.94 44.492 0.076 16.73 9.13 12.82
3/5/2023 5:00:00 PM 6.99 44.582 0.076 16.71 10.24 12.73
3/5/2023 5:15:00 PM 7.01 44.618 0.076 16.69 8.17 12.64
3/5/2023 5:30:00 PM 7 44.6 0.076 16.69 9.38 12.55
3/5/2023 5:45:00 PM 6.97 44.546 0.076 16.69 9.58 12.45
3/5/2023 6:00:00 PM 6.93 44.474 0.076 16.68 9.86 12.35
3/5/2023 6:15:00 PM 6.89 44.402 0.076 16.67 9.95 12.24
3/5/2023 6:30:00 PM 6.85 44.33 0.077 16.66 10.63 12.15
3/5/2023 6:45:00 PM 6.83 44.294 0.076 16.66 10.74 12.08
3/5/2023 7:00:00 PM 6.8 44.24 0.076 16.66 9.7 12.02
3/5/2023 7:15:00 PM 6.76 44.168 0.077 16.64 9.81 11.97
3/5/2023 7:30:00 PM 6.72 44.096 0.077 16.63 10.07 11.94
3/5/2023 7:45:00 PM 6.66 43.988 0.077 16.71 11.66 11.91
3/5/2023 8:00:00 PM 6.62 43.916 0.077 16.69 10.35 11.91
3/5/2023 8:15:00 PM 6.57 43.826 0.077 16.73 11.46 11.9
3/5/2023 8:30:00 PM 6.53 43.754 0.077 16.63 10.1 11.91
3/5/2023 8:45:00 PM 6.49 43.682 0.077 16.83 9.82 11.92
3/5/2023 9:00:00 PM 6.44 43.592 0.077 16.86 10.58 11.94
3/5/2023 9:15:00 PM 6.38 43.484 0.077 16.94 9.69 11.96
3/5/2023 9:30:00 PM 6.31 43.358 0.077 16.76 9.96 11.98
3/5/2023 9:45:00 PM 6.24 43.232 0.077 16.73 10.14 12
3/5/2023 10:00:00 PM 6.17 43.106 0.076 16.67 9.94 12.01
3/5/2023 10:15:00 PM 6.11 42.998 0.077 16.65 9.42 12.02
3/5/2023 10:30:00 PM 6.05 42.89 0.077 16.65 9.66 12.03
3/5/2023 10:45:00 PM 5.99 42.782 0.077 16.66 10.2 12.04
3/5/2023 11:00:00 PM 5.92 42.656 0.077 16.79 11.4 12.07
3/5/2023 11:15:00 PM 5.86 42.548 0.077 16.7 10.48 12.1
3/5/2023 11:30:00 PM 5.8 42.44 0.077 16.85 10.88 12.13
3/5/2023 11:45:00 PM 5.73 42.314 0.077 16.81 11.64 12.16
3/6/2023 12:00:00 AM 5.66 42.188 0.077 16.85 9.71 12.19
3/6/2023 12:15:00 AM 5.59 42.062 0.077 16.92 9.1 12.21
3/6/2023 12:30:00 AM 5.53 41.954 0.076 16.87 9.19 12.22
3/6/2023 12:45:00 AM 5.46 41.828 0.077 17.01 10.9 12.24
3/6/2023 1:00:00 AM 5.39 41.702 0.077 17.2 6.72 12.25
3/6/2023 1:15:00 AM 5.31 41.558 0.077 17.3 11.27 12.26
3/6/2023 1:30:00 AM 5.24 41.432 0.077 17.34 8.96 12.29
3/6/2023 1:45:00 AM 5.17 41.306 0.076 17.37 10.44 12.32
3/6/2023 2:00:00 AM 5.09 41.162 0.077 17.43 9.86 12.36
3/6/2023 2:15:00 AM 5.02 41.036 0.077 17.52 9.33 12.4
3/6/2023 2:30:00 AM 4.95 40.91 0.077 17.54 9.09 12.42
3/6/2023 2:45:00 AM 4.87 40.766 0.076 17.53 9.87 12.46
3/6/2023 3:00:00 AM 4.8 40.64 0.077 17.59 9.51 12.48
3/6/2023 3:15:00 AM 4.74 40.532 0.077 17.59 9.69 12.5
3/6/2023 3:30:00 AM 4.67 40.406 0.077 17.6 9.3 12.51
3/6/2023 3:45:00 AM 4.6 40.28 0.076 17.56 9.8 12.52
3/6/2023 4:00:00 AM 4.54 40.172 0.077 17.55 8.71 12.54
3/6/2023 4:15:00 AM 4.47 40.046 0.077 17.53 9.92 12.57
3/6/2023 4:30:00 AM 4.41 39.938 0.076 17.42 9.38 12.59
3/6/2023 4:45:00 AM 4.35 39.83 0.076 17.58 8.8 12.62
3/6/2023 5:00:00 AM 4.29 39.722 0.076 17.57 9.08 12.66
3/6/2023 5:15:00 AM 4.23 39.614 0.076 17.62 8.88 12.69
3/6/2023 5:30:00 AM 4.17 39.506 0.076 17.68 8.9 12.72
3/6/2023 5:45:00 AM 4.11 39.398 0.076 17.66 8.95 12.74
3/6/2023 6:00:00 AM 4.05 39.29 0.076 17.58 9 12.77
3/6/2023 6:15:00 AM 3.99 39.182 0.077 17.76 9.82 12.79
3/6/2023 6:30:00 AM 3.94 39.092 0.076 17.73 9.26 12.8
3/6/2023 6:45:00 AM 3.88 38.984 0.076 17.74 9.01 12.81
3/6/2023 7:00:00 AM 3.83 38.894 0.076 17.77 8.46 12.85
3/6/2023 7:15:00 AM 3.8 38.84 0.076 17.77 8.57 12.91
3/6/2023 7:30:00 AM 3.77 38.786 0.076 17.77 10.11 12.98
3/6/2023 7:45:00 AM 3.75 38.75 0.076 17.78 9.59 13.06
3/6/2023 8:00:00 AM 3.75 38.75 0.076 17.78 10.47 13.17
3/6/2023 8:15:00 AM 3.74 38.732 0.076 17.74 8.51 13.26
3/6/2023 8:30:00 AM 3.76 38.768 0.076 17.76 8.63 13.37
3/6/2023 8:45:00 AM 3.8 38.84 0.075 17.79 9.64 13.48
3/6/2023 9:00:00 AM 3.86 38.948 0.075 17.63 8.88 13.59
3/6/2023 9:15:00 AM 3.91 39.038 0.075 17.55 8.07 13.68
3/6/2023 9:30:00 AM 3.97 39.146 0.075 17.64 8.36 13.75
3/6/2023 9:45:00 AM 3.99 39.182 0.075 17.65 8.57 13.73
3/6/2023 10:00:00 AM 4.04 39.272 0.075 17.6 10.27 13.77
3/6/2023 10:15:00 AM 4.12 39.416 0.075 17.62 7.8 13.82
3/6/2023 10:30:00 AM 4.22 39.596 0.075 17.61 8.04 13.85
3/6/2023 10:45:00 AM 4.29 39.722 0.075 17.65 7.73 13.85
3/6/2023 11:00:00 AM 4.41 39.938 0.075 17.57 8.41 13.85
3/6/2023 11:15:00 AM 4.6 40.28 0.074 17.59 7.82 13.86
3/6/2023 11:30:00 AM 4.67 40.406 0.074 17.64 7.43 13.84
3/6/2023 11:45:00 AM 4.78 40.604 0.074 17.56 6.71 13.85
3/6/2023 12:00:00 PM 4.87 40.766 0.074 17.64 7.89 13.84
3/6/2023 12:15:00 PM 4.97 40.946 0.074 17.48 9.82 13.82
3/6/2023 12:30:00 PM 5.08 41.144 0.074 17.32 7.46 13.79
3/6/2023 12:45:00 PM 5.21 41.378 0.074 17.09 8.23 13.74
3/6/2023 1:00:00 PM 5.34 41.612 0.074 17.13 7 13.71
3/6/2023 1:15:00 PM 5.45 41.81 0.075 17.06 7.49 13.68
3/6/2023 1:30:00 PM 5.61 42.098 0.074 17.2 6.98 13.67
3/6/2023 1:45:00 PM 5.67 42.206 0.074 17.08 7.63 13.6
3/6/2023 2:00:00 PM 5.78 42.404 0.074 17.12 7.4 13.55
3/6/2023 2:15:00 PM 5.81 42.458 0.074 17.15 8.22 13.5
3/6/2023 2:30:00 PM 5.85 42.53 0.074 17.26 8.65 13.43
3/6/2023 2:45:00 PM 5.92 42.656 0.074 17.21 8.1 13.38
3/6/2023 3:00:00 PM 5.98 42.764 0.074 16.98 8.08 13.29
3/6/2023 3:15:00 PM 6.02 42.836 0.074 16.93 7.58 13.2
3/6/2023 3:30:00 PM 6.03 42.854 0.074 16.87 7.51 13.11
3/6/2023 3:45:00 PM 6.08 42.944 0.074 16.89 7.34 13.06
3/6/2023 4:00:00 PM 6.12 43.016 0.074 16.78 7.19 13
3/6/2023 4:15:00 PM 6.16 43.088 0.074 16.79 6.68 12.97
3/6/2023 4:30:00 PM 6.2 43.16 0.074 16.82 7.9 12.91
3/6/2023 4:45:00 PM 6.22 43.196 0.074 16.81 8.14 12.85
3/6/2023 5:00:00 PM 6.23 43.214 0.074 16.79 7.57 12.74
3/6/2023 5:15:00 PM 6.24 43.232 0.074 16.82 8.23 12.62
3/6/2023 5:30:00 PM 6.24 43.232 0.074 17.06 7.26 12.51
3/6/2023 5:45:00 PM 6.25 43.25 0.074 17.15 8.11 12.39
3/6/2023 6:00:00 PM 6.26 43.268 0.074 17.15 8.44 12.3
3/6/2023 6:15:00 PM 6.26 43.268 0.074 17.07 8.14 12.21
3/6/2023 6:30:00 PM 6.26 43.268 0.074 17 7.32 12.15
3/6/2023 6:45:00 PM 6.26 43.268 0.074 17.12 7.8 12.08
3/6/2023 7:00:00 PM 6.26 43.268 0.075 17.11 8.6 12.05
3/6/2023 7:15:00 PM 6.25 43.25 0.074 17.05 7.2 12.02
3/6/2023 7:30:00 PM 6.25 43.25 0.074 17.06 7.31 12
3/6/2023 7:45:00 PM 6.25 43.25 0.074 17.13 8.19 11.97
3/6/2023 8:00:00 PM 6.24 43.232 0.074 17.06 8 11.95
3/6/2023 8:15:00 PM 6.23 43.214 0.074 17.09 7.81 11.95
3/6/2023 8:30:00 PM 6.23 43.214 0.075 17.07 7.98 11.94
3/6/2023 8:45:00 PM 6.21 43.178 0.074 17.1 7.98 11.94
3/6/2023 9:00:00 PM 6.2 43.16 0.074 17.14 7.94 11.93
3/6/2023 9:15:00 PM 6.18 43.124 0.074 17.14 7.34 11.94
3/6/2023 9:30:00 PM 6.17 43.106 0.075 17.14 7.45 11.93
3/6/2023 9:45:00 PM 6.14 43.052 0.074 17.09 8.33 11.94
3/6/2023 10:00:00 PM 6.12 43.016 0.074 17.04 8.87 11.94
3/6/2023 10:15:00 PM 6.1 42.98 0.074 17.13 8.54 11.94
3/6/2023 10:30:00 PM 6.07 42.926 0.074 17.17 7.74 11.95
3/6/2023 10:45:00 PM 6.06 42.908 0.074 17.17 8.21 11.95
3/6/2023 11:00:00 PM 6.04 42.872 0.075 17.04 7.44 11.96
3/6/2023 11:15:00 PM 6 42.8 0.075 17.11 7.49 11.96
3/6/2023 11:30:00 PM 5.94 42.692 0.074 17.13 9.37 11.95
3/6/2023 11:45:00 PM 5.78 42.404 0.075 17.16 11.74 11.94
3/7/2023 12:00:00 AM 5.7 42.26 0.074 17.17 7.55 11.95
3/7/2023 12:15:00 AM 5.56 42.008 0.074 17.15 7.54 11.99
3/7/2023 12:30:00 AM 5.4 41.72 0.074 17.18 8.19 12.04
3/7/2023 12:45:00 AM 5.29 41.522 0.074 17.25 8.38 12.05
3/7/2023 1:00:00 AM 5.19 41.342 0.074 17.28 8.18 12.06
3/7/2023 1:15:00 AM 5.14 41.252 0.074 17.21 7.91 12.09
3/7/2023 1:30:00 AM 5.1 41.18 0.074 17.29 8 12.11
3/7/2023 1:45:00 AM 5.08 41.144 0.074 17.37 8.29 12.14
3/7/2023 2:00:00 AM 5.06 41.108 0.074 17.36 7.96 12.18
3/7/2023 2:15:00 AM 5.04 41.072 0.074 17.46 7.78 12.19
3/7/2023 2:30:00 AM 5.02 41.036 0.074 17.41 7.22 12.21
3/7/2023 2:45:00 AM 4.99 40.982 0.074 17.41 8.58 12.23
3/7/2023 3:00:00 AM 4.96 40.928 0.074 17.37 7.05 12.25
3/7/2023 3:15:00 AM 4.93 40.874 0.074 17.43 7 12.28
3/7/2023 3:30:00 AM 4.91 40.838 0.074 17.43 7.44 12.29
3/7/2023 3:45:00 AM 4.89 40.802 0.074 17.42 7.57 12.3
3/7/2023 4:00:00 AM 4.88 40.784 0.074 17.43 7.48 12.32
3/7/2023 4:15:00 AM 4.86 40.748 0.074 17.42 7.37 12.32
3/7/2023 4:30:00 AM 4.84 40.712 0.075 17.4 7.66 12.33
3/7/2023 4:45:00 AM 4.84 40.712 0.075 17.49 8.07 12.34
3/7/2023 5:00:00 AM 4.83 40.694 0.076 17.51 7.46 12.35
3/7/2023 5:15:00 AM 4.81 40.658 0.076 17.5 7.53 12.36
3/7/2023 5:30:00 AM 4.79 40.622 0.076 17.54 7.27 12.38
3/7/2023 5:45:00 AM 4.78 40.604 0.076 17.53 7.61 12.39
3/7/2023 6:00:00 AM 4.76 40.568 0.076 17.54 7.45 12.4
3/7/2023 6:15:00 AM 4.74 40.532 0.076 17.37 7.87 12.41
3/7/2023 6:30:00 AM 4.71 40.478 0.076 17.44 7.12 12.43
3/7/2023 6:45:00 AM 4.69 40.442 0.076 17.5 7.37 12.44
3/7/2023 7:00:00 AM 4.66 40.388 0.075 17.43 7.89 12.46
3/7/2023 7:15:00 AM 4.64 40.352 0.075 17.45 7.64 12.51
3/7/2023 7:30:00 AM 4.63 40.334 0.075 17.54 7.65 12.57
3/7/2023 7:45:00 AM 4.62 40.316 0.075 17.57 7.64 12.68
3/7/2023 8:00:00 AM 4.63 40.334 0.075 17.61 7.93 12.81
3/7/2023 8:15:00 AM 4.63 40.334 0.075 17.57 7.88 12.9
3/7/2023 8:30:00 AM 4.64 40.352 0.075 17.6 7.35 13
3/7/2023 8:45:00 AM 4.64 40.352 0.075 17.52 7.06 13.08
3/7/2023 9:00:00 AM 4.66 40.388 0.074 17.64 7.09 13.17
3/7/2023 9:15:00 AM 4.69 40.442 0.075 17.49 7.7 13.27
3/7/2023 9:30:00 AM 4.74 40.532 0.074 17.4 6.89 13.35
3/7/2023 9:45:00 AM 4.79 40.622 0.074 17.36 7.19 13.41
3/7/2023 10:00:00 AM 4.86 40.748 0.074 17.51 7.3 13.44
3/7/2023 10:15:00 AM 4.94 40.892 0.074 17.43 7.54 13.48
3/7/2023 10:30:00 AM 5.03 41.054 0.074 17.41 6.52 13.49
3/7/2023 10:45:00 AM 5.17 41.306 0.074 17.44 6.96 13.53
3/7/2023 11:00:00 AM 5.3 41.54 0.074 17.4 7.56 13.57
3/7/2023 11:15:00 AM 5.38 41.684 0.074 17.4 8.51 13.57
3/7/2023 11:30:00 AM 5.51 41.918 0.074 17.37 6.91 13.57
3/7/2023 11:45:00 AM 5.64 42.152 0.074 17.38 6.16 13.54
3/7/2023 12:00:00 PM 5.78 42.404 0.074 17.33 8.17 13.52
3/7/2023 12:15:00 PM 5.91 42.638 0.074 17.27 7.05 13.52
3/7/2023 12:30:00 PM 6.04 42.872 0.075 17.28 7.61 13.52
3/7/2023 12:45:00 PM 6.15 43.07 0.075 17.26 7.16 13.49
3/7/2023 1:00:00 PM 6.25 43.25 0.075 17.22 7.22 13.45
3/7/2023 1:15:00 PM 6.33 43.394 0.075 17.31 8.05 13.4
3/7/2023 1:30:00 PM 6.42 43.556 0.075 17.3 7.13 13.38
3/7/2023 1:45:00 PM 6.48 43.664 0.075 17.37 6.78 13.35
3/7/2023 2:00:00 PM 6.57 43.826 0.075 17.37 7.18 13.34
3/7/2023 2:15:00 PM 6.64 43.952 0.075 17.32 7.35 13.32
3/7/2023 2:30:00 PM 6.7 44.06 0.075 17.24 10.14 13.28
3/7/2023 2:45:00 PM 6.75 44.15 0.075 17.23 6.2 13.24
3/7/2023 3:00:00 PM 6.78 44.204 0.075 17.17 7.47 13.19
3/7/2023 3:15:00 PM 6.81 44.258 0.075 17.17 7.82 13.14
3/7/2023 3:30:00 PM 6.83 44.294 0.075 17.1 7.26 13.1
3/7/2023 3:45:00 PM 6.83 44.294 0.075 17.11 7.16 13.06
3/7/2023 4:00:00 PM 6.83 44.294 0.075 16.97 7.34 13.01
3/7/2023 4:15:00 PM 6.8 44.24 0.075 17.03 7.33 12.96
3/7/2023 4:30:00 PM 6.78 44.204 0.075 16.99 7.3 12.91
3/7/2023 4:45:00 PM 6.75 44.15 0.075 16.95 7.86 12.85
3/7/2023 5:00:00 PM 6.7 44.06 0.075 16.97 7.38 12.77
3/7/2023 5:15:00 PM 6.65 43.97 0.074 16.86 8.42 12.7
3/7/2023 5:30:00 PM 6.59 43.862 0.075 16.89 7.74 12.62
3/7/2023 5:45:00 PM 6.52 43.736 0.075 17.02 7.18 12.51
3/7/2023 6:00:00 PM 6.45 43.61 0.075 17.01 8.32 12.4
3/7/2023 6:15:00 PM 6.37 43.466 0.075 17 10.71 12.3
3/7/2023 6:30:00 PM 6.29 43.322 0.075 17.08 7.16 12.23
3/7/2023 6:45:00 PM 6.23 43.214 0.075 17.06 8.94 12.18
3/7/2023 7:00:00 PM 6.17 43.106 0.075 17.14 8.49 12.15
3/7/2023 7:15:00 PM 6.13 43.034 0.075 17.19 7.95 12.12
3/7/2023 7:30:00 PM 6.08 42.944 0.075 17.11 6.91 12.11
3/7/2023 7:45:00 PM 6.01 42.818 0.075 17.13 7.84 12.1
3/7/2023 8:00:00 PM 5.95 42.71 0.076 17.17 8.82 12.09
3/7/2023 8:15:00 PM 5.88 42.584 0.075 17.22 7.71 12.09
3/7/2023 8:30:00 PM 5.81 42.458 0.075 17.21 6.69 12.08
3/7/2023 8:45:00 PM 5.72 42.296 0.075 17.23 8.66 12.09
3/7/2023 9:00:00 PM 5.64 42.152 0.075 17.22 7.69 12.13
3/7/2023 9:15:00 PM 5.55 41.99 0.075 17.27 6.91 12.16
3/7/2023 9:30:00 PM 5.48 41.864 0.075 17.32 7.09 12.2
3/7/2023 9:45:00 PM 5.42 41.756 0.075 17.33 6.99 12.22
3/7/2023 10:00:00 PM 5.34 41.612 0.075 17.28 8.84 12.25
3/7/2023 10:15:00 PM 5.27 41.486 0.075 17.38 8.13 12.27
3/7/2023 10:30:00 PM 5.19 41.342 0.076 17.4 7.01 12.29
3/7/2023 10:45:00 PM 5.12 41.216 0.075 17.31 7.66 12.3
3/7/2023 11:00:00 PM 5.03 41.054 0.075 17.42 9.45 12.32
3/7/2023 11:15:00 PM 4.96 40.928 0.075 17.49 6.86 12.34
3/7/2023 11:30:00 PM 4.9 40.82 0.075 17.51 6.86 12.38
3/7/2023 11:45:00 PM 4.83 40.694 0.075 17.52 8.44 12.42
3/8/2023 12:00:00 AM 4.76 40.568 0.075 17.58 7.44 12.46
3/8/2023 12:15:00 AM 4.69 40.442 0.075 17.54 6.71 12.49
3/8/2023 12:30:00 AM 4.62 40.316 0.075 17.59 6.91 12.52
3/8/2023 12:45:00 AM 4.56 40.208 0.075 17.59 6.95 12.55
3/8/2023 1:00:00 AM 4.5 40.1 0.075 17.65 6.79 12.56
3/8/2023 1:15:00 AM 4.45 40.01 0.075 17.65 6.99 12.57
3/8/2023 1:30:00 AM 4.39 39.902 0.075 17.69 6.83 12.58
3/8/2023 1:45:00 AM 4.34 39.812 0.075 17.71 7.1 12.59
3/8/2023 2:00:00 AM 4.3 39.74 0.075 17.73 7.1 12.61
3/8/2023 2:15:00 AM 4.25 39.65 0.076 17.71 6.47 12.63
3/8/2023 2:30:00 AM 4.2 39.56 0.075 17.71 6.71 12.65
3/8/2023 2:45:00 AM 4.16 39.488 0.075 17.72 6.38 12.67
3/8/2023 3:00:00 AM 4.11 39.398 0.075 17.75 7.02 12.69
3/8/2023 3:15:00 AM 4.07 39.326 0.075 17.74 6.57 12.72
3/8/2023 3:30:00 AM 4.02 39.236 0.075 17.76 7.54 12.75
3/8/2023 3:45:00 AM 3.97 39.146 0.075 17.77 6.37 12.77
3/8/2023 4:00:00 AM 3.92 39.056 0.075 17.75 6.81 12.79
3/8/2023 4:15:00 AM 3.87 38.966 0.075 17.74 6.63 12.82
3/8/2023 4:30:00 AM 3.82 38.876 0.075 17.74 6.52 12.83
3/8/2023 4:45:00 AM 3.77 38.786 0.075 17.79 7.13 12.85
3/8/2023 5:00:00 AM 3.73 38.714 0.075 17.79 7.17 12.86
3/8/2023 5:15:00 AM 3.7 38.66 0.075 17.67 6.78 12.86
3/8/2023 5:30:00 AM 3.67 38.606 0.075 17.79 6.41 12.88
3/8/2023 5:45:00 AM 3.65 38.57 0.075 17.79 7.8 12.89
3/8/2023 6:00:00 AM 3.62 38.516 0.075 17.75 6.87 12.89
3/8/2023 6:15:00 AM 3.6 38.48 0.075 17.73 6.3 12.9
3/8/2023 6:30:00 AM 3.57 38.426 0.075 17.66 6.57 12.91
3/8/2023 6:45:00 AM 3.55 38.39 0.075 17.74 6.42 12.93
3/8/2023 7:00:00 AM 3.53 38.354 0.076 17.8 6.78 12.96
3/8/2023 7:15:00 AM 3.51 38.318 0.075 17.73 6.18 13.03
3/8/2023 7:30:00 AM 3.5 38.3 0.075 17.71 6.78 13.12
3/8/2023 7:45:00 AM 3.5 38.3 0.075 17.75 6.62 13.22
3/8/2023 8:00:00 AM 3.51 38.318 0.075 17.78 6.44 13.34
3/8/2023 8:15:00 AM 3.52 38.336 0.075 17.8 6.4 13.44
3/8/2023 8:30:00 AM 3.54 38.372 0.075 17.8 6.19 13.54
3/8/2023 8:45:00 AM 3.56 38.408 0.075 17.8 7.95 13.65
3/8/2023 9:00:00 AM 3.58 38.444 0.074 17.79 6.31 13.74
3/8/2023 9:15:00 AM 3.59 38.462 0.074 17.8 5.99 13.82
3/8/2023 9:30:00 AM 3.62 38.516 0.074 17.71 6.41 13.89
3/8/2023 9:45:00 AM 3.69 38.642 0.074 17.8 5.94 13.98
3/8/2023 10:00:00 AM 3.76 38.768 0.074 17.75 5.87 14.03
3/8/2023 10:15:00 AM 3.94 39.092 0.074 17.74 6.1 14.08
3/8/2023 10:30:00 AM 4.12 39.416 0.073 17.78 6.81 14.08
3/8/2023 10:45:00 AM 4.28 39.704 0.074 17.77 6.09 14.04
3/8/2023 11:00:00 AM 4.47 40.046 0.073 17.68 5.86 14.04
3/8/2023 11:15:00 AM 4.68 40.424 0.073 17.76 6.9 14.08
3/8/2023 11:30:00 AM 4.86 40.748 0.073 17.74 5.57 14.06
3/8/2023 11:45:00 AM 5.01 41.018 0.073 17.73 5.85 14.01
3/8/2023 12:00:00 PM 5.15 41.27 0.073 17.73 5.73 13.97
3/8/2023 12:15:00 PM 5.3 41.54 0.073 17.73 5.79 13.96
3/8/2023 12:30:00 PM 5.47 41.846 0.073 17.7 5.75 13.94
3/8/2023 12:45:00 PM 5.63 42.134 0.073 17.63 5.64 13.87
3/8/2023 1:00:00 PM 5.78 42.404 0.073 17.32 6.95 13.8
3/8/2023 1:15:00 PM 5.91 42.638 0.073 17.28 5.72 13.77
3/8/2023 1:30:00 PM 6.02 42.836 0.072 17.29 5.48 13.76
3/8/2023 1:45:00 PM 6.14 43.052 0.073 17.33 6.01 13.73
3/8/2023 2:00:00 PM 6.25 43.25 0.072 17.38 6.26 13.66
3/8/2023 2:15:00 PM 6.35 43.43 0.072 17.25 6.02 13.59
3/8/2023 2:30:00 PM 6.44 43.592 0.072 16.94 5.62 13.54
3/8/2023 2:45:00 PM 6.52 43.736 0.072 17.25 5.77 13.5
3/8/2023 3:00:00 PM 6.59 43.862 0.072 17.35 5.76 13.47
3/8/2023 3:15:00 PM 6.65 43.97 0.072 17.31 6.14 13.43
3/8/2023 3:30:00 PM 6.69 44.042 0.072 17.37 5.61 13.38
3/8/2023 3:45:00 PM 6.72 44.096 0.072 17.27 5.75 13.32
3/8/2023 4:00:00 PM 6.75 44.15 0.072 17.23 5.92 13.26
3/8/2023 4:15:00 PM 6.77 44.186 0.072 17.2 5.96 13.19
3/8/2023 4:30:00 PM 6.76 44.168 0.072 17.08 6.1 13.11
3/8/2023 4:45:00 PM 6.74 44.132 0.072 17.07 6.55 13.04
3/8/2023 5:00:00 PM 6.72 44.096 0.072 17.05 6.44 12.95
3/8/2023 5:15:00 PM 6.69 44.042 0.072 17.03 5.79 12.86
3/8/2023 5:30:00 PM 6.65 43.97 0.073 17.05 7.13 12.77
3/8/2023 5:45:00 PM 6.61 43.898 0.073 17.01 7.17 12.66
3/8/2023 6:00:00 PM 6.57 43.826 0.073 17 5.94 12.54
3/8/2023 6:15:00 PM 6.52 43.736 0.073 17.07 6.31 12.43
3/8/2023 6:30:00 PM 6.48 43.664 0.073 16.96 5.78 12.3
3/8/2023 6:45:00 PM 6.44 43.592 0.073 17.03 6.3 12.2
3/8/2023 7:00:00 PM 6.4 43.52 0.073 17.04 6.6 12.13
3/8/2023 7:15:00 PM 6.37 43.466 0.073 17.1 6.08 12.07
3/8/2023 7:30:00 PM 6.33 43.394 0.073 17.23 6.73 12.04

These are provisional data and have not been subject to a quality assurance process, but rather are the raw data reported by the instrument.
H: value is above sensor operating range
L: value is below sensor operating range
Offline: station is not reporting data
NC: parameter is not collected at site

Data Availability & Limitations

Uncertainty and potential for error can be associated with environmental monitoring data. Provisional data have not been subject to a quality assurance process, but rather are the raw data reported by the instrument. Data users are cautioned to consider carefully the provisional nature of the information before using it for decisions that concern personal or public safety or the conduct of business that involves substantial monetary or operational consequences.

Approved data are currently available by request by emailing: [email protected]. Approved data have been subject to a quality assurance process to correct for equipment or fouling drift. Data recorded during equipment malfunctions have been removed.

View Historical Stations that have been discontinued.